<?xml version="1.0" encoding="UTF-8" standalone="no" ?>
<gpx xmlns="http://www.topografix.com/GPX/1/1" xmlns:xsi="http://www.w3.org/2001/XMLSchema-instance" xsi:schemaLocation="http://www.topografix.com/GPX/1/1 http://www.topografix.com/GPX/1/1/gpx.xsd" version="1.1" creator="VisuGPX - https://www.visugpx.com">
  <metadata>
    <name>Salins-les-bains - Port-Lesney - Chemin des Gabelous - Belvédère Edgard Faure</name>
    <desc><![CDATA[Randonnée pédestre effectuée le 30 septembre 2021]]></desc>
  </metadata>
  <trk>
    <name><![CDATA[30 sept. 2021 à 09:18:35]]></name>
    <extensions>
      <line xmlns="http://www.topografix.com/GPX/gpx_style/0/2">
        <color>0000FF</color>
        <width>4</width>
      </line>
    </extensions>
    <trkseg>
      <trkpt lat="46.94702" lon="5.87798">
        <ele>329</ele>
        <time>2021-09-30T07:18:35Z</time>
      </trkpt>
      <trkpt lat="46.94704" lon="5.87793">
        <ele>328</ele>
        <time>2021-09-30T07:19:01Z</time>
      </trkpt>
      <trkpt lat="46.9471" lon="5.87795">
        <ele>329</ele>
        <time>2021-09-30T07:19:10Z</time>
      </trkpt>
      <trkpt lat="46.94715" lon="5.87797">
        <ele>329</ele>
        <time>2021-09-30T07:19:17Z</time>
      </trkpt>
      <trkpt lat="46.94721" lon="5.878">
        <ele>329</ele>
        <time>2021-09-30T07:19:22Z</time>
      </trkpt>
      <trkpt lat="46.94726" lon="5.87799">
        <ele>329</ele>
        <time>2021-09-30T07:19:28Z</time>
      </trkpt>
      <trkpt lat="46.94733" lon="5.87796">
        <ele>330</ele>
        <time>2021-09-30T07:19:33Z</time>
      </trkpt>
      <trkpt lat="46.94738" lon="5.87794">
        <ele>329</ele>
        <time>2021-09-30T07:19:38Z</time>
      </trkpt>
      <trkpt lat="46.94749" lon="5.87792">
        <ele>329</ele>
        <time>2021-09-30T07:19:51Z</time>
      </trkpt>
      <trkpt lat="46.94753" lon="5.87789">
        <ele>330</ele>
        <time>2021-09-30T07:19:54Z</time>
      </trkpt>
      <trkpt lat="46.94755" lon="5.87784">
        <ele>329</ele>
        <time>2021-09-30T07:19:57Z</time>
      </trkpt>
      <trkpt lat="46.94759" lon="5.87781">
        <ele>329</ele>
        <time>2021-09-30T07:20:01Z</time>
      </trkpt>
      <trkpt lat="46.94773" lon="5.87775">
        <ele>330</ele>
        <time>2021-09-30T07:20:14Z</time>
      </trkpt>
      <trkpt lat="46.94777" lon="5.87772">
        <ele>330</ele>
        <time>2021-09-30T07:20:18Z</time>
      </trkpt>
      <trkpt lat="46.9478" lon="5.87772">
        <ele>330</ele>
        <time>2021-09-30T07:20:21Z</time>
      </trkpt>
      <trkpt lat="46.94784" lon="5.87769">
        <ele>330</ele>
        <time>2021-09-30T07:20:24Z</time>
      </trkpt>
      <trkpt lat="46.94792" lon="5.87767">
        <ele>330</ele>
        <time>2021-09-30T07:20:31Z</time>
      </trkpt>
      <trkpt lat="46.94797" lon="5.87764">
        <ele>330</ele>
        <time>2021-09-30T07:20:36Z</time>
      </trkpt>
      <trkpt lat="46.94801" lon="5.8776">
        <ele>330</ele>
        <time>2021-09-30T07:20:40Z</time>
      </trkpt>
      <trkpt lat="46.94804" lon="5.87759">
        <ele>330</ele>
        <time>2021-09-30T07:20:43Z</time>
      </trkpt>
      <trkpt lat="46.9481" lon="5.87758">
        <ele>330</ele>
        <time>2021-09-30T07:20:49Z</time>
      </trkpt>
      <trkpt lat="46.94824" lon="5.87765">
        <ele>330</ele>
        <time>2021-09-30T07:21:00Z</time>
      </trkpt>
      <trkpt lat="46.94829" lon="5.87766">
        <ele>330</ele>
        <time>2021-09-30T07:21:03Z</time>
      </trkpt>
      <trkpt lat="46.94835" lon="5.87769">
        <ele>330</ele>
        <time>2021-09-30T07:21:08Z</time>
      </trkpt>
      <trkpt lat="46.94842" lon="5.87779">
        <ele>330</ele>
        <time>2021-09-30T07:21:16Z</time>
      </trkpt>
      <trkpt lat="46.94869" lon="5.87794">
        <ele>331</ele>
        <time>2021-09-30T07:21:41Z</time>
      </trkpt>
      <trkpt lat="46.94875" lon="5.87794">
        <ele>331</ele>
        <time>2021-09-30T07:21:45Z</time>
      </trkpt>
      <trkpt lat="46.94883" lon="5.87794">
        <ele>331</ele>
        <time>2021-09-30T07:21:53Z</time>
      </trkpt>
      <trkpt lat="46.94889" lon="5.87803">
        <ele>333</ele>
        <time>2021-09-30T07:22:07Z</time>
      </trkpt>
      <trkpt lat="46.94897" lon="5.87799">
        <ele>336</ele>
        <time>2021-09-30T07:22:20Z</time>
      </trkpt>
      <trkpt lat="46.94906" lon="5.87777">
        <ele>336</ele>
        <time>2021-09-30T07:22:40Z</time>
      </trkpt>
      <trkpt lat="46.9491" lon="5.8777">
        <ele>336</ele>
        <time>2021-09-30T07:22:46Z</time>
      </trkpt>
      <trkpt lat="46.94914" lon="5.87763">
        <ele>336</ele>
        <time>2021-09-30T07:22:51Z</time>
      </trkpt>
      <trkpt lat="46.9493" lon="5.87734">
        <ele>335</ele>
        <time>2021-09-30T07:23:13Z</time>
      </trkpt>
      <trkpt lat="46.94934" lon="5.87726">
        <ele>335</ele>
        <time>2021-09-30T07:23:17Z</time>
      </trkpt>
      <trkpt lat="46.94939" lon="5.87708">
        <ele>334</ele>
        <time>2021-09-30T07:23:30Z</time>
      </trkpt>
      <trkpt lat="46.9494" lon="5.877">
        <ele>334</ele>
        <time>2021-09-30T07:23:35Z</time>
      </trkpt>
      <trkpt lat="46.94943" lon="5.87693">
        <ele>334</ele>
        <time>2021-09-30T07:23:41Z</time>
      </trkpt>
      <trkpt lat="46.94957" lon="5.87673">
        <ele>333</ele>
        <time>2021-09-30T07:23:56Z</time>
      </trkpt>
      <trkpt lat="46.9497" lon="5.87622">
        <ele>332</ele>
        <time>2021-09-30T07:24:26Z</time>
      </trkpt>
      <trkpt lat="46.94986" lon="5.87592">
        <ele>332</ele>
        <time>2021-09-30T07:24:45Z</time>
      </trkpt>
      <trkpt lat="46.94987" lon="5.87583">
        <ele>332</ele>
        <time>2021-09-30T07:24:51Z</time>
      </trkpt>
      <trkpt lat="46.94993" lon="5.87574">
        <ele>332</ele>
        <time>2021-09-30T07:24:58Z</time>
      </trkpt>
      <trkpt lat="46.94996" lon="5.87567">
        <ele>331</ele>
        <time>2021-09-30T07:25:03Z</time>
      </trkpt>
      <trkpt lat="46.94999" lon="5.87558">
        <ele>332</ele>
        <time>2021-09-30T07:25:08Z</time>
      </trkpt>
      <trkpt lat="46.94999" lon="5.8755">
        <ele>331</ele>
        <time>2021-09-30T07:25:13Z</time>
      </trkpt>
      <trkpt lat="46.95003" lon="5.87541">
        <ele>331</ele>
        <time>2021-09-30T07:25:18Z</time>
      </trkpt>
      <trkpt lat="46.95009" lon="5.87531">
        <ele>331</ele>
        <time>2021-09-30T07:25:24Z</time>
      </trkpt>
      <trkpt lat="46.95025" lon="5.87483">
        <ele>332</ele>
        <time>2021-09-30T07:25:56Z</time>
      </trkpt>
      <trkpt lat="46.95032" lon="5.87462">
        <ele>332</ele>
        <time>2021-09-30T07:26:10Z</time>
      </trkpt>
      <trkpt lat="46.95036" lon="5.87458">
        <ele>331</ele>
        <time>2021-09-30T07:26:13Z</time>
      </trkpt>
      <trkpt lat="46.95038" lon="5.87453">
        <ele>332</ele>
        <time>2021-09-30T07:26:16Z</time>
      </trkpt>
      <trkpt lat="46.9504" lon="5.87447">
        <ele>331</ele>
        <time>2021-09-30T07:26:19Z</time>
      </trkpt>
      <trkpt lat="46.95042" lon="5.87438">
        <ele>332</ele>
        <time>2021-09-30T07:26:24Z</time>
      </trkpt>
      <trkpt lat="46.95054" lon="5.87414">
        <ele>332</ele>
        <time>2021-09-30T07:26:41Z</time>
      </trkpt>
      <trkpt lat="46.95068" lon="5.87364">
        <ele>333</ele>
        <time>2021-09-30T07:27:12Z</time>
      </trkpt>
      <trkpt lat="46.9507" lon="5.87356">
        <ele>333</ele>
        <time>2021-09-30T07:27:16Z</time>
      </trkpt>
      <trkpt lat="46.95083" lon="5.87319">
        <ele>333</ele>
        <time>2021-09-30T07:27:41Z</time>
      </trkpt>
      <trkpt lat="46.95091" lon="5.87285">
        <ele>332</ele>
        <time>2021-09-30T07:27:58Z</time>
      </trkpt>
      <trkpt lat="46.95093" lon="5.87277">
        <ele>332</ele>
        <time>2021-09-30T07:28:03Z</time>
      </trkpt>
      <trkpt lat="46.95095" lon="5.87261">
        <ele>331</ele>
        <time>2021-09-30T07:28:12Z</time>
      </trkpt>
      <trkpt lat="46.95114" lon="5.87204">
        <ele>328</ele>
        <time>2021-09-30T07:28:47Z</time>
      </trkpt>
      <trkpt lat="46.95129" lon="5.87148">
        <ele>323</ele>
        <time>2021-09-30T07:29:19Z</time>
      </trkpt>
      <trkpt lat="46.9513" lon="5.87143">
        <ele>323</ele>
        <time>2021-09-30T07:29:23Z</time>
      </trkpt>
      <trkpt lat="46.95131" lon="5.87132">
        <ele>322</ele>
        <time>2021-09-30T07:29:29Z</time>
      </trkpt>
      <trkpt lat="46.95133" lon="5.87115">
        <ele>322</ele>
        <time>2021-09-30T07:29:38Z</time>
      </trkpt>
      <trkpt lat="46.95134" lon="5.87082">
        <ele>322</ele>
        <time>2021-09-30T07:29:58Z</time>
      </trkpt>
      <trkpt lat="46.95135" lon="5.87076">
        <ele>322</ele>
        <time>2021-09-30T07:30:02Z</time>
      </trkpt>
      <trkpt lat="46.95127" lon="5.87055">
        <ele>321</ele>
        <time>2021-09-30T07:30:14Z</time>
      </trkpt>
      <trkpt lat="46.95126" lon="5.87049">
        <ele>321</ele>
        <time>2021-09-30T07:30:17Z</time>
      </trkpt>
      <trkpt lat="46.95128" lon="5.87048">
        <ele>321</ele>
        <time>2021-09-30T07:30:34Z</time>
      </trkpt>
      <trkpt lat="46.95129" lon="5.87042">
        <ele>321</ele>
        <time>2021-09-30T07:32:03Z</time>
      </trkpt>
      <trkpt lat="46.95131" lon="5.87033">
        <ele>322</ele>
        <time>2021-09-30T07:32:08Z</time>
      </trkpt>
      <trkpt lat="46.95131" lon="5.87023">
        <ele>324</ele>
        <time>2021-09-30T07:32:14Z</time>
      </trkpt>
      <trkpt lat="46.95131" lon="5.87013">
        <ele>324</ele>
        <time>2021-09-30T07:32:18Z</time>
      </trkpt>
      <trkpt lat="46.95132" lon="5.87004">
        <ele>324</ele>
        <time>2021-09-30T07:32:23Z</time>
      </trkpt>
      <trkpt lat="46.95132" lon="5.86996">
        <ele>325</ele>
        <time>2021-09-30T07:32:28Z</time>
      </trkpt>
      <trkpt lat="46.95134" lon="5.86987">
        <ele>326</ele>
        <time>2021-09-30T07:32:33Z</time>
      </trkpt>
      <trkpt lat="46.95136" lon="5.86966">
        <ele>326</ele>
        <time>2021-09-30T07:32:59Z</time>
      </trkpt>
      <trkpt lat="46.95143" lon="5.86941">
        <ele>326</ele>
        <time>2021-09-30T07:33:16Z</time>
      </trkpt>
      <trkpt lat="46.95145" lon="5.86924">
        <ele>326</ele>
        <time>2021-09-30T07:33:26Z</time>
      </trkpt>
      <trkpt lat="46.9515" lon="5.86908">
        <ele>326</ele>
        <time>2021-09-30T07:33:35Z</time>
      </trkpt>
      <trkpt lat="46.95151" lon="5.86898">
        <ele>325</ele>
        <time>2021-09-30T07:33:40Z</time>
      </trkpt>
      <trkpt lat="46.95163" lon="5.86838">
        <ele>326</ele>
        <time>2021-09-30T07:34:13Z</time>
      </trkpt>
      <trkpt lat="46.95164" lon="5.86831">
        <ele>326</ele>
        <time>2021-09-30T07:34:18Z</time>
      </trkpt>
      <trkpt lat="46.95167" lon="5.86819">
        <ele>326</ele>
        <time>2021-09-30T07:34:25Z</time>
      </trkpt>
      <trkpt lat="46.95171" lon="5.86811">
        <ele>326</ele>
        <time>2021-09-30T07:34:29Z</time>
      </trkpt>
      <trkpt lat="46.95175" lon="5.86794">
        <ele>326</ele>
        <time>2021-09-30T07:34:39Z</time>
      </trkpt>
      <trkpt lat="46.95189" lon="5.86773">
        <ele>326</ele>
        <time>2021-09-30T07:34:55Z</time>
      </trkpt>
      <trkpt lat="46.95193" lon="5.86752">
        <ele>326</ele>
        <time>2021-09-30T07:35:07Z</time>
      </trkpt>
      <trkpt lat="46.95194" lon="5.86741">
        <ele>326</ele>
        <time>2021-09-30T07:35:14Z</time>
      </trkpt>
      <trkpt lat="46.95204" lon="5.86708">
        <ele>326</ele>
        <time>2021-09-30T07:35:35Z</time>
      </trkpt>
      <trkpt lat="46.95233" lon="5.86652">
        <ele>325</ele>
        <time>2021-09-30T07:36:11Z</time>
      </trkpt>
      <trkpt lat="46.95235" lon="5.86643">
        <ele>325</ele>
        <time>2021-09-30T07:36:17Z</time>
      </trkpt>
      <trkpt lat="46.95239" lon="5.86636">
        <ele>325</ele>
        <time>2021-09-30T07:36:22Z</time>
      </trkpt>
      <trkpt lat="46.95251" lon="5.86604">
        <ele>325</ele>
        <time>2021-09-30T07:36:40Z</time>
      </trkpt>
      <trkpt lat="46.9528" lon="5.86561">
        <ele>325</ele>
        <time>2021-09-30T07:37:13Z</time>
      </trkpt>
      <trkpt lat="46.95313" lon="5.86522">
        <ele>325</ele>
        <time>2021-09-30T07:37:43Z</time>
      </trkpt>
      <trkpt lat="46.95316" lon="5.86514">
        <ele>325</ele>
        <time>2021-09-30T07:37:49Z</time>
      </trkpt>
      <trkpt lat="46.95321" lon="5.86509">
        <ele>325</ele>
        <time>2021-09-30T07:37:54Z</time>
      </trkpt>
      <trkpt lat="46.95332" lon="5.86489">
        <ele>325</ele>
        <time>2021-09-30T07:38:08Z</time>
      </trkpt>
      <trkpt lat="46.95337" lon="5.86485">
        <ele>325</ele>
        <time>2021-09-30T07:38:13Z</time>
      </trkpt>
      <trkpt lat="46.95342" lon="5.86481">
        <ele>325</ele>
        <time>2021-09-30T07:38:19Z</time>
      </trkpt>
      <trkpt lat="46.95354" lon="5.86462">
        <ele>325</ele>
        <time>2021-09-30T07:38:33Z</time>
      </trkpt>
      <trkpt lat="46.9539" lon="5.86429">
        <ele>324</ele>
        <time>2021-09-30T07:39:05Z</time>
      </trkpt>
      <trkpt lat="46.95405" lon="5.86413">
        <ele>325</ele>
        <time>2021-09-30T07:39:19Z</time>
      </trkpt>
      <trkpt lat="46.95411" lon="5.86408">
        <ele>324</ele>
        <time>2021-09-30T07:39:24Z</time>
      </trkpt>
      <trkpt lat="46.9544" lon="5.86371">
        <ele>324</ele>
        <time>2021-09-30T07:39:55Z</time>
      </trkpt>
      <trkpt lat="46.95468" lon="5.86347">
        <ele>324</ele>
        <time>2021-09-30T07:40:19Z</time>
      </trkpt>
      <trkpt lat="46.95473" lon="5.86336">
        <ele>324</ele>
        <time>2021-09-30T07:40:25Z</time>
      </trkpt>
      <trkpt lat="46.95478" lon="5.86329">
        <ele>324</ele>
        <time>2021-09-30T07:40:30Z</time>
      </trkpt>
      <trkpt lat="46.95495" lon="5.86327">
        <ele>324</ele>
        <time>2021-09-30T07:40:44Z</time>
      </trkpt>
      <trkpt lat="46.95501" lon="5.86322">
        <ele>324</ele>
        <time>2021-09-30T07:40:49Z</time>
      </trkpt>
      <trkpt lat="46.9551" lon="5.86311">
        <ele>324</ele>
        <time>2021-09-30T07:40:58Z</time>
      </trkpt>
      <trkpt lat="46.95515" lon="5.86305">
        <ele>324</ele>
        <time>2021-09-30T07:41:03Z</time>
      </trkpt>
      <trkpt lat="46.9555" lon="5.86272">
        <ele>324</ele>
        <time>2021-09-30T07:41:34Z</time>
      </trkpt>
      <trkpt lat="46.95556" lon="5.86267">
        <ele>324</ele>
        <time>2021-09-30T07:41:38Z</time>
      </trkpt>
      <trkpt lat="46.9556" lon="5.8626">
        <ele>324</ele>
        <time>2021-09-30T07:41:43Z</time>
      </trkpt>
      <trkpt lat="46.95565" lon="5.86255">
        <ele>324</ele>
        <time>2021-09-30T07:41:47Z</time>
      </trkpt>
      <trkpt lat="46.95569" lon="5.86249">
        <ele>323</ele>
        <time>2021-09-30T07:41:52Z</time>
      </trkpt>
      <trkpt lat="46.95574" lon="5.86245">
        <ele>323</ele>
        <time>2021-09-30T07:41:56Z</time>
      </trkpt>
      <trkpt lat="46.95578" lon="5.86239">
        <ele>324</ele>
        <time>2021-09-30T07:42:01Z</time>
      </trkpt>
      <trkpt lat="46.95584" lon="5.86236">
        <ele>324</ele>
        <time>2021-09-30T07:42:07Z</time>
      </trkpt>
      <trkpt lat="46.95593" lon="5.86223">
        <ele>324</ele>
        <time>2021-09-30T07:42:18Z</time>
      </trkpt>
      <trkpt lat="46.95606" lon="5.86209">
        <ele>324</ele>
        <time>2021-09-30T07:42:31Z</time>
      </trkpt>
      <trkpt lat="46.95613" lon="5.86203">
        <ele>324</ele>
        <time>2021-09-30T07:42:37Z</time>
      </trkpt>
      <trkpt lat="46.95626" lon="5.86194">
        <ele>324</ele>
        <time>2021-09-30T07:42:49Z</time>
      </trkpt>
      <trkpt lat="46.95645" lon="5.86166">
        <ele>324</ele>
        <time>2021-09-30T07:43:09Z</time>
      </trkpt>
      <trkpt lat="46.95664" lon="5.86154">
        <ele>325</ele>
        <time>2021-09-30T07:43:35Z</time>
      </trkpt>
      <trkpt lat="46.9567" lon="5.86147">
        <ele>326</ele>
        <time>2021-09-30T07:43:42Z</time>
      </trkpt>
      <trkpt lat="46.9568" lon="5.8613">
        <ele>329</ele>
        <time>2021-09-30T07:43:59Z</time>
      </trkpt>
      <trkpt lat="46.95686" lon="5.86124">
        <ele>330</ele>
        <time>2021-09-30T07:44:04Z</time>
      </trkpt>
      <trkpt lat="46.95699" lon="5.86109">
        <ele>333</ele>
        <time>2021-09-30T07:44:25Z</time>
      </trkpt>
      <trkpt lat="46.95708" lon="5.86102">
        <ele>336</ele>
        <time>2021-09-30T07:44:39Z</time>
      </trkpt>
      <trkpt lat="46.95714" lon="5.86093">
        <ele>337</ele>
        <time>2021-09-30T07:44:47Z</time>
      </trkpt>
      <trkpt lat="46.95723" lon="5.86088">
        <ele>338</ele>
        <time>2021-09-30T07:44:57Z</time>
      </trkpt>
      <trkpt lat="46.95747" lon="5.86049">
        <ele>342</ele>
        <time>2021-09-30T07:45:33Z</time>
      </trkpt>
      <trkpt lat="46.95766" lon="5.86031">
        <ele>344</ele>
        <time>2021-09-30T07:45:54Z</time>
      </trkpt>
      <trkpt lat="46.95792" lon="5.86013">
        <ele>349</ele>
        <time>2021-09-30T07:46:29Z</time>
      </trkpt>
      <trkpt lat="46.95804" lon="5.86014">
        <ele>350</ele>
        <time>2021-09-30T07:46:42Z</time>
      </trkpt>
      <trkpt lat="46.95811" lon="5.86009">
        <ele>351</ele>
        <time>2021-09-30T07:46:49Z</time>
      </trkpt>
      <trkpt lat="46.95814" lon="5.86001">
        <ele>351</ele>
        <time>2021-09-30T07:46:54Z</time>
      </trkpt>
      <trkpt lat="46.95825" lon="5.85979">
        <ele>354</ele>
        <time>2021-09-30T07:47:11Z</time>
      </trkpt>
      <trkpt lat="46.95829" lon="5.85973">
        <ele>354</ele>
        <time>2021-09-30T07:47:16Z</time>
      </trkpt>
      <trkpt lat="46.95839" lon="5.85958">
        <ele>355</ele>
        <time>2021-09-30T07:47:29Z</time>
      </trkpt>
      <trkpt lat="46.95844" lon="5.85953">
        <ele>356</ele>
        <time>2021-09-30T07:47:34Z</time>
      </trkpt>
      <trkpt lat="46.95849" lon="5.85948">
        <ele>356</ele>
        <time>2021-09-30T07:47:39Z</time>
      </trkpt>
      <trkpt lat="46.9586" lon="5.85937">
        <ele>357</ele>
        <time>2021-09-30T07:47:50Z</time>
      </trkpt>
      <trkpt lat="46.95864" lon="5.85933">
        <ele>358</ele>
        <time>2021-09-30T07:47:54Z</time>
      </trkpt>
      <trkpt lat="46.95871" lon="5.8592">
        <ele>359</ele>
        <time>2021-09-30T07:48:05Z</time>
      </trkpt>
      <trkpt lat="46.95876" lon="5.85913">
        <ele>360</ele>
        <time>2021-09-30T07:48:13Z</time>
      </trkpt>
      <trkpt lat="46.95885" lon="5.85898">
        <ele>361</ele>
        <time>2021-09-30T07:48:32Z</time>
      </trkpt>
      <trkpt lat="46.95885" lon="5.8589">
        <ele>361</ele>
        <time>2021-09-30T07:48:44Z</time>
      </trkpt>
      <trkpt lat="46.95884" lon="5.85884">
        <ele>361</ele>
        <time>2021-09-30T07:49:08Z</time>
      </trkpt>
      <trkpt lat="46.95887" lon="5.85877">
        <ele>360</ele>
        <time>2021-09-30T07:50:14Z</time>
      </trkpt>
      <trkpt lat="46.95889" lon="5.8587">
        <ele>360</ele>
        <time>2021-09-30T07:50:50Z</time>
      </trkpt>
      <trkpt lat="46.95891" lon="5.85863">
        <ele>360</ele>
        <time>2021-09-30T07:51:02Z</time>
      </trkpt>
      <trkpt lat="46.95898" lon="5.8585">
        <ele>360</ele>
        <time>2021-09-30T07:51:12Z</time>
      </trkpt>
      <trkpt lat="46.95902" lon="5.85844">
        <ele>360</ele>
        <time>2021-09-30T07:51:17Z</time>
      </trkpt>
      <trkpt lat="46.95909" lon="5.85826">
        <ele>360</ele>
        <time>2021-09-30T07:51:35Z</time>
      </trkpt>
      <trkpt lat="46.95915" lon="5.85817">
        <ele>360</ele>
        <time>2021-09-30T07:51:43Z</time>
      </trkpt>
      <trkpt lat="46.95917" lon="5.85808">
        <ele>360</ele>
        <time>2021-09-30T07:51:49Z</time>
      </trkpt>
      <trkpt lat="46.95921" lon="5.85801">
        <ele>360</ele>
        <time>2021-09-30T07:51:54Z</time>
      </trkpt>
      <trkpt lat="46.95924" lon="5.85795">
        <ele>360</ele>
        <time>2021-09-30T07:51:59Z</time>
      </trkpt>
      <trkpt lat="46.9593" lon="5.8579">
        <ele>360</ele>
        <time>2021-09-30T07:52:05Z</time>
      </trkpt>
      <trkpt lat="46.95932" lon="5.85774">
        <ele>360</ele>
        <time>2021-09-30T07:52:17Z</time>
      </trkpt>
      <trkpt lat="46.95933" lon="5.85768">
        <ele>360</ele>
        <time>2021-09-30T07:52:20Z</time>
      </trkpt>
      <trkpt lat="46.95933" lon="5.85757">
        <ele>360</ele>
        <time>2021-09-30T07:52:27Z</time>
      </trkpt>
      <trkpt lat="46.95933" lon="5.85736">
        <ele>360</ele>
        <time>2021-09-30T07:52:42Z</time>
      </trkpt>
      <trkpt lat="46.95939" lon="5.85712">
        <ele>360</ele>
        <time>2021-09-30T07:52:59Z</time>
      </trkpt>
      <trkpt lat="46.95944" lon="5.857">
        <ele>361</ele>
        <time>2021-09-30T07:53:09Z</time>
      </trkpt>
      <trkpt lat="46.9595" lon="5.85695">
        <ele>361</ele>
        <time>2021-09-30T07:53:15Z</time>
      </trkpt>
      <trkpt lat="46.95954" lon="5.85688">
        <ele>362</ele>
        <time>2021-09-30T07:53:19Z</time>
      </trkpt>
      <trkpt lat="46.95958" lon="5.85683">
        <ele>362</ele>
        <time>2021-09-30T07:53:25Z</time>
      </trkpt>
      <trkpt lat="46.95963" lon="5.85677">
        <ele>362</ele>
        <time>2021-09-30T07:53:31Z</time>
      </trkpt>
      <trkpt lat="46.95967" lon="5.85668">
        <ele>363</ele>
        <time>2021-09-30T07:53:38Z</time>
      </trkpt>
      <trkpt lat="46.95972" lon="5.85663">
        <ele>363</ele>
        <time>2021-09-30T07:53:44Z</time>
      </trkpt>
      <trkpt lat="46.95976" lon="5.8566">
        <ele>363</ele>
        <time>2021-09-30T07:53:47Z</time>
      </trkpt>
      <trkpt lat="46.95978" lon="5.85655">
        <ele>363</ele>
        <time>2021-09-30T07:53:50Z</time>
      </trkpt>
      <trkpt lat="46.95979" lon="5.85649">
        <ele>363</ele>
        <time>2021-09-30T07:53:53Z</time>
      </trkpt>
      <trkpt lat="46.95997" lon="5.85622">
        <ele>364</ele>
        <time>2021-09-30T07:54:19Z</time>
      </trkpt>
      <trkpt lat="46.96002" lon="5.8562">
        <ele>364</ele>
        <time>2021-09-30T07:54:23Z</time>
      </trkpt>
      <trkpt lat="46.9601" lon="5.8562">
        <ele>365</ele>
        <time>2021-09-30T07:54:31Z</time>
      </trkpt>
      <trkpt lat="46.96014" lon="5.8562">
        <ele>365</ele>
        <time>2021-09-30T07:54:33Z</time>
      </trkpt>
      <trkpt lat="46.96021" lon="5.85619">
        <ele>366</ele>
        <time>2021-09-30T07:54:40Z</time>
      </trkpt>
      <trkpt lat="46.96026" lon="5.8562">
        <ele>366</ele>
        <time>2021-09-30T07:54:43Z</time>
      </trkpt>
      <trkpt lat="46.96034" lon="5.85619">
        <ele>367</ele>
        <time>2021-09-30T07:54:50Z</time>
      </trkpt>
      <trkpt lat="46.96043" lon="5.85622">
        <ele>368</ele>
        <time>2021-09-30T07:54:59Z</time>
      </trkpt>
      <trkpt lat="46.96048" lon="5.8562">
        <ele>369</ele>
        <time>2021-09-30T07:55:03Z</time>
      </trkpt>
      <trkpt lat="46.96081" lon="5.85598">
        <ele>371</ele>
        <time>2021-09-30T07:55:35Z</time>
      </trkpt>
      <trkpt lat="46.96097" lon="5.85589">
        <ele>373</ele>
        <time>2021-09-30T07:55:51Z</time>
      </trkpt>
      <trkpt lat="46.96101" lon="5.85583">
        <ele>374</ele>
        <time>2021-09-30T07:55:57Z</time>
      </trkpt>
      <trkpt lat="46.96118" lon="5.85572">
        <ele>376</ele>
        <time>2021-09-30T07:56:14Z</time>
      </trkpt>
      <trkpt lat="46.9613" lon="5.85567">
        <ele>377</ele>
        <time>2021-09-30T07:56:24Z</time>
      </trkpt>
      <trkpt lat="46.96147" lon="5.85553">
        <ele>377</ele>
        <time>2021-09-30T07:56:43Z</time>
      </trkpt>
      <trkpt lat="46.96159" lon="5.85548">
        <ele>377</ele>
        <time>2021-09-30T07:56:54Z</time>
      </trkpt>
      <trkpt lat="46.96169" lon="5.85539">
        <ele>377</ele>
        <time>2021-09-30T07:57:04Z</time>
      </trkpt>
      <trkpt lat="46.96174" lon="5.85533">
        <ele>377</ele>
        <time>2021-09-30T07:57:09Z</time>
      </trkpt>
      <trkpt lat="46.96176" lon="5.85523">
        <ele>377</ele>
        <time>2021-09-30T07:57:17Z</time>
      </trkpt>
      <trkpt lat="46.96181" lon="5.85515">
        <ele>377</ele>
        <time>2021-09-30T07:57:21Z</time>
      </trkpt>
      <trkpt lat="46.96185" lon="5.8551">
        <ele>378</ele>
        <time>2021-09-30T07:57:26Z</time>
      </trkpt>
      <trkpt lat="46.9619" lon="5.85505">
        <ele>379</ele>
        <time>2021-09-30T07:57:32Z</time>
      </trkpt>
      <trkpt lat="46.96197" lon="5.85502">
        <ele>379</ele>
        <time>2021-09-30T07:57:37Z</time>
      </trkpt>
      <trkpt lat="46.962" lon="5.85503">
        <ele>378</ele>
        <time>2021-09-30T08:00:51Z</time>
      </trkpt>
      <trkpt lat="46.96208" lon="5.85497">
        <ele>378</ele>
        <time>2021-09-30T08:01:05Z</time>
      </trkpt>
      <trkpt lat="46.96221" lon="5.85496">
        <ele>378</ele>
        <time>2021-09-30T08:01:15Z</time>
      </trkpt>
      <trkpt lat="46.96229" lon="5.85489">
        <ele>378</ele>
        <time>2021-09-30T08:01:27Z</time>
      </trkpt>
      <trkpt lat="46.96247" lon="5.85465">
        <ele>382</ele>
        <time>2021-09-30T08:01:53Z</time>
      </trkpt>
      <trkpt lat="46.96257" lon="5.85454">
        <ele>383</ele>
        <time>2021-09-30T08:02:04Z</time>
      </trkpt>
      <trkpt lat="46.96261" lon="5.85451">
        <ele>383</ele>
        <time>2021-09-30T08:02:08Z</time>
      </trkpt>
      <trkpt lat="46.96268" lon="5.85443">
        <ele>383</ele>
        <time>2021-09-30T08:02:18Z</time>
      </trkpt>
      <trkpt lat="46.96273" lon="5.8544">
        <ele>384</ele>
        <time>2021-09-30T08:02:23Z</time>
      </trkpt>
      <trkpt lat="46.96277" lon="5.85436">
        <ele>384</ele>
        <time>2021-09-30T08:02:26Z</time>
      </trkpt>
      <trkpt lat="46.96283" lon="5.85434">
        <ele>384</ele>
        <time>2021-09-30T08:02:36Z</time>
      </trkpt>
      <trkpt lat="46.96287" lon="5.85428">
        <ele>385</ele>
        <time>2021-09-30T08:03:02Z</time>
      </trkpt>
      <trkpt lat="46.96292" lon="5.85423">
        <ele>385</ele>
        <time>2021-09-30T08:03:07Z</time>
      </trkpt>
      <trkpt lat="46.96298" lon="5.85417">
        <ele>385</ele>
        <time>2021-09-30T08:03:15Z</time>
      </trkpt>
      <trkpt lat="46.96305" lon="5.85411">
        <ele>384</ele>
        <time>2021-09-30T08:03:23Z</time>
      </trkpt>
      <trkpt lat="46.96324" lon="5.85392">
        <ele>384</ele>
        <time>2021-09-30T08:03:43Z</time>
      </trkpt>
      <trkpt lat="46.96329" lon="5.85387">
        <ele>383</ele>
        <time>2021-09-30T08:03:48Z</time>
      </trkpt>
      <trkpt lat="46.96334" lon="5.85384">
        <ele>384</ele>
        <time>2021-09-30T08:03:53Z</time>
      </trkpt>
      <trkpt lat="46.96367" lon="5.85359">
        <ele>382</ele>
        <time>2021-09-30T08:04:28Z</time>
      </trkpt>
      <trkpt lat="46.96371" lon="5.85353">
        <ele>382</ele>
        <time>2021-09-30T08:04:34Z</time>
      </trkpt>
      <trkpt lat="46.96381" lon="5.85342">
        <ele>382</ele>
        <time>2021-09-30T08:04:45Z</time>
      </trkpt>
      <trkpt lat="46.96385" lon="5.85333">
        <ele>381</ele>
        <time>2021-09-30T08:04:54Z</time>
      </trkpt>
      <trkpt lat="46.96392" lon="5.8533">
        <ele>381</ele>
        <time>2021-09-30T08:05:02Z</time>
      </trkpt>
      <trkpt lat="46.96404" lon="5.85322">
        <ele>381</ele>
        <time>2021-09-30T08:05:16Z</time>
      </trkpt>
      <trkpt lat="46.96409" lon="5.8532">
        <ele>380</ele>
        <time>2021-09-30T08:05:21Z</time>
      </trkpt>
      <trkpt lat="46.96444" lon="5.85306">
        <ele>381</ele>
        <time>2021-09-30T08:05:55Z</time>
      </trkpt>
      <trkpt lat="46.96459" lon="5.85299">
        <ele>381</ele>
        <time>2021-09-30T08:06:07Z</time>
      </trkpt>
      <trkpt lat="46.96464" lon="5.853">
        <ele>381</ele>
        <time>2021-09-30T08:06:13Z</time>
      </trkpt>
      <trkpt lat="46.9647" lon="5.85299">
        <ele>381</ele>
        <time>2021-09-30T08:06:18Z</time>
      </trkpt>
      <trkpt lat="46.96487" lon="5.85294">
        <ele>381</ele>
        <time>2021-09-30T08:06:32Z</time>
      </trkpt>
      <trkpt lat="46.96492" lon="5.85293">
        <ele>382</ele>
        <time>2021-09-30T08:06:36Z</time>
      </trkpt>
      <trkpt lat="46.965" lon="5.8529">
        <ele>382</ele>
        <time>2021-09-30T08:06:46Z</time>
      </trkpt>
      <trkpt lat="46.96507" lon="5.85292">
        <ele>384</ele>
        <time>2021-09-30T08:06:59Z</time>
      </trkpt>
      <trkpt lat="46.96512" lon="5.85292">
        <ele>383</ele>
        <time>2021-09-30T08:07:03Z</time>
      </trkpt>
      <trkpt lat="46.96519" lon="5.85295">
        <ele>383</ele>
        <time>2021-09-30T08:07:11Z</time>
      </trkpt>
      <trkpt lat="46.96529" lon="5.85292">
        <ele>384</ele>
        <time>2021-09-30T08:07:21Z</time>
      </trkpt>
      <trkpt lat="46.9657" lon="5.8529">
        <ele>382</ele>
        <time>2021-09-30T08:07:56Z</time>
      </trkpt>
      <trkpt lat="46.96583" lon="5.85295">
        <ele>380</ele>
        <time>2021-09-30T08:08:07Z</time>
      </trkpt>
      <trkpt lat="46.96569" lon="5.8523">
        <ele>383</ele>
        <time>2021-09-30T08:09:03Z</time>
      </trkpt>
      <trkpt lat="46.96535" lon="5.85192">
        <ele>386</ele>
        <time>2021-09-30T08:09:43Z</time>
      </trkpt>
      <trkpt lat="46.96506" lon="5.85166">
        <ele>388</ele>
        <time>2021-09-30T08:10:13Z</time>
      </trkpt>
      <trkpt lat="46.96506" lon="5.85145">
        <ele>389</ele>
        <time>2021-09-30T08:10:30Z</time>
      </trkpt>
      <trkpt lat="46.96505" lon="5.85137">
        <ele>389</ele>
        <time>2021-09-30T08:10:34Z</time>
      </trkpt>
      <trkpt lat="46.96505" lon="5.85127">
        <ele>388</ele>
        <time>2021-09-30T08:10:40Z</time>
      </trkpt>
      <trkpt lat="46.96506" lon="5.85119">
        <ele>388</ele>
        <time>2021-09-30T08:10:48Z</time>
      </trkpt>
      <trkpt lat="46.96511" lon="5.85105">
        <ele>389</ele>
        <time>2021-09-30T08:10:59Z</time>
      </trkpt>
      <trkpt lat="46.96507" lon="5.85079">
        <ele>388</ele>
        <time>2021-09-30T08:11:14Z</time>
      </trkpt>
      <trkpt lat="46.96513" lon="5.85073">
        <ele>389</ele>
        <time>2021-09-30T08:11:23Z</time>
      </trkpt>
      <trkpt lat="46.96509" lon="5.85071">
        <ele>387</ele>
        <time>2021-09-30T08:13:58Z</time>
      </trkpt>
      <trkpt lat="46.9651" lon="5.85077">
        <ele>387</ele>
        <time>2021-09-30T08:15:05Z</time>
      </trkpt>
      <trkpt lat="46.96507" lon="5.85091">
        <ele>387</ele>
        <time>2021-09-30T08:15:17Z</time>
      </trkpt>
      <trkpt lat="46.96506" lon="5.85082">
        <ele>387</ele>
        <time>2021-09-30T08:16:27Z</time>
      </trkpt>
      <trkpt lat="46.96506" lon="5.85072">
        <ele>386</ele>
        <time>2021-09-30T08:16:41Z</time>
      </trkpt>
      <trkpt lat="46.96507" lon="5.85057">
        <ele>386</ele>
        <time>2021-09-30T08:16:53Z</time>
      </trkpt>
      <trkpt lat="46.96509" lon="5.85048">
        <ele>386</ele>
        <time>2021-09-30T08:16:58Z</time>
      </trkpt>
      <trkpt lat="46.96509" lon="5.85039">
        <ele>386</ele>
        <time>2021-09-30T08:17:06Z</time>
      </trkpt>
      <trkpt lat="46.9652" lon="5.85001">
        <ele>385</ele>
        <time>2021-09-30T08:17:33Z</time>
      </trkpt>
      <trkpt lat="46.96527" lon="5.84985">
        <ele>385</ele>
        <time>2021-09-30T08:17:47Z</time>
      </trkpt>
      <trkpt lat="46.96554" lon="5.84957">
        <ele>385</ele>
        <time>2021-09-30T08:18:20Z</time>
      </trkpt>
      <trkpt lat="46.9656" lon="5.84952">
        <ele>387</ele>
        <time>2021-09-30T08:18:25Z</time>
      </trkpt>
      <trkpt lat="46.96566" lon="5.84947">
        <ele>386</ele>
        <time>2021-09-30T08:18:31Z</time>
      </trkpt>
      <trkpt lat="46.96575" lon="5.84939">
        <ele>386</ele>
        <time>2021-09-30T08:18:43Z</time>
      </trkpt>
      <trkpt lat="46.96582" lon="5.84932">
        <ele>386</ele>
        <time>2021-09-30T08:18:49Z</time>
      </trkpt>
      <trkpt lat="46.96589" lon="5.84931">
        <ele>386</ele>
        <time>2021-09-30T08:18:56Z</time>
      </trkpt>
      <trkpt lat="46.96608" lon="5.84925">
        <ele>388</ele>
        <time>2021-09-30T08:19:14Z</time>
      </trkpt>
      <trkpt lat="46.96619" lon="5.84926">
        <ele>388</ele>
        <time>2021-09-30T08:19:23Z</time>
      </trkpt>
      <trkpt lat="46.96628" lon="5.84921">
        <ele>389</ele>
        <time>2021-09-30T08:19:36Z</time>
      </trkpt>
      <trkpt lat="46.96642" lon="5.84918">
        <ele>390</ele>
        <time>2021-09-30T08:19:50Z</time>
      </trkpt>
      <trkpt lat="46.96655" lon="5.84912">
        <ele>390</ele>
        <time>2021-09-30T08:20:06Z</time>
      </trkpt>
      <trkpt lat="46.9667" lon="5.84907">
        <ele>388</ele>
        <time>2021-09-30T08:20:36Z</time>
      </trkpt>
      <trkpt lat="46.96684" lon="5.84905">
        <ele>388</ele>
        <time>2021-09-30T08:21:00Z</time>
      </trkpt>
      <trkpt lat="46.96704" lon="5.84899">
        <ele>388</ele>
        <time>2021-09-30T08:21:23Z</time>
      </trkpt>
      <trkpt lat="46.96767" lon="5.84893">
        <ele>386</ele>
        <time>2021-09-30T08:22:05Z</time>
      </trkpt>
      <trkpt lat="46.96782" lon="5.84892">
        <ele>387</ele>
        <time>2021-09-30T08:22:14Z</time>
      </trkpt>
      <trkpt lat="46.96796" lon="5.84887">
        <ele>386</ele>
        <time>2021-09-30T08:22:24Z</time>
      </trkpt>
      <trkpt lat="46.96855" lon="5.84889">
        <ele>386</ele>
        <time>2021-09-30T08:23:03Z</time>
      </trkpt>
      <trkpt lat="46.96871" lon="5.84885">
        <ele>386</ele>
        <time>2021-09-30T08:23:21Z</time>
      </trkpt>
      <trkpt lat="46.96888" lon="5.84895">
        <ele>385</ele>
        <time>2021-09-30T08:24:02Z</time>
      </trkpt>
      <trkpt lat="46.96896" lon="5.84903">
        <ele>386</ele>
        <time>2021-09-30T08:24:12Z</time>
      </trkpt>
      <trkpt lat="46.96918" lon="5.84913">
        <ele>385</ele>
        <time>2021-09-30T08:24:30Z</time>
      </trkpt>
      <trkpt lat="46.96932" lon="5.84909">
        <ele>385</ele>
        <time>2021-09-30T08:24:40Z</time>
      </trkpt>
      <trkpt lat="46.96959" lon="5.84914">
        <ele>384</ele>
        <time>2021-09-30T08:25:02Z</time>
      </trkpt>
      <trkpt lat="46.96975" lon="5.84915">
        <ele>382</ele>
        <time>2021-09-30T08:25:10Z</time>
      </trkpt>
      <trkpt lat="46.97019" lon="5.84928">
        <ele>382</ele>
        <time>2021-09-30T08:25:29Z</time>
      </trkpt>
      <trkpt lat="46.97031" lon="5.84942">
        <ele>381</ele>
        <time>2021-09-30T08:25:38Z</time>
      </trkpt>
      <trkpt lat="46.97043" lon="5.84948">
        <ele>380</ele>
        <time>2021-09-30T08:25:46Z</time>
      </trkpt>
      <trkpt lat="46.97054" lon="5.84962">
        <ele>378</ele>
        <time>2021-09-30T08:26:00Z</time>
      </trkpt>
      <trkpt lat="46.97062" lon="5.84985">
        <ele>375</ele>
        <time>2021-09-30T08:26:18Z</time>
      </trkpt>
      <trkpt lat="46.97067" lon="5.8499">
        <ele>374</ele>
        <time>2021-09-30T08:26:24Z</time>
      </trkpt>
      <trkpt lat="46.97073" lon="5.84993">
        <ele>373</ele>
        <time>2021-09-30T08:26:28Z</time>
      </trkpt>
      <trkpt lat="46.97091" lon="5.84994">
        <ele>371</ele>
        <time>2021-09-30T08:26:48Z</time>
      </trkpt>
      <trkpt lat="46.97096" lon="5.84996">
        <ele>370</ele>
        <time>2021-09-30T08:26:54Z</time>
      </trkpt>
      <trkpt lat="46.97101" lon="5.84991">
        <ele>369</ele>
        <time>2021-09-30T08:26:59Z</time>
      </trkpt>
      <trkpt lat="46.97113" lon="5.84988">
        <ele>368</ele>
        <time>2021-09-30T08:27:10Z</time>
      </trkpt>
      <trkpt lat="46.97144" lon="5.84986">
        <ele>363</ele>
        <time>2021-09-30T08:27:44Z</time>
      </trkpt>
      <trkpt lat="46.97154" lon="5.84989">
        <ele>361</ele>
        <time>2021-09-30T08:27:54Z</time>
      </trkpt>
      <trkpt lat="46.97161" lon="5.84988">
        <ele>361</ele>
        <time>2021-09-30T08:28:01Z</time>
      </trkpt>
      <trkpt lat="46.97186" lon="5.84976">
        <ele>359</ele>
        <time>2021-09-30T08:28:38Z</time>
      </trkpt>
      <trkpt lat="46.97198" lon="5.84967">
        <ele>358</ele>
        <time>2021-09-30T08:28:54Z</time>
      </trkpt>
      <trkpt lat="46.97211" lon="5.84963">
        <ele>357</ele>
        <time>2021-09-30T08:29:07Z</time>
      </trkpt>
      <trkpt lat="46.97216" lon="5.84959">
        <ele>357</ele>
        <time>2021-09-30T08:29:12Z</time>
      </trkpt>
      <trkpt lat="46.97229" lon="5.84955">
        <ele>356</ele>
        <time>2021-09-30T08:29:25Z</time>
      </trkpt>
      <trkpt lat="46.97246" lon="5.84945">
        <ele>355</ele>
        <time>2021-09-30T08:29:40Z</time>
      </trkpt>
      <trkpt lat="46.97252" lon="5.84943">
        <ele>354</ele>
        <time>2021-09-30T08:29:46Z</time>
      </trkpt>
      <trkpt lat="46.97262" lon="5.84939">
        <ele>354</ele>
        <time>2021-09-30T08:29:55Z</time>
      </trkpt>
      <trkpt lat="46.97268" lon="5.84938">
        <ele>354</ele>
        <time>2021-09-30T08:29:59Z</time>
      </trkpt>
      <trkpt lat="46.97305" lon="5.8492">
        <ele>353</ele>
        <time>2021-09-30T08:30:33Z</time>
      </trkpt>
      <trkpt lat="46.9731" lon="5.84917">
        <ele>353</ele>
        <time>2021-09-30T08:30:37Z</time>
      </trkpt>
      <trkpt lat="46.97315" lon="5.84913">
        <ele>353</ele>
        <time>2021-09-30T08:30:42Z</time>
      </trkpt>
      <trkpt lat="46.97329" lon="5.84913">
        <ele>353</ele>
        <time>2021-09-30T08:30:52Z</time>
      </trkpt>
      <trkpt lat="46.97339" lon="5.84911">
        <ele>353</ele>
        <time>2021-09-30T08:31:00Z</time>
      </trkpt>
      <trkpt lat="46.97358" lon="5.84913">
        <ele>353</ele>
        <time>2021-09-30T08:31:15Z</time>
      </trkpt>
      <trkpt lat="46.97373" lon="5.84922">
        <ele>353</ele>
        <time>2021-09-30T08:31:30Z</time>
      </trkpt>
      <trkpt lat="46.97386" lon="5.84923">
        <ele>354</ele>
        <time>2021-09-30T08:31:39Z</time>
      </trkpt>
      <trkpt lat="46.9742" lon="5.84937">
        <ele>354</ele>
        <time>2021-09-30T08:32:05Z</time>
      </trkpt>
      <trkpt lat="46.97449" lon="5.84937">
        <ele>355</ele>
        <time>2021-09-30T08:32:26Z</time>
      </trkpt>
      <trkpt lat="46.97454" lon="5.84939">
        <ele>355</ele>
        <time>2021-09-30T08:32:31Z</time>
      </trkpt>
      <trkpt lat="46.97459" lon="5.84938">
        <ele>355</ele>
        <time>2021-09-30T08:32:36Z</time>
      </trkpt>
      <trkpt lat="46.97497" lon="5.84947">
        <ele>357</ele>
        <time>2021-09-30T08:33:08Z</time>
      </trkpt>
      <trkpt lat="46.97503" lon="5.84948">
        <ele>357</ele>
        <time>2021-09-30T08:33:12Z</time>
      </trkpt>
      <trkpt lat="46.97508" lon="5.84946">
        <ele>357</ele>
        <time>2021-09-30T08:33:16Z</time>
      </trkpt>
      <trkpt lat="46.97549" lon="5.84963">
        <ele>359</ele>
        <time>2021-09-30T08:33:51Z</time>
      </trkpt>
      <trkpt lat="46.97556" lon="5.84964">
        <ele>359</ele>
        <time>2021-09-30T08:33:57Z</time>
      </trkpt>
      <trkpt lat="46.97578" lon="5.8498">
        <ele>359</ele>
        <time>2021-09-30T08:34:16Z</time>
      </trkpt>
      <trkpt lat="46.97582" lon="5.84986">
        <ele>359</ele>
        <time>2021-09-30T08:34:20Z</time>
      </trkpt>
      <trkpt lat="46.97595" lon="5.85013">
        <ele>359</ele>
        <time>2021-09-30T08:34:40Z</time>
      </trkpt>
      <trkpt lat="46.976" lon="5.85018">
        <ele>359</ele>
        <time>2021-09-30T08:34:43Z</time>
      </trkpt>
      <trkpt lat="46.97608" lon="5.85033">
        <ele>358</ele>
        <time>2021-09-30T08:34:52Z</time>
      </trkpt>
      <trkpt lat="46.97613" lon="5.85038">
        <ele>358</ele>
        <time>2021-09-30T08:34:58Z</time>
      </trkpt>
      <trkpt lat="46.97641" lon="5.85049">
        <ele>357</ele>
        <time>2021-09-30T08:35:20Z</time>
      </trkpt>
      <trkpt lat="46.97646" lon="5.85052">
        <ele>357</ele>
        <time>2021-09-30T08:35:25Z</time>
      </trkpt>
      <trkpt lat="46.97649" lon="5.85054">
        <ele>357</ele>
        <time>2021-09-30T08:35:28Z</time>
      </trkpt>
      <trkpt lat="46.97679" lon="5.85056">
        <ele>356</ele>
        <time>2021-09-30T08:35:50Z</time>
      </trkpt>
      <trkpt lat="46.97702" lon="5.85062">
        <ele>356</ele>
        <time>2021-09-30T08:36:09Z</time>
      </trkpt>
      <trkpt lat="46.97737" lon="5.85058">
        <ele>357</ele>
        <time>2021-09-30T08:36:42Z</time>
      </trkpt>
      <trkpt lat="46.97752" lon="5.85065">
        <ele>357</ele>
        <time>2021-09-30T08:36:59Z</time>
      </trkpt>
      <trkpt lat="46.97757" lon="5.85068">
        <ele>357</ele>
        <time>2021-09-30T08:37:05Z</time>
      </trkpt>
      <trkpt lat="46.97764" lon="5.85064">
        <ele>357</ele>
        <time>2021-09-30T08:37:11Z</time>
      </trkpt>
      <trkpt lat="46.97769" lon="5.85065">
        <ele>356</ele>
        <time>2021-09-30T08:37:16Z</time>
      </trkpt>
      <trkpt lat="46.97774" lon="5.85063">
        <ele>356</ele>
        <time>2021-09-30T08:37:22Z</time>
      </trkpt>
      <trkpt lat="46.97781" lon="5.85065">
        <ele>357</ele>
        <time>2021-09-30T08:37:32Z</time>
      </trkpt>
      <trkpt lat="46.97788" lon="5.85064">
        <ele>356</ele>
        <time>2021-09-30T08:37:38Z</time>
      </trkpt>
      <trkpt lat="46.97793" lon="5.85067">
        <ele>355</ele>
        <time>2021-09-30T08:37:43Z</time>
      </trkpt>
      <trkpt lat="46.97802" lon="5.85079">
        <ele>355</ele>
        <time>2021-09-30T08:37:54Z</time>
      </trkpt>
      <trkpt lat="46.97811" lon="5.85103">
        <ele>354</ele>
        <time>2021-09-30T08:38:11Z</time>
      </trkpt>
      <trkpt lat="46.97816" lon="5.85111">
        <ele>354</ele>
        <time>2021-09-30T08:38:20Z</time>
      </trkpt>
      <trkpt lat="46.97811" lon="5.85123">
        <ele>355</ele>
        <time>2021-09-30T08:38:32Z</time>
      </trkpt>
      <trkpt lat="46.97813" lon="5.85141">
        <ele>355</ele>
        <time>2021-09-30T08:38:41Z</time>
      </trkpt>
      <trkpt lat="46.97814" lon="5.8515">
        <ele>356</ele>
        <time>2021-09-30T08:38:46Z</time>
      </trkpt>
      <trkpt lat="46.97819" lon="5.85156">
        <ele>356</ele>
        <time>2021-09-30T08:38:51Z</time>
      </trkpt>
      <trkpt lat="46.97829" lon="5.85172">
        <ele>358</ele>
        <time>2021-09-30T08:39:05Z</time>
      </trkpt>
      <trkpt lat="46.97833" lon="5.85179">
        <ele>358</ele>
        <time>2021-09-30T08:39:09Z</time>
      </trkpt>
      <trkpt lat="46.97857" lon="5.85209">
        <ele>358</ele>
        <time>2021-09-30T08:39:36Z</time>
      </trkpt>
      <trkpt lat="46.97878" lon="5.85252">
        <ele>357</ele>
        <time>2021-09-30T08:40:06Z</time>
      </trkpt>
      <trkpt lat="46.97904" lon="5.85283">
        <ele>358</ele>
        <time>2021-09-30T08:40:33Z</time>
      </trkpt>
      <trkpt lat="46.9791" lon="5.85287">
        <ele>358</ele>
        <time>2021-09-30T08:40:39Z</time>
      </trkpt>
      <trkpt lat="46.97913" lon="5.85294">
        <ele>358</ele>
        <time>2021-09-30T08:40:44Z</time>
      </trkpt>
      <trkpt lat="46.97916" lon="5.85301">
        <ele>358</ele>
        <time>2021-09-30T08:40:49Z</time>
      </trkpt>
      <trkpt lat="46.97919" lon="5.85307">
        <ele>359</ele>
        <time>2021-09-30T08:40:54Z</time>
      </trkpt>
      <trkpt lat="46.97924" lon="5.85313">
        <ele>360</ele>
        <time>2021-09-30T08:41:00Z</time>
      </trkpt>
      <trkpt lat="46.97928" lon="5.8532">
        <ele>360</ele>
        <time>2021-09-30T08:41:04Z</time>
      </trkpt>
      <trkpt lat="46.97931" lon="5.85327">
        <ele>360</ele>
        <time>2021-09-30T08:41:10Z</time>
      </trkpt>
      <trkpt lat="46.97936" lon="5.85344">
        <ele>361</ele>
        <time>2021-09-30T08:41:19Z</time>
      </trkpt>
      <trkpt lat="46.97936" lon="5.85352">
        <ele>361</ele>
        <time>2021-09-30T08:41:24Z</time>
      </trkpt>
      <trkpt lat="46.97937" lon="5.85361">
        <ele>361</ele>
        <time>2021-09-30T08:41:29Z</time>
      </trkpt>
      <trkpt lat="46.97939" lon="5.8537">
        <ele>361</ele>
        <time>2021-09-30T08:41:34Z</time>
      </trkpt>
      <trkpt lat="46.9794" lon="5.85378">
        <ele>362</ele>
        <time>2021-09-30T08:41:39Z</time>
      </trkpt>
      <trkpt lat="46.97941" lon="5.85386">
        <ele>362</ele>
        <time>2021-09-30T08:41:43Z</time>
      </trkpt>
      <trkpt lat="46.97954" lon="5.85427">
        <ele>363</ele>
        <time>2021-09-30T08:42:12Z</time>
      </trkpt>
      <trkpt lat="46.97955" lon="5.85452">
        <ele>365</ele>
        <time>2021-09-30T08:42:26Z</time>
      </trkpt>
      <trkpt lat="46.97959" lon="5.85465">
        <ele>366</ele>
        <time>2021-09-30T08:44:18Z</time>
      </trkpt>
      <trkpt lat="46.9796" lon="5.85474">
        <ele>366</ele>
        <time>2021-09-30T08:44:24Z</time>
      </trkpt>
      <trkpt lat="46.97965" lon="5.8549">
        <ele>366</ele>
        <time>2021-09-30T08:44:36Z</time>
      </trkpt>
      <trkpt lat="46.97969" lon="5.85494">
        <ele>367</ele>
        <time>2021-09-30T08:44:41Z</time>
      </trkpt>
      <trkpt lat="46.97977" lon="5.8551">
        <ele>367</ele>
        <time>2021-09-30T08:44:55Z</time>
      </trkpt>
      <trkpt lat="46.97992" lon="5.85528">
        <ele>368</ele>
        <time>2021-09-30T08:45:14Z</time>
      </trkpt>
      <trkpt lat="46.98" lon="5.85535">
        <ele>367</ele>
        <time>2021-09-30T08:45:23Z</time>
      </trkpt>
      <trkpt lat="46.98004" lon="5.85544">
        <ele>367</ele>
        <time>2021-09-30T08:45:29Z</time>
      </trkpt>
      <trkpt lat="46.9801" lon="5.8556">
        <ele>368</ele>
        <time>2021-09-30T08:45:43Z</time>
      </trkpt>
      <trkpt lat="46.98019" lon="5.85573">
        <ele>368</ele>
        <time>2021-09-30T08:45:53Z</time>
      </trkpt>
      <trkpt lat="46.98024" lon="5.85582">
        <ele>369</ele>
        <time>2021-09-30T08:45:58Z</time>
      </trkpt>
      <trkpt lat="46.98037" lon="5.85594">
        <ele>369</ele>
        <time>2021-09-30T08:46:10Z</time>
      </trkpt>
      <trkpt lat="46.98045" lon="5.85612">
        <ele>370</ele>
        <time>2021-09-30T08:46:24Z</time>
      </trkpt>
      <trkpt lat="46.98058" lon="5.85627">
        <ele>372</ele>
        <time>2021-09-30T08:46:41Z</time>
      </trkpt>
      <trkpt lat="46.98065" lon="5.85631">
        <ele>372</ele>
        <time>2021-09-30T08:46:47Z</time>
      </trkpt>
      <trkpt lat="46.98071" lon="5.85635">
        <ele>373</ele>
        <time>2021-09-30T08:46:53Z</time>
      </trkpt>
      <trkpt lat="46.98078" lon="5.8564">
        <ele>373</ele>
        <time>2021-09-30T08:46:59Z</time>
      </trkpt>
      <trkpt lat="46.98085" lon="5.85643">
        <ele>373</ele>
        <time>2021-09-30T08:47:06Z</time>
      </trkpt>
      <trkpt lat="46.98092" lon="5.85651">
        <ele>373</ele>
        <time>2021-09-30T08:47:12Z</time>
      </trkpt>
      <trkpt lat="46.98096" lon="5.85659">
        <ele>373</ele>
        <time>2021-09-30T08:47:18Z</time>
      </trkpt>
      <trkpt lat="46.98113" lon="5.8569">
        <ele>371</ele>
        <time>2021-09-30T08:47:44Z</time>
      </trkpt>
      <trkpt lat="46.9812" lon="5.85696">
        <ele>371</ele>
        <time>2021-09-30T08:47:50Z</time>
      </trkpt>
      <trkpt lat="46.9813" lon="5.85711">
        <ele>370</ele>
        <time>2021-09-30T08:48:00Z</time>
      </trkpt>
      <trkpt lat="46.98141" lon="5.85729">
        <ele>371</ele>
        <time>2021-09-30T08:48:16Z</time>
      </trkpt>
      <trkpt lat="46.98149" lon="5.85755">
        <ele>372</ele>
        <time>2021-09-30T08:48:35Z</time>
      </trkpt>
      <trkpt lat="46.98156" lon="5.85767">
        <ele>372</ele>
        <time>2021-09-30T08:48:44Z</time>
      </trkpt>
      <trkpt lat="46.98159" lon="5.85778">
        <ele>372</ele>
        <time>2021-09-30T08:48:49Z</time>
      </trkpt>
      <trkpt lat="46.98167" lon="5.85805">
        <ele>373</ele>
        <time>2021-09-30T08:49:09Z</time>
      </trkpt>
      <trkpt lat="46.98173" lon="5.85817">
        <ele>373</ele>
        <time>2021-09-30T08:49:19Z</time>
      </trkpt>
      <trkpt lat="46.98187" lon="5.8583">
        <ele>374</ele>
        <time>2021-09-30T08:49:30Z</time>
      </trkpt>
      <trkpt lat="46.98191" lon="5.85836">
        <ele>374</ele>
        <time>2021-09-30T08:49:34Z</time>
      </trkpt>
      <trkpt lat="46.98201" lon="5.85845">
        <ele>375</ele>
        <time>2021-09-30T08:49:47Z</time>
      </trkpt>
      <trkpt lat="46.98206" lon="5.85848">
        <ele>375</ele>
        <time>2021-09-30T08:49:50Z</time>
      </trkpt>
      <trkpt lat="46.98226" lon="5.85865">
        <ele>376</ele>
        <time>2021-09-30T08:50:12Z</time>
      </trkpt>
      <trkpt lat="46.98233" lon="5.85867">
        <ele>376</ele>
        <time>2021-09-30T08:50:17Z</time>
      </trkpt>
      <trkpt lat="46.98241" lon="5.85873">
        <ele>377</ele>
        <time>2021-09-30T08:50:26Z</time>
      </trkpt>
      <trkpt lat="46.98275" lon="5.85901">
        <ele>378</ele>
        <time>2021-09-30T08:50:59Z</time>
      </trkpt>
      <trkpt lat="46.98289" lon="5.85905">
        <ele>379</ele>
        <time>2021-09-30T08:51:12Z</time>
      </trkpt>
      <trkpt lat="46.98301" lon="5.8592">
        <ele>379</ele>
        <time>2021-09-30T08:51:23Z</time>
      </trkpt>
      <trkpt lat="46.98304" lon="5.85931">
        <ele>380</ele>
        <time>2021-09-30T08:51:30Z</time>
      </trkpt>
      <trkpt lat="46.98311" lon="5.85944">
        <ele>381</ele>
        <time>2021-09-30T08:51:45Z</time>
      </trkpt>
      <trkpt lat="46.98328" lon="5.85962">
        <ele>383</ele>
        <time>2021-09-30T08:52:08Z</time>
      </trkpt>
      <trkpt lat="46.98339" lon="5.8597">
        <ele>384</ele>
        <time>2021-09-30T08:52:20Z</time>
      </trkpt>
      <trkpt lat="46.98367" lon="5.85998">
        <ele>386</ele>
        <time>2021-09-30T08:52:51Z</time>
      </trkpt>
      <trkpt lat="46.98374" lon="5.86">
        <ele>387</ele>
        <time>2021-09-30T08:52:57Z</time>
      </trkpt>
      <trkpt lat="46.9838" lon="5.86008">
        <ele>387</ele>
        <time>2021-09-30T08:53:02Z</time>
      </trkpt>
      <trkpt lat="46.98385" lon="5.86014">
        <ele>387</ele>
        <time>2021-09-30T08:53:09Z</time>
      </trkpt>
      <trkpt lat="46.98393" lon="5.86015">
        <ele>386</ele>
        <time>2021-09-30T08:53:19Z</time>
      </trkpt>
      <trkpt lat="46.9842" lon="5.86032">
        <ele>386</ele>
        <time>2021-09-30T08:53:43Z</time>
      </trkpt>
      <trkpt lat="46.9843" lon="5.86037">
        <ele>386</ele>
        <time>2021-09-30T08:53:51Z</time>
      </trkpt>
      <trkpt lat="46.98454" lon="5.86049">
        <ele>384</ele>
        <time>2021-09-30T08:54:22Z</time>
      </trkpt>
      <trkpt lat="46.9849" lon="5.86058">
        <ele>382</ele>
        <time>2021-09-30T08:54:55Z</time>
      </trkpt>
      <trkpt lat="46.98497" lon="5.86057">
        <ele>382</ele>
        <time>2021-09-30T08:55:00Z</time>
      </trkpt>
      <trkpt lat="46.98512" lon="5.86059">
        <ele>381</ele>
        <time>2021-09-30T08:55:17Z</time>
      </trkpt>
      <trkpt lat="46.98523" lon="5.86079">
        <ele>381</ele>
        <time>2021-09-30T08:55:31Z</time>
      </trkpt>
      <trkpt lat="46.98567" lon="5.86093">
        <ele>383</ele>
        <time>2021-09-30T08:56:09Z</time>
      </trkpt>
      <trkpt lat="46.986" lon="5.86112">
        <ele>383</ele>
        <time>2021-09-30T08:56:45Z</time>
      </trkpt>
      <trkpt lat="46.98615" lon="5.86126">
        <ele>384</ele>
        <time>2021-09-30T08:57:00Z</time>
      </trkpt>
      <trkpt lat="46.98621" lon="5.8614">
        <ele>384</ele>
        <time>2021-09-30T08:57:06Z</time>
      </trkpt>
      <trkpt lat="46.98636" lon="5.86147">
        <ele>385</ele>
        <time>2021-09-30T08:57:17Z</time>
      </trkpt>
      <trkpt lat="46.98667" lon="5.86157">
        <ele>386</ele>
        <time>2021-09-30T08:57:39Z</time>
      </trkpt>
      <trkpt lat="46.98718" lon="5.86204">
        <ele>387</ele>
        <time>2021-09-30T08:58:18Z</time>
      </trkpt>
      <trkpt lat="46.98731" lon="5.86217">
        <ele>387</ele>
        <time>2021-09-30T08:58:27Z</time>
      </trkpt>
      <trkpt lat="46.98745" lon="5.86226">
        <ele>388</ele>
        <time>2021-09-30T08:58:44Z</time>
      </trkpt>
      <trkpt lat="46.98753" lon="5.86235">
        <ele>388</ele>
        <time>2021-09-30T08:58:49Z</time>
      </trkpt>
      <trkpt lat="46.98766" lon="5.86246">
        <ele>389</ele>
        <time>2021-09-30T08:59:03Z</time>
      </trkpt>
      <trkpt lat="46.9878" lon="5.86253">
        <ele>389</ele>
        <time>2021-09-30T08:59:15Z</time>
      </trkpt>
      <trkpt lat="46.98785" lon="5.86262">
        <ele>390</ele>
        <time>2021-09-30T08:59:21Z</time>
      </trkpt>
      <trkpt lat="46.98797" lon="5.8627">
        <ele>390</ele>
        <time>2021-09-30T08:59:36Z</time>
      </trkpt>
      <trkpt lat="46.98806" lon="5.86275">
        <ele>391</ele>
        <time>2021-09-30T08:59:48Z</time>
      </trkpt>
      <trkpt lat="46.98812" lon="5.86283">
        <ele>392</ele>
        <time>2021-09-30T08:59:56Z</time>
      </trkpt>
      <trkpt lat="46.98822" lon="5.86293">
        <ele>393</ele>
        <time>2021-09-30T09:00:08Z</time>
      </trkpt>
      <trkpt lat="46.98829" lon="5.86305">
        <ele>393</ele>
        <time>2021-09-30T09:00:16Z</time>
      </trkpt>
      <trkpt lat="46.98837" lon="5.86341">
        <ele>395</ele>
        <time>2021-09-30T09:00:37Z</time>
      </trkpt>
      <trkpt lat="46.98843" lon="5.86348">
        <ele>396</ele>
        <time>2021-09-30T09:00:45Z</time>
      </trkpt>
      <trkpt lat="46.98855" lon="5.8636">
        <ele>396</ele>
        <time>2021-09-30T09:00:58Z</time>
      </trkpt>
      <trkpt lat="46.98861" lon="5.86376">
        <ele>397</ele>
        <time>2021-09-30T09:01:13Z</time>
      </trkpt>
      <trkpt lat="46.9889" lon="5.86409">
        <ele>400</ele>
        <time>2021-09-30T09:01:49Z</time>
      </trkpt>
      <trkpt lat="46.98899" lon="5.86421">
        <ele>402</ele>
        <time>2021-09-30T09:02:06Z</time>
      </trkpt>
      <trkpt lat="46.98911" lon="5.86444">
        <ele>405</ele>
        <time>2021-09-30T09:02:28Z</time>
      </trkpt>
      <trkpt lat="46.98915" lon="5.86453">
        <ele>405</ele>
        <time>2021-09-30T09:02:32Z</time>
      </trkpt>
      <trkpt lat="46.9892" lon="5.86472">
        <ele>406</ele>
        <time>2021-09-30T09:02:43Z</time>
      </trkpt>
      <trkpt lat="46.98931" lon="5.86485">
        <ele>408</ele>
        <time>2021-09-30T09:03:05Z</time>
      </trkpt>
      <trkpt lat="46.98939" lon="5.86499">
        <ele>409</ele>
        <time>2021-09-30T09:03:16Z</time>
      </trkpt>
      <trkpt lat="46.98946" lon="5.86518">
        <ele>411</ele>
        <time>2021-09-30T09:03:34Z</time>
      </trkpt>
      <trkpt lat="46.98953" lon="5.86532">
        <ele>412</ele>
        <time>2021-09-30T09:03:43Z</time>
      </trkpt>
      <trkpt lat="46.98987" lon="5.86572">
        <ele>415</ele>
        <time>2021-09-30T09:04:25Z</time>
      </trkpt>
      <trkpt lat="46.98998" lon="5.86587">
        <ele>416</ele>
        <time>2021-09-30T09:04:37Z</time>
      </trkpt>
      <trkpt lat="46.99015" lon="5.86608">
        <ele>417</ele>
        <time>2021-09-30T09:05:02Z</time>
      </trkpt>
      <trkpt lat="46.99021" lon="5.86621">
        <ele>417</ele>
        <time>2021-09-30T09:05:17Z</time>
      </trkpt>
      <trkpt lat="46.99031" lon="5.86662">
        <ele>419</ele>
        <time>2021-09-30T09:05:49Z</time>
      </trkpt>
      <trkpt lat="46.99032" lon="5.86678">
        <ele>419</ele>
        <time>2021-09-30T09:05:59Z</time>
      </trkpt>
      <trkpt lat="46.99041" lon="5.86692">
        <ele>420</ele>
        <time>2021-09-30T09:06:11Z</time>
      </trkpt>
      <trkpt lat="46.99044" lon="5.86703">
        <ele>420</ele>
        <time>2021-09-30T09:06:17Z</time>
      </trkpt>
      <trkpt lat="46.99052" lon="5.86726">
        <ele>422</ele>
        <time>2021-09-30T09:06:35Z</time>
      </trkpt>
      <trkpt lat="46.99063" lon="5.86762">
        <ele>423</ele>
        <time>2021-09-30T09:07:02Z</time>
      </trkpt>
      <trkpt lat="46.99072" lon="5.86768">
        <ele>422</ele>
        <time>2021-09-30T09:07:46Z</time>
      </trkpt>
      <trkpt lat="46.99076" lon="5.86759">
        <ele>421</ele>
        <time>2021-09-30T09:08:28Z</time>
      </trkpt>
      <trkpt lat="46.99081" lon="5.86749">
        <ele>421</ele>
        <time>2021-09-30T09:08:37Z</time>
      </trkpt>
      <trkpt lat="46.99088" lon="5.86746">
        <ele>421</ele>
        <time>2021-09-30T09:08:53Z</time>
      </trkpt>
      <trkpt lat="46.99089" lon="5.86739">
        <ele>420</ele>
        <time>2021-09-30T09:11:19Z</time>
      </trkpt>
      <trkpt lat="46.99098" lon="5.86739">
        <ele>419</ele>
        <time>2021-09-30T09:12:12Z</time>
      </trkpt>
      <trkpt lat="46.99086" lon="5.86753">
        <ele>418</ele>
        <time>2021-09-30T09:13:18Z</time>
      </trkpt>
      <trkpt lat="46.991" lon="5.86764">
        <ele>417</ele>
        <time>2021-09-30T09:13:37Z</time>
      </trkpt>
      <trkpt lat="46.99107" lon="5.86764">
        <ele>414</ele>
        <time>2021-09-30T09:13:52Z</time>
      </trkpt>
      <trkpt lat="46.99124" lon="5.86773">
        <ele>410</ele>
        <time>2021-09-30T09:14:14Z</time>
      </trkpt>
      <trkpt lat="46.99149" lon="5.86791">
        <ele>407</ele>
        <time>2021-09-30T09:14:38Z</time>
      </trkpt>
      <trkpt lat="46.99159" lon="5.86803">
        <ele>406</ele>
        <time>2021-09-30T09:14:49Z</time>
      </trkpt>
      <trkpt lat="46.99178" lon="5.86819">
        <ele>403</ele>
        <time>2021-09-30T09:15:23Z</time>
      </trkpt>
      <trkpt lat="46.99197" lon="5.86805">
        <ele>400</ele>
        <time>2021-09-30T09:15:38Z</time>
      </trkpt>
      <trkpt lat="46.99207" lon="5.86787">
        <ele>397</ele>
        <time>2021-09-30T09:15:56Z</time>
      </trkpt>
      <trkpt lat="46.99209" lon="5.86779">
        <ele>396</ele>
        <time>2021-09-30T09:16:00Z</time>
      </trkpt>
      <trkpt lat="46.99208" lon="5.8677">
        <ele>395</ele>
        <time>2021-09-30T09:16:06Z</time>
      </trkpt>
      <trkpt lat="46.9921" lon="5.8676">
        <ele>393</ele>
        <time>2021-09-30T09:16:14Z</time>
      </trkpt>
      <trkpt lat="46.99211" lon="5.86732">
        <ele>390</ele>
        <time>2021-09-30T09:16:32Z</time>
      </trkpt>
      <trkpt lat="46.99213" lon="5.86721">
        <ele>389</ele>
        <time>2021-09-30T09:16:39Z</time>
      </trkpt>
      <trkpt lat="46.99212" lon="5.86714">
        <ele>388</ele>
        <time>2021-09-30T09:16:43Z</time>
      </trkpt>
      <trkpt lat="46.99212" lon="5.86705">
        <ele>387</ele>
        <time>2021-09-30T09:16:48Z</time>
      </trkpt>
      <trkpt lat="46.99217" lon="5.86657">
        <ele>381</ele>
        <time>2021-09-30T09:17:26Z</time>
      </trkpt>
      <trkpt lat="46.99217" lon="5.8665">
        <ele>380</ele>
        <time>2021-09-30T09:17:31Z</time>
      </trkpt>
      <trkpt lat="46.99222" lon="5.86634">
        <ele>378</ele>
        <time>2021-09-30T09:17:43Z</time>
      </trkpt>
      <trkpt lat="46.99217" lon="5.86581">
        <ele>372</ele>
        <time>2021-09-30T09:18:20Z</time>
      </trkpt>
      <trkpt lat="46.99209" lon="5.8656">
        <ele>370</ele>
        <time>2021-09-30T09:18:35Z</time>
      </trkpt>
      <trkpt lat="46.992" lon="5.86513">
        <ele>366</ele>
        <time>2021-09-30T09:19:10Z</time>
      </trkpt>
      <trkpt lat="46.992" lon="5.86498">
        <ele>365</ele>
        <time>2021-09-30T09:19:18Z</time>
      </trkpt>
      <trkpt lat="46.99191" lon="5.86475">
        <ele>363</ele>
        <time>2021-09-30T09:19:37Z</time>
      </trkpt>
      <trkpt lat="46.99189" lon="5.8646">
        <ele>362</ele>
        <time>2021-09-30T09:19:49Z</time>
      </trkpt>
      <trkpt lat="46.99183" lon="5.86441">
        <ele>361</ele>
        <time>2021-09-30T09:20:01Z</time>
      </trkpt>
      <trkpt lat="46.99178" lon="5.86433">
        <ele>360</ele>
        <time>2021-09-30T09:20:08Z</time>
      </trkpt>
      <trkpt lat="46.99174" lon="5.86422">
        <ele>359</ele>
        <time>2021-09-30T09:20:15Z</time>
      </trkpt>
      <trkpt lat="46.99159" lon="5.86382">
        <ele>355</ele>
        <time>2021-09-30T09:20:47Z</time>
      </trkpt>
      <trkpt lat="46.99153" lon="5.86375">
        <ele>354</ele>
        <time>2021-09-30T09:20:54Z</time>
      </trkpt>
      <trkpt lat="46.99148" lon="5.86355">
        <ele>352</ele>
        <time>2021-09-30T09:21:11Z</time>
      </trkpt>
      <trkpt lat="46.99139" lon="5.86337">
        <ele>350</ele>
        <time>2021-09-30T09:21:24Z</time>
      </trkpt>
      <trkpt lat="46.99138" lon="5.86327">
        <ele>350</ele>
        <time>2021-09-30T09:21:29Z</time>
      </trkpt>
      <trkpt lat="46.99143" lon="5.86322">
        <ele>348</ele>
        <time>2021-09-30T09:21:43Z</time>
      </trkpt>
      <trkpt lat="46.99144" lon="5.86313">
        <ele>347</ele>
        <time>2021-09-30T09:21:49Z</time>
      </trkpt>
      <trkpt lat="46.99156" lon="5.86296">
        <ele>343</ele>
        <time>2021-09-30T09:22:15Z</time>
      </trkpt>
      <trkpt lat="46.99159" lon="5.86287">
        <ele>340</ele>
        <time>2021-09-30T09:22:33Z</time>
      </trkpt>
      <trkpt lat="46.99155" lon="5.86271">
        <ele>338</ele>
        <time>2021-09-30T09:22:47Z</time>
      </trkpt>
      <trkpt lat="46.99159" lon="5.86261">
        <ele>336</ele>
        <time>2021-09-30T09:22:59Z</time>
      </trkpt>
      <trkpt lat="46.99163" lon="5.8625">
        <ele>334</ele>
        <time>2021-09-30T09:23:11Z</time>
      </trkpt>
      <trkpt lat="46.99167" lon="5.86241">
        <ele>332</ele>
        <time>2021-09-30T09:23:25Z</time>
      </trkpt>
      <trkpt lat="46.99172" lon="5.86227">
        <ele>330</ele>
        <time>2021-09-30T09:23:38Z</time>
      </trkpt>
      <trkpt lat="46.99178" lon="5.86217">
        <ele>327</ele>
        <time>2021-09-30T09:23:53Z</time>
      </trkpt>
      <trkpt lat="46.99184" lon="5.86215">
        <ele>326</ele>
        <time>2021-09-30T09:23:58Z</time>
      </trkpt>
      <trkpt lat="46.99189" lon="5.86212">
        <ele>326</ele>
        <time>2021-09-30T09:24:02Z</time>
      </trkpt>
      <trkpt lat="46.99196" lon="5.86212">
        <ele>325</ele>
        <time>2021-09-30T09:24:07Z</time>
      </trkpt>
      <trkpt lat="46.99212" lon="5.86202">
        <ele>322</ele>
        <time>2021-09-30T09:24:22Z</time>
      </trkpt>
      <trkpt lat="46.99217" lon="5.86197">
        <ele>321</ele>
        <time>2021-09-30T09:24:28Z</time>
      </trkpt>
      <trkpt lat="46.99223" lon="5.86195">
        <ele>320</ele>
        <time>2021-09-30T09:24:36Z</time>
      </trkpt>
      <trkpt lat="46.99234" lon="5.86188">
        <ele>319</ele>
        <time>2021-09-30T09:24:46Z</time>
      </trkpt>
      <trkpt lat="46.99274" lon="5.86167">
        <ele>313</ele>
        <time>2021-09-30T09:25:21Z</time>
      </trkpt>
      <trkpt lat="46.99281" lon="5.86165">
        <ele>312</ele>
        <time>2021-09-30T09:25:28Z</time>
      </trkpt>
      <trkpt lat="46.99294" lon="5.86156">
        <ele>310</ele>
        <time>2021-09-30T09:25:42Z</time>
      </trkpt>
      <trkpt lat="46.99307" lon="5.86154">
        <ele>308</ele>
        <time>2021-09-30T09:26:13Z</time>
      </trkpt>
      <trkpt lat="46.99312" lon="5.86152">
        <ele>307</ele>
        <time>2021-09-30T09:26:20Z</time>
      </trkpt>
      <trkpt lat="46.99317" lon="5.86144">
        <ele>307</ele>
        <time>2021-09-30T09:26:25Z</time>
      </trkpt>
      <trkpt lat="46.99318" lon="5.86141">
        <ele>306</ele>
        <time>2021-09-30T09:26:39Z</time>
      </trkpt>
      <trkpt lat="46.99322" lon="5.86144">
        <ele>305</ele>
        <time>2021-09-30T09:26:42Z</time>
      </trkpt>
      <trkpt lat="46.9933" lon="5.86144">
        <ele>304</ele>
        <time>2021-09-30T09:26:53Z</time>
      </trkpt>
      <trkpt lat="46.99348" lon="5.86145">
        <ele>302</ele>
        <time>2021-09-30T09:27:09Z</time>
      </trkpt>
      <trkpt lat="46.99359" lon="5.86149">
        <ele>301</ele>
        <time>2021-09-30T09:27:18Z</time>
      </trkpt>
      <trkpt lat="46.99374" lon="5.86148">
        <ele>300</ele>
        <time>2021-09-30T09:27:33Z</time>
      </trkpt>
      <trkpt lat="46.99381" lon="5.86143">
        <ele>299</ele>
        <time>2021-09-30T09:27:42Z</time>
      </trkpt>
      <trkpt lat="46.99391" lon="5.86112">
        <ele>296</ele>
        <time>2021-09-30T09:28:03Z</time>
      </trkpt>
      <trkpt lat="46.99395" lon="5.86077">
        <ele>294</ele>
        <time>2021-09-30T09:28:23Z</time>
      </trkpt>
      <trkpt lat="46.99394" lon="5.86059">
        <ele>294</ele>
        <time>2021-09-30T09:28:33Z</time>
      </trkpt>
      <trkpt lat="46.99409" lon="5.86006">
        <ele>293</ele>
        <time>2021-09-30T09:29:05Z</time>
      </trkpt>
      <trkpt lat="46.99412" lon="5.85999">
        <ele>292</ele>
        <time>2021-09-30T09:29:10Z</time>
      </trkpt>
      <trkpt lat="46.99434" lon="5.8597">
        <ele>291</ele>
        <time>2021-09-30T09:29:33Z</time>
      </trkpt>
      <trkpt lat="46.9944" lon="5.85966">
        <ele>290</ele>
        <time>2021-09-30T09:29:37Z</time>
      </trkpt>
      <trkpt lat="46.99456" lon="5.85951">
        <ele>289</ele>
        <time>2021-09-30T09:29:52Z</time>
      </trkpt>
      <trkpt lat="46.99491" lon="5.85927">
        <ele>287</ele>
        <time>2021-09-30T09:30:23Z</time>
      </trkpt>
      <trkpt lat="46.99503" lon="5.85924">
        <ele>286</ele>
        <time>2021-09-30T09:30:35Z</time>
      </trkpt>
      <trkpt lat="46.99533" lon="5.85927">
        <ele>285</ele>
        <time>2021-09-30T09:31:01Z</time>
      </trkpt>
      <trkpt lat="46.99546" lon="5.85923">
        <ele>284</ele>
        <time>2021-09-30T09:31:15Z</time>
      </trkpt>
      <trkpt lat="46.99559" lon="5.85923">
        <ele>284</ele>
        <time>2021-09-30T09:31:24Z</time>
      </trkpt>
      <trkpt lat="46.99565" lon="5.8592">
        <ele>284</ele>
        <time>2021-09-30T09:31:29Z</time>
      </trkpt>
      <trkpt lat="46.9957" lon="5.85915">
        <ele>284</ele>
        <time>2021-09-30T09:31:34Z</time>
      </trkpt>
      <trkpt lat="46.99574" lon="5.85906">
        <ele>283</ele>
        <time>2021-09-30T09:31:40Z</time>
      </trkpt>
      <trkpt lat="46.9958" lon="5.85893">
        <ele>284</ele>
        <time>2021-09-30T09:31:51Z</time>
      </trkpt>
      <trkpt lat="46.99584" lon="5.85887">
        <ele>283</ele>
        <time>2021-09-30T09:31:56Z</time>
      </trkpt>
      <trkpt lat="46.99594" lon="5.85866">
        <ele>282</ele>
        <time>2021-09-30T09:32:12Z</time>
      </trkpt>
      <trkpt lat="46.99612" lon="5.85838">
        <ele>281</ele>
        <time>2021-09-30T09:32:35Z</time>
      </trkpt>
      <trkpt lat="46.99618" lon="5.8583">
        <ele>280</ele>
        <time>2021-09-30T09:32:42Z</time>
      </trkpt>
      <trkpt lat="46.99626" lon="5.85826">
        <ele>280</ele>
        <time>2021-09-30T09:32:49Z</time>
      </trkpt>
      <trkpt lat="46.99637" lon="5.85819">
        <ele>280</ele>
        <time>2021-09-30T09:32:57Z</time>
      </trkpt>
      <trkpt lat="46.99644" lon="5.85805">
        <ele>279</ele>
        <time>2021-09-30T09:33:09Z</time>
      </trkpt>
      <trkpt lat="46.99668" lon="5.85786">
        <ele>277</ele>
        <time>2021-09-30T09:33:36Z</time>
      </trkpt>
      <trkpt lat="46.99672" lon="5.85779">
        <ele>277</ele>
        <time>2021-09-30T09:33:41Z</time>
      </trkpt>
      <trkpt lat="46.99674" lon="5.85772">
        <ele>276</ele>
        <time>2021-09-30T09:33:46Z</time>
      </trkpt>
      <trkpt lat="46.99685" lon="5.85741">
        <ele>275</ele>
        <time>2021-09-30T09:34:05Z</time>
      </trkpt>
      <trkpt lat="46.99691" lon="5.85725">
        <ele>274</ele>
        <time>2021-09-30T09:34:21Z</time>
      </trkpt>
      <trkpt lat="46.99703" lon="5.85727">
        <ele>274</ele>
        <time>2021-09-30T09:34:33Z</time>
      </trkpt>
      <trkpt lat="46.99711" lon="5.85731">
        <ele>273</ele>
        <time>2021-09-30T09:34:39Z</time>
      </trkpt>
      <trkpt lat="46.9972" lon="5.8573">
        <ele>272</ele>
        <time>2021-09-30T09:34:48Z</time>
      </trkpt>
      <trkpt lat="46.99758" lon="5.8575">
        <ele>270</ele>
        <time>2021-09-30T09:35:20Z</time>
      </trkpt>
      <trkpt lat="46.99779" lon="5.85756">
        <ele>269</ele>
        <time>2021-09-30T09:35:40Z</time>
      </trkpt>
      <trkpt lat="46.99785" lon="5.85759">
        <ele>269</ele>
        <time>2021-09-30T09:35:45Z</time>
      </trkpt>
      <trkpt lat="46.9979" lon="5.85761">
        <ele>269</ele>
        <time>2021-09-30T09:35:50Z</time>
      </trkpt>
      <trkpt lat="46.99801" lon="5.85762">
        <ele>269</ele>
        <time>2021-09-30T09:36:00Z</time>
      </trkpt>
      <trkpt lat="46.99812" lon="5.8577">
        <ele>269</ele>
        <time>2021-09-30T09:36:11Z</time>
      </trkpt>
      <trkpt lat="46.99836" lon="5.85777">
        <ele>269</ele>
        <time>2021-09-30T09:36:31Z</time>
      </trkpt>
      <trkpt lat="46.99841" lon="5.85775">
        <ele>270</ele>
        <time>2021-09-30T09:36:35Z</time>
      </trkpt>
      <trkpt lat="46.99852" lon="5.8577">
        <ele>270</ele>
        <time>2021-09-30T09:36:47Z</time>
      </trkpt>
      <trkpt lat="46.99857" lon="5.85764">
        <ele>270</ele>
        <time>2021-09-30T09:36:52Z</time>
      </trkpt>
      <trkpt lat="46.99866" lon="5.85759">
        <ele>270</ele>
        <time>2021-09-30T09:37:04Z</time>
      </trkpt>
      <trkpt lat="46.99874" lon="5.85765">
        <ele>270</ele>
        <time>2021-09-30T09:37:35Z</time>
      </trkpt>
      <trkpt lat="46.99882" lon="5.85769">
        <ele>269</ele>
        <time>2021-09-30T09:38:05Z</time>
      </trkpt>
      <trkpt lat="46.99887" lon="5.85765">
        <ele>269</ele>
        <time>2021-09-30T09:38:10Z</time>
      </trkpt>
      <trkpt lat="46.99892" lon="5.85761">
        <ele>270</ele>
        <time>2021-09-30T09:38:21Z</time>
      </trkpt>
      <trkpt lat="46.99899" lon="5.85755">
        <ele>270</ele>
        <time>2021-09-30T09:38:40Z</time>
      </trkpt>
      <trkpt lat="46.99902" lon="5.85749">
        <ele>270</ele>
        <time>2021-09-30T09:38:46Z</time>
      </trkpt>
      <trkpt lat="46.99904" lon="5.85741">
        <ele>270</ele>
        <time>2021-09-30T09:38:52Z</time>
      </trkpt>
      <trkpt lat="46.99909" lon="5.85733">
        <ele>270</ele>
        <time>2021-09-30T09:39:02Z</time>
      </trkpt>
      <trkpt lat="46.99922" lon="5.8572">
        <ele>271</ele>
        <time>2021-09-30T09:39:18Z</time>
      </trkpt>
      <trkpt lat="46.99926" lon="5.85712">
        <ele>271</ele>
        <time>2021-09-30T09:39:25Z</time>
      </trkpt>
      <trkpt lat="46.99927" lon="5.85699">
        <ele>271</ele>
        <time>2021-09-30T09:39:33Z</time>
      </trkpt>
      <trkpt lat="46.9993" lon="5.85688">
        <ele>271</ele>
        <time>2021-09-30T09:39:40Z</time>
      </trkpt>
      <trkpt lat="46.9993" lon="5.85677">
        <ele>271</ele>
        <time>2021-09-30T09:39:48Z</time>
      </trkpt>
      <trkpt lat="46.99935" lon="5.85665">
        <ele>272</ele>
        <time>2021-09-30T09:39:58Z</time>
      </trkpt>
      <trkpt lat="46.99939" lon="5.85652">
        <ele>271</ele>
        <time>2021-09-30T09:40:07Z</time>
      </trkpt>
      <trkpt lat="46.99946" lon="5.85644">
        <ele>271</ele>
        <time>2021-09-30T09:40:13Z</time>
      </trkpt>
      <trkpt lat="46.99958" lon="5.85634">
        <ele>270</ele>
        <time>2021-09-30T09:40:29Z</time>
      </trkpt>
      <trkpt lat="46.99983" lon="5.85632">
        <ele>269</ele>
        <time>2021-09-30T09:40:51Z</time>
      </trkpt>
      <trkpt lat="47.00019" lon="5.8562">
        <ele>269</ele>
        <time>2021-09-30T09:41:27Z</time>
      </trkpt>
      <trkpt lat="47.00026" lon="5.85616">
        <ele>269</ele>
        <time>2021-09-30T09:41:33Z</time>
      </trkpt>
      <trkpt lat="47.00035" lon="5.8562">
        <ele>269</ele>
        <time>2021-09-30T09:41:42Z</time>
      </trkpt>
      <trkpt lat="47.00054" lon="5.85627">
        <ele>269</ele>
        <time>2021-09-30T09:42:03Z</time>
      </trkpt>
      <trkpt lat="47.00064" lon="5.85623">
        <ele>269</ele>
        <time>2021-09-30T09:42:13Z</time>
      </trkpt>
      <trkpt lat="47.00088" lon="5.85628">
        <ele>270</ele>
        <time>2021-09-30T09:42:34Z</time>
      </trkpt>
      <trkpt lat="47.00111" lon="5.85625">
        <ele>269</ele>
        <time>2021-09-30T09:42:53Z</time>
      </trkpt>
      <trkpt lat="47.00141" lon="5.85625">
        <ele>269</ele>
        <time>2021-09-30T09:43:24Z</time>
      </trkpt>
      <trkpt lat="47.00174" lon="5.85621">
        <ele>270</ele>
        <time>2021-09-30T09:43:47Z</time>
      </trkpt>
      <trkpt lat="47.00189" lon="5.85618">
        <ele>270</ele>
        <time>2021-09-30T09:44:01Z</time>
      </trkpt>
      <trkpt lat="47.00204" lon="5.85616">
        <ele>270</ele>
        <time>2021-09-30T09:44:14Z</time>
      </trkpt>
      <trkpt lat="47.00211" lon="5.85613">
        <ele>270</ele>
        <time>2021-09-30T09:44:19Z</time>
      </trkpt>
      <trkpt lat="47.00226" lon="5.85613">
        <ele>270</ele>
        <time>2021-09-30T09:44:30Z</time>
      </trkpt>
      <trkpt lat="47.00233" lon="5.85608">
        <ele>270</ele>
        <time>2021-09-30T09:44:36Z</time>
      </trkpt>
      <trkpt lat="47.00242" lon="5.85608">
        <ele>270</ele>
        <time>2021-09-30T09:44:42Z</time>
      </trkpt>
      <trkpt lat="47.00249" lon="5.85602">
        <ele>270</ele>
        <time>2021-09-30T09:44:49Z</time>
      </trkpt>
      <trkpt lat="47.00262" lon="5.856">
        <ele>270</ele>
        <time>2021-09-30T09:45:02Z</time>
      </trkpt>
      <trkpt lat="47.00283" lon="5.85589">
        <ele>270</ele>
        <time>2021-09-30T09:45:22Z</time>
      </trkpt>
      <trkpt lat="47.00292" lon="5.85588">
        <ele>271</ele>
        <time>2021-09-30T09:45:30Z</time>
      </trkpt>
      <trkpt lat="47.00299" lon="5.85586">
        <ele>271</ele>
        <time>2021-09-30T09:45:36Z</time>
      </trkpt>
      <trkpt lat="47.00307" lon="5.85586">
        <ele>271</ele>
        <time>2021-09-30T09:45:42Z</time>
      </trkpt>
      <trkpt lat="47.00322" lon="5.85583">
        <ele>271</ele>
        <time>2021-09-30T09:45:54Z</time>
      </trkpt>
      <trkpt lat="47.00342" lon="5.85575">
        <ele>272</ele>
        <time>2021-09-30T09:46:14Z</time>
      </trkpt>
      <trkpt lat="47.00354" lon="5.85574">
        <ele>272</ele>
        <time>2021-09-30T09:46:25Z</time>
      </trkpt>
      <trkpt lat="47.00384" lon="5.85565">
        <ele>271</ele>
        <time>2021-09-30T09:46:51Z</time>
      </trkpt>
      <trkpt lat="47.00408" lon="5.85562">
        <ele>271</ele>
        <time>2021-09-30T09:47:12Z</time>
      </trkpt>
      <trkpt lat="47.00424" lon="5.85557">
        <ele>270</ele>
        <time>2021-09-30T09:47:24Z</time>
      </trkpt>
      <trkpt lat="47.00432" lon="5.85557">
        <ele>270</ele>
        <time>2021-09-30T09:47:29Z</time>
      </trkpt>
      <trkpt lat="47.0048" lon="5.85546">
        <ele>269</ele>
        <time>2021-09-30T09:48:04Z</time>
      </trkpt>
      <trkpt lat="47.00502" lon="5.85538">
        <ele>269</ele>
        <time>2021-09-30T09:48:22Z</time>
      </trkpt>
      <trkpt lat="47.00527" lon="5.85535">
        <ele>268</ele>
        <time>2021-09-30T09:48:39Z</time>
      </trkpt>
      <trkpt lat="47.00546" lon="5.85527">
        <ele>267</ele>
        <time>2021-09-30T09:48:57Z</time>
      </trkpt>
      <trkpt lat="47.00585" lon="5.85519">
        <ele>267</ele>
        <time>2021-09-30T09:49:29Z</time>
      </trkpt>
      <trkpt lat="47.00624" lon="5.85516">
        <ele>267</ele>
        <time>2021-09-30T09:50:00Z</time>
      </trkpt>
      <trkpt lat="47.00639" lon="5.8551">
        <ele>267</ele>
        <time>2021-09-30T09:50:11Z</time>
      </trkpt>
      <trkpt lat="47.00646" lon="5.85502">
        <ele>267</ele>
        <time>2021-09-30T09:50:15Z</time>
      </trkpt>
      <trkpt lat="47.00655" lon="5.85486">
        <ele>266</ele>
        <time>2021-09-30T09:50:27Z</time>
      </trkpt>
      <trkpt lat="47.0066" lon="5.85478">
        <ele>267</ele>
        <time>2021-09-30T09:50:33Z</time>
      </trkpt>
      <trkpt lat="47.00666" lon="5.85471">
        <ele>266</ele>
        <time>2021-09-30T09:50:41Z</time>
      </trkpt>
      <trkpt lat="47.00672" lon="5.85466">
        <ele>266</ele>
        <time>2021-09-30T09:51:19Z</time>
      </trkpt>
      <trkpt lat="47.00688" lon="5.85452">
        <ele>265</ele>
        <time>2021-09-30T09:51:35Z</time>
      </trkpt>
      <trkpt lat="47.00695" lon="5.85449">
        <ele>265</ele>
        <time>2021-09-30T09:51:42Z</time>
      </trkpt>
      <trkpt lat="47.00727" lon="5.85448">
        <ele>265</ele>
        <time>2021-09-30T09:52:04Z</time>
      </trkpt>
      <trkpt lat="47.00782" lon="5.85441">
        <ele>264</ele>
        <time>2021-09-30T09:52:36Z</time>
      </trkpt>
      <trkpt lat="47.0083" lon="5.85426">
        <ele>262</ele>
        <time>2021-09-30T09:53:09Z</time>
      </trkpt>
      <trkpt lat="47.00841" lon="5.85415">
        <ele>262</ele>
        <time>2021-09-30T09:53:19Z</time>
      </trkpt>
      <trkpt lat="47.00844" lon="5.85406">
        <ele>262</ele>
        <time>2021-09-30T09:53:27Z</time>
      </trkpt>
      <trkpt lat="47.00855" lon="5.85399">
        <ele>261</ele>
        <time>2021-09-30T09:53:38Z</time>
      </trkpt>
      <trkpt lat="47.00858" lon="5.85393">
        <ele>261</ele>
        <time>2021-09-30T09:53:43Z</time>
      </trkpt>
      <trkpt lat="47.00862" lon="5.85387">
        <ele>261</ele>
        <time>2021-09-30T09:53:49Z</time>
      </trkpt>
      <trkpt lat="47.00876" lon="5.85376">
        <ele>261</ele>
        <time>2021-09-30T09:54:14Z</time>
      </trkpt>
      <trkpt lat="47.0088" lon="5.8537">
        <ele>261</ele>
        <time>2021-09-30T09:54:19Z</time>
      </trkpt>
      <trkpt lat="47.00882" lon="5.85362">
        <ele>260</ele>
        <time>2021-09-30T09:54:24Z</time>
      </trkpt>
      <trkpt lat="47.00887" lon="5.85354">
        <ele>260</ele>
        <time>2021-09-30T09:54:29Z</time>
      </trkpt>
      <trkpt lat="47.0089" lon="5.85346">
        <ele>261</ele>
        <time>2021-09-30T09:54:33Z</time>
      </trkpt>
      <trkpt lat="47.00895" lon="5.85331">
        <ele>260</ele>
        <time>2021-09-30T09:54:43Z</time>
      </trkpt>
      <trkpt lat="47.00898" lon="5.85324">
        <ele>260</ele>
        <time>2021-09-30T09:54:47Z</time>
      </trkpt>
      <trkpt lat="47.00902" lon="5.85308">
        <ele>260</ele>
        <time>2021-09-30T09:54:56Z</time>
      </trkpt>
      <trkpt lat="47.00916" lon="5.85287">
        <ele>259</ele>
        <time>2021-09-30T09:55:15Z</time>
      </trkpt>
      <trkpt lat="47.00939" lon="5.85277">
        <ele>259</ele>
        <time>2021-09-30T09:55:35Z</time>
      </trkpt>
      <trkpt lat="47.0095" lon="5.85277">
        <ele>259</ele>
        <time>2021-09-30T09:55:45Z</time>
      </trkpt>
      <trkpt lat="47.00962" lon="5.85282">
        <ele>259</ele>
        <time>2021-09-30T09:55:54Z</time>
      </trkpt>
      <trkpt lat="47.00969" lon="5.85281">
        <ele>259</ele>
        <time>2021-09-30T09:55:58Z</time>
      </trkpt>
      <trkpt lat="47.00974" lon="5.85284">
        <ele>259</ele>
        <time>2021-09-30T09:56:03Z</time>
      </trkpt>
      <trkpt lat="47.00981" lon="5.85285">
        <ele>259</ele>
        <time>2021-09-30T09:56:09Z</time>
      </trkpt>
      <trkpt lat="47.00987" lon="5.85286">
        <ele>259</ele>
        <time>2021-09-30T09:56:14Z</time>
      </trkpt>
      <trkpt lat="47.01005" lon="5.85289">
        <ele>259</ele>
        <time>2021-09-30T09:56:30Z</time>
      </trkpt>
      <trkpt lat="47.01011" lon="5.85288">
        <ele>259</ele>
        <time>2021-09-30T09:56:34Z</time>
      </trkpt>
      <trkpt lat="47.01026" lon="5.85287">
        <ele>259</ele>
        <time>2021-09-30T09:56:48Z</time>
      </trkpt>
      <trkpt lat="47.01037" lon="5.85283">
        <ele>259</ele>
        <time>2021-09-30T09:56:57Z</time>
      </trkpt>
      <trkpt lat="47.01043" lon="5.85283">
        <ele>259</ele>
        <time>2021-09-30T09:57:01Z</time>
      </trkpt>
      <trkpt lat="47.01048" lon="5.85285">
        <ele>260</ele>
        <time>2021-09-30T09:57:06Z</time>
      </trkpt>
      <trkpt lat="47.01054" lon="5.85289">
        <ele>260</ele>
        <time>2021-09-30T09:57:11Z</time>
      </trkpt>
      <trkpt lat="47.01062" lon="5.85295">
        <ele>259</ele>
        <time>2021-09-30T09:57:20Z</time>
      </trkpt>
      <trkpt lat="47.01067" lon="5.85288">
        <ele>260</ele>
        <time>2021-09-30T09:57:39Z</time>
      </trkpt>
      <trkpt lat="47.01068" lon="5.85281">
        <ele>259</ele>
        <time>2021-09-30T09:57:43Z</time>
      </trkpt>
      <trkpt lat="47.01072" lon="5.85275">
        <ele>259</ele>
        <time>2021-09-30T09:57:48Z</time>
      </trkpt>
      <trkpt lat="47.01078" lon="5.85273">
        <ele>259</ele>
        <time>2021-09-30T09:57:53Z</time>
      </trkpt>
      <trkpt lat="47.01084" lon="5.8527">
        <ele>259</ele>
        <time>2021-09-30T09:57:58Z</time>
      </trkpt>
      <trkpt lat="47.0109" lon="5.8527">
        <ele>259</ele>
        <time>2021-09-30T09:58:03Z</time>
      </trkpt>
      <trkpt lat="47.01118" lon="5.85258">
        <ele>259</ele>
        <time>2021-09-30T09:58:28Z</time>
      </trkpt>
      <trkpt lat="47.01124" lon="5.85259">
        <ele>260</ele>
        <time>2021-09-30T09:58:33Z</time>
      </trkpt>
      <trkpt lat="47.01131" lon="5.85258">
        <ele>260</ele>
        <time>2021-09-30T09:58:41Z</time>
      </trkpt>
      <trkpt lat="47.01137" lon="5.85258">
        <ele>260</ele>
        <time>2021-09-30T09:58:47Z</time>
      </trkpt>
      <trkpt lat="47.01143" lon="5.85257">
        <ele>260</ele>
        <time>2021-09-30T09:58:53Z</time>
      </trkpt>
      <trkpt lat="47.01149" lon="5.85256">
        <ele>259</ele>
        <time>2021-09-30T09:58:58Z</time>
      </trkpt>
      <trkpt lat="47.01156" lon="5.85257">
        <ele>259</ele>
        <time>2021-09-30T09:59:03Z</time>
      </trkpt>
      <trkpt lat="47.01162" lon="5.85257">
        <ele>259</ele>
        <time>2021-09-30T09:59:11Z</time>
      </trkpt>
      <trkpt lat="47.012" lon="5.85263">
        <ele>258</ele>
        <time>2021-09-30T09:59:43Z</time>
      </trkpt>
      <trkpt lat="47.01206" lon="5.85264">
        <ele>258</ele>
        <time>2021-09-30T09:59:47Z</time>
      </trkpt>
      <trkpt lat="47.01219" lon="5.85261">
        <ele>258</ele>
        <time>2021-09-30T09:59:58Z</time>
      </trkpt>
      <trkpt lat="47.01242" lon="5.85249">
        <ele>259</ele>
        <time>2021-09-30T10:00:17Z</time>
      </trkpt>
      <trkpt lat="47.01276" lon="5.8525">
        <ele>258</ele>
        <time>2021-09-30T10:00:40Z</time>
      </trkpt>
      <trkpt lat="47.01282" lon="5.85252">
        <ele>258</ele>
        <time>2021-09-30T10:00:44Z</time>
      </trkpt>
      <trkpt lat="47.01289" lon="5.85253">
        <ele>258</ele>
        <time>2021-09-30T10:00:52Z</time>
      </trkpt>
      <trkpt lat="47.01294" lon="5.8526">
        <ele>258</ele>
        <time>2021-09-30T10:00:57Z</time>
      </trkpt>
      <trkpt lat="47.013" lon="5.85256">
        <ele>259</ele>
        <time>2021-09-30T10:01:05Z</time>
      </trkpt>
      <trkpt lat="47.01308" lon="5.85258">
        <ele>258</ele>
        <time>2021-09-30T10:01:12Z</time>
      </trkpt>
      <trkpt lat="47.01312" lon="5.85264">
        <ele>257</ele>
        <time>2021-09-30T10:01:15Z</time>
      </trkpt>
      <trkpt lat="47.01315" lon="5.85271">
        <ele>257</ele>
        <time>2021-09-30T10:01:20Z</time>
      </trkpt>
      <trkpt lat="47.01323" lon="5.85273">
        <ele>257</ele>
        <time>2021-09-30T10:01:28Z</time>
      </trkpt>
      <trkpt lat="47.01329" lon="5.85273">
        <ele>256</ele>
        <time>2021-09-30T10:01:34Z</time>
      </trkpt>
      <trkpt lat="47.01341" lon="5.85277">
        <ele>255</ele>
        <time>2021-09-30T10:01:45Z</time>
      </trkpt>
      <trkpt lat="47.01346" lon="5.85277">
        <ele>255</ele>
        <time>2021-09-30T10:01:50Z</time>
      </trkpt>
      <trkpt lat="47.01361" lon="5.85286">
        <ele>254</ele>
        <time>2021-09-30T10:02:06Z</time>
      </trkpt>
      <trkpt lat="47.0138" lon="5.8529">
        <ele>252</ele>
        <time>2021-09-30T10:02:21Z</time>
      </trkpt>
      <trkpt lat="47.01411" lon="5.85313">
        <ele>251</ele>
        <time>2021-09-30T10:02:51Z</time>
      </trkpt>
      <trkpt lat="47.01416" lon="5.85318">
        <ele>251</ele>
        <time>2021-09-30T10:02:56Z</time>
      </trkpt>
      <trkpt lat="47.01422" lon="5.8532">
        <ele>251</ele>
        <time>2021-09-30T10:03:01Z</time>
      </trkpt>
      <trkpt lat="47.01436" lon="5.85321">
        <ele>251</ele>
        <time>2021-09-30T10:03:13Z</time>
      </trkpt>
      <trkpt lat="47.01457" lon="5.85328">
        <ele>251</ele>
        <time>2021-09-30T10:03:32Z</time>
      </trkpt>
      <trkpt lat="47.0146" lon="5.85319">
        <ele>252</ele>
        <time>2021-09-30T10:03:38Z</time>
      </trkpt>
      <trkpt lat="47.01469" lon="5.85307">
        <ele>253</ele>
        <time>2021-09-30T10:03:52Z</time>
      </trkpt>
      <trkpt lat="47.01473" lon="5.85301">
        <ele>252</ele>
        <time>2021-09-30T10:03:58Z</time>
      </trkpt>
      <trkpt lat="47.01478" lon="5.85297">
        <ele>252</ele>
        <time>2021-09-30T10:04:03Z</time>
      </trkpt>
      <trkpt lat="47.01484" lon="5.85291">
        <ele>252</ele>
        <time>2021-09-30T10:04:14Z</time>
      </trkpt>
      <trkpt lat="47.01495" lon="5.85284">
        <ele>251</ele>
        <time>2021-09-30T10:04:28Z</time>
      </trkpt>
      <trkpt lat="47.01502" lon="5.85274">
        <ele>251</ele>
        <time>2021-09-30T10:04:43Z</time>
      </trkpt>
      <trkpt lat="47.01507" lon="5.85274">
        <ele>251</ele>
        <time>2021-09-30T10:05:04Z</time>
      </trkpt>
      <trkpt lat="47.01532" lon="5.85254">
        <ele>250</ele>
        <time>2021-09-30T10:51:21Z</time>
      </trkpt>
      <trkpt lat="47.01544" lon="5.8523">
        <ele>250</ele>
        <time>2021-09-30T10:51:59Z</time>
      </trkpt>
      <trkpt lat="47.01546" lon="5.85222">
        <ele>252</ele>
        <time>2021-09-30T10:52:07Z</time>
      </trkpt>
      <trkpt lat="47.01546" lon="5.85214">
        <ele>250</ele>
        <time>2021-09-30T10:52:22Z</time>
      </trkpt>
      <trkpt lat="47.0155" lon="5.85202">
        <ele>249</ele>
        <time>2021-09-30T10:52:34Z</time>
      </trkpt>
      <trkpt lat="47.01542" lon="5.85193">
        <ele>248</ele>
        <time>2021-09-30T10:52:52Z</time>
      </trkpt>
      <trkpt lat="47.01535" lon="5.8518">
        <ele>248</ele>
        <time>2021-09-30T10:53:04Z</time>
      </trkpt>
      <trkpt lat="47.015" lon="5.8516">
        <ele>248</ele>
        <time>2021-09-30T10:53:26Z</time>
      </trkpt>
      <trkpt lat="47.0149" lon="5.85149">
        <ele>248</ele>
        <time>2021-09-30T10:53:37Z</time>
      </trkpt>
      <trkpt lat="47.01485" lon="5.85146">
        <ele>248</ele>
        <time>2021-09-30T10:53:42Z</time>
      </trkpt>
      <trkpt lat="47.01481" lon="5.8514">
        <ele>248</ele>
        <time>2021-09-30T10:53:46Z</time>
      </trkpt>
      <trkpt lat="47.01468" lon="5.85136">
        <ele>248</ele>
        <time>2021-09-30T10:53:59Z</time>
      </trkpt>
      <trkpt lat="47.01463" lon="5.85131">
        <ele>248</ele>
        <time>2021-09-30T10:54:03Z</time>
      </trkpt>
      <trkpt lat="47.01456" lon="5.85121">
        <ele>248</ele>
        <time>2021-09-30T10:54:13Z</time>
      </trkpt>
      <trkpt lat="47.01449" lon="5.85119">
        <ele>249</ele>
        <time>2021-09-30T10:54:19Z</time>
      </trkpt>
      <trkpt lat="47.01434" lon="5.85101">
        <ele>248</ele>
        <time>2021-09-30T10:54:36Z</time>
      </trkpt>
      <trkpt lat="47.0143" lon="5.85094">
        <ele>248</ele>
        <time>2021-09-30T10:54:41Z</time>
      </trkpt>
      <trkpt lat="47.01412" lon="5.85075">
        <ele>248</ele>
        <time>2021-09-30T10:55:02Z</time>
      </trkpt>
      <trkpt lat="47.01404" lon="5.8506">
        <ele>248</ele>
        <time>2021-09-30T10:55:14Z</time>
      </trkpt>
      <trkpt lat="47.01388" lon="5.85043">
        <ele>248</ele>
        <time>2021-09-30T10:55:32Z</time>
      </trkpt>
      <trkpt lat="47.01377" lon="5.85036">
        <ele>248</ele>
        <time>2021-09-30T10:55:43Z</time>
      </trkpt>
      <trkpt lat="47.01366" lon="5.85026">
        <ele>248</ele>
        <time>2021-09-30T10:55:54Z</time>
      </trkpt>
      <trkpt lat="47.01361" lon="5.85023">
        <ele>248</ele>
        <time>2021-09-30T10:55:59Z</time>
      </trkpt>
      <trkpt lat="47.01356" lon="5.85021">
        <ele>248</ele>
        <time>2021-09-30T10:56:04Z</time>
      </trkpt>
      <trkpt lat="47.0135" lon="5.85016">
        <ele>249</ele>
        <time>2021-09-30T10:56:09Z</time>
      </trkpt>
      <trkpt lat="47.01339" lon="5.8501">
        <ele>249</ele>
        <time>2021-09-30T10:56:18Z</time>
      </trkpt>
      <trkpt lat="47.01333" lon="5.85009">
        <ele>249</ele>
        <time>2021-09-30T10:56:23Z</time>
      </trkpt>
      <trkpt lat="47.01307" lon="5.84994">
        <ele>249</ele>
        <time>2021-09-30T10:56:49Z</time>
      </trkpt>
      <trkpt lat="47.01301" lon="5.84993">
        <ele>249</ele>
        <time>2021-09-30T10:56:54Z</time>
      </trkpt>
      <trkpt lat="47.01281" lon="5.84972">
        <ele>249</ele>
        <time>2021-09-30T10:57:12Z</time>
      </trkpt>
      <trkpt lat="47.01265" lon="5.84952">
        <ele>250</ele>
        <time>2021-09-30T10:57:35Z</time>
      </trkpt>
      <trkpt lat="47.0126" lon="5.84947">
        <ele>250</ele>
        <time>2021-09-30T10:57:40Z</time>
      </trkpt>
      <trkpt lat="47.01255" lon="5.84942">
        <ele>250</ele>
        <time>2021-09-30T10:57:44Z</time>
      </trkpt>
      <trkpt lat="47.0125" lon="5.84939">
        <ele>250</ele>
        <time>2021-09-30T10:57:50Z</time>
      </trkpt>
      <trkpt lat="47.01242" lon="5.84927">
        <ele>250</ele>
        <time>2021-09-30T10:58:02Z</time>
      </trkpt>
      <trkpt lat="47.0124" lon="5.84917">
        <ele>250</ele>
        <time>2021-09-30T10:58:07Z</time>
      </trkpt>
      <trkpt lat="47.01237" lon="5.84912">
        <ele>250</ele>
        <time>2021-09-30T10:58:11Z</time>
      </trkpt>
      <trkpt lat="47.01235" lon="5.84906">
        <ele>250</ele>
        <time>2021-09-30T10:58:15Z</time>
      </trkpt>
      <trkpt lat="47.01221" lon="5.8487">
        <ele>250</ele>
        <time>2021-09-30T10:58:40Z</time>
      </trkpt>
      <trkpt lat="47.01217" lon="5.84864">
        <ele>250</ele>
        <time>2021-09-30T10:58:44Z</time>
      </trkpt>
      <trkpt lat="47.01213" lon="5.84855">
        <ele>250</ele>
        <time>2021-09-30T10:58:50Z</time>
      </trkpt>
      <trkpt lat="47.01211" lon="5.84847">
        <ele>250</ele>
        <time>2021-09-30T10:58:57Z</time>
      </trkpt>
      <trkpt lat="47.01201" lon="5.84824">
        <ele>249</ele>
        <time>2021-09-30T10:59:12Z</time>
      </trkpt>
      <trkpt lat="47.01196" lon="5.84812">
        <ele>250</ele>
        <time>2021-09-30T10:59:29Z</time>
      </trkpt>
      <trkpt lat="47.01194" lon="5.84802">
        <ele>250</ele>
        <time>2021-09-30T10:59:37Z</time>
      </trkpt>
      <trkpt lat="47.01187" lon="5.84796">
        <ele>250</ele>
        <time>2021-09-30T10:59:42Z</time>
      </trkpt>
      <trkpt lat="47.01183" lon="5.84789">
        <ele>250</ele>
        <time>2021-09-30T10:59:49Z</time>
      </trkpt>
      <trkpt lat="47.0118" lon="5.84784">
        <ele>250</ele>
        <time>2021-09-30T10:59:53Z</time>
      </trkpt>
      <trkpt lat="47.01174" lon="5.84777">
        <ele>250</ele>
        <time>2021-09-30T11:00:00Z</time>
      </trkpt>
      <trkpt lat="47.01168" lon="5.84768">
        <ele>250</ele>
        <time>2021-09-30T11:00:08Z</time>
      </trkpt>
      <trkpt lat="47.01166" lon="5.84763">
        <ele>250</ele>
        <time>2021-09-30T11:00:11Z</time>
      </trkpt>
      <trkpt lat="47.0116" lon="5.84753">
        <ele>250</ele>
        <time>2021-09-30T11:00:21Z</time>
      </trkpt>
      <trkpt lat="47.01151" lon="5.84742">
        <ele>250</ele>
        <time>2021-09-30T11:00:33Z</time>
      </trkpt>
      <trkpt lat="47.01141" lon="5.84725">
        <ele>250</ele>
        <time>2021-09-30T11:00:45Z</time>
      </trkpt>
      <trkpt lat="47.01136" lon="5.84719">
        <ele>250</ele>
        <time>2021-09-30T11:00:51Z</time>
      </trkpt>
      <trkpt lat="47.01131" lon="5.84718">
        <ele>250</ele>
        <time>2021-09-30T11:00:55Z</time>
      </trkpt>
      <trkpt lat="47.011" lon="5.84691">
        <ele>250</ele>
        <time>2021-09-30T11:01:30Z</time>
      </trkpt>
      <trkpt lat="47.01097" lon="5.84685">
        <ele>250</ele>
        <time>2021-09-30T11:01:35Z</time>
      </trkpt>
      <trkpt lat="47.01094" lon="5.8468">
        <ele>250</ele>
        <time>2021-09-30T11:01:39Z</time>
      </trkpt>
      <trkpt lat="47.0109" lon="5.84676">
        <ele>250</ele>
        <time>2021-09-30T11:01:44Z</time>
      </trkpt>
      <trkpt lat="47.01087" lon="5.84668">
        <ele>249</ele>
        <time>2021-09-30T11:01:49Z</time>
      </trkpt>
      <trkpt lat="47.01076" lon="5.84658">
        <ele>250</ele>
        <time>2021-09-30T11:02:04Z</time>
      </trkpt>
      <trkpt lat="47.01071" lon="5.84653">
        <ele>249</ele>
        <time>2021-09-30T11:02:10Z</time>
      </trkpt>
      <trkpt lat="47.01067" lon="5.84646">
        <ele>250</ele>
        <time>2021-09-30T11:02:15Z</time>
      </trkpt>
      <trkpt lat="47.01057" lon="5.84631">
        <ele>249</ele>
        <time>2021-09-30T11:02:31Z</time>
      </trkpt>
      <trkpt lat="47.01053" lon="5.84623">
        <ele>250</ele>
        <time>2021-09-30T11:02:37Z</time>
      </trkpt>
      <trkpt lat="47.01053" lon="5.84615">
        <ele>250</ele>
        <time>2021-09-30T11:02:42Z</time>
      </trkpt>
      <trkpt lat="47.01053" lon="5.84607">
        <ele>250</ele>
        <time>2021-09-30T11:02:46Z</time>
      </trkpt>
      <trkpt lat="47.01053" lon="5.84598">
        <ele>249</ele>
        <time>2021-09-30T11:02:52Z</time>
      </trkpt>
      <trkpt lat="47.01056" lon="5.84589">
        <ele>250</ele>
        <time>2021-09-30T11:02:59Z</time>
      </trkpt>
      <trkpt lat="47.01058" lon="5.84582">
        <ele>250</ele>
        <time>2021-09-30T11:03:13Z</time>
      </trkpt>
      <trkpt lat="47.01057" lon="5.84567">
        <ele>251</ele>
        <time>2021-09-30T11:03:39Z</time>
      </trkpt>
      <trkpt lat="47.01055" lon="5.84558">
        <ele>250</ele>
        <time>2021-09-30T11:03:45Z</time>
      </trkpt>
      <trkpt lat="47.01051" lon="5.84548">
        <ele>250</ele>
        <time>2021-09-30T11:03:53Z</time>
      </trkpt>
      <trkpt lat="47.01051" lon="5.8453">
        <ele>250</ele>
        <time>2021-09-30T11:04:04Z</time>
      </trkpt>
      <trkpt lat="47.01053" lon="5.84513">
        <ele>250</ele>
        <time>2021-09-30T11:04:13Z</time>
      </trkpt>
      <trkpt lat="47.01056" lon="5.84497">
        <ele>251</ele>
        <time>2021-09-30T11:04:24Z</time>
      </trkpt>
      <trkpt lat="47.01052" lon="5.84471">
        <ele>250</ele>
        <time>2021-09-30T11:04:39Z</time>
      </trkpt>
      <trkpt lat="47.01048" lon="5.84458">
        <ele>251</ele>
        <time>2021-09-30T11:04:48Z</time>
      </trkpt>
      <trkpt lat="47.01044" lon="5.84449">
        <ele>251</ele>
        <time>2021-09-30T11:04:56Z</time>
      </trkpt>
      <trkpt lat="47.0104" lon="5.8443">
        <ele>250</ele>
        <time>2021-09-30T11:05:06Z</time>
      </trkpt>
      <trkpt lat="47.01038" lon="5.8442">
        <ele>250</ele>
        <time>2021-09-30T11:05:11Z</time>
      </trkpt>
      <trkpt lat="47.01034" lon="5.84396">
        <ele>251</ele>
        <time>2021-09-30T11:05:26Z</time>
      </trkpt>
      <trkpt lat="47.01032" lon="5.84388">
        <ele>250</ele>
        <time>2021-09-30T11:05:31Z</time>
      </trkpt>
      <trkpt lat="47.0103" lon="5.84379">
        <ele>251</ele>
        <time>2021-09-30T11:05:37Z</time>
      </trkpt>
      <trkpt lat="47.01028" lon="5.84365">
        <ele>252</ele>
        <time>2021-09-30T11:05:50Z</time>
      </trkpt>
      <trkpt lat="47.01017" lon="5.84315">
        <ele>254</ele>
        <time>2021-09-30T11:06:26Z</time>
      </trkpt>
      <trkpt lat="47.01015" lon="5.84302">
        <ele>254</ele>
        <time>2021-09-30T11:06:33Z</time>
      </trkpt>
      <trkpt lat="47.01015" lon="5.84291">
        <ele>254</ele>
        <time>2021-09-30T11:06:38Z</time>
      </trkpt>
      <trkpt lat="47.01014" lon="5.84281">
        <ele>254</ele>
        <time>2021-09-30T11:06:43Z</time>
      </trkpt>
      <trkpt lat="47.0101" lon="5.8427">
        <ele>254</ele>
        <time>2021-09-30T11:06:50Z</time>
      </trkpt>
      <trkpt lat="47.00997" lon="5.84214">
        <ele>254</ele>
        <time>2021-09-30T11:07:25Z</time>
      </trkpt>
      <trkpt lat="47.00991" lon="5.84208">
        <ele>254</ele>
        <time>2021-09-30T11:07:31Z</time>
      </trkpt>
      <trkpt lat="47.00986" lon="5.84198">
        <ele>254</ele>
        <time>2021-09-30T11:07:36Z</time>
      </trkpt>
      <trkpt lat="47.00983" lon="5.84185">
        <ele>254</ele>
        <time>2021-09-30T11:07:46Z</time>
      </trkpt>
      <trkpt lat="47.00978" lon="5.84175">
        <ele>254</ele>
        <time>2021-09-30T11:07:52Z</time>
      </trkpt>
      <trkpt lat="47.00976" lon="5.84164">
        <ele>254</ele>
        <time>2021-09-30T11:08:00Z</time>
      </trkpt>
      <trkpt lat="47.00971" lon="5.84153">
        <ele>254</ele>
        <time>2021-09-30T11:08:10Z</time>
      </trkpt>
      <trkpt lat="47.00965" lon="5.84147">
        <ele>254</ele>
        <time>2021-09-30T11:08:15Z</time>
      </trkpt>
      <trkpt lat="47.00942" lon="5.84096">
        <ele>255</ele>
        <time>2021-09-30T11:08:49Z</time>
      </trkpt>
      <trkpt lat="47.00936" lon="5.84075">
        <ele>255</ele>
        <time>2021-09-30T11:09:04Z</time>
      </trkpt>
      <trkpt lat="47.00929" lon="5.84068">
        <ele>255</ele>
        <time>2021-09-30T11:09:17Z</time>
      </trkpt>
      <trkpt lat="47.00924" lon="5.84053">
        <ele>255</ele>
        <time>2021-09-30T11:09:30Z</time>
      </trkpt>
      <trkpt lat="47.00898" lon="5.8402">
        <ele>254</ele>
        <time>2021-09-30T11:09:56Z</time>
      </trkpt>
      <trkpt lat="47.00883" lon="5.84022">
        <ele>255</ele>
        <time>2021-09-30T11:10:05Z</time>
      </trkpt>
      <trkpt lat="47.0087" lon="5.84015">
        <ele>254</ele>
        <time>2021-09-30T11:10:20Z</time>
      </trkpt>
      <trkpt lat="47.00853" lon="5.84013">
        <ele>253</ele>
        <time>2021-09-30T11:10:30Z</time>
      </trkpt>
      <trkpt lat="47.0084" lon="5.84004">
        <ele>253</ele>
        <time>2021-09-30T11:10:39Z</time>
      </trkpt>
      <trkpt lat="47.00834" lon="5.83999">
        <ele>253</ele>
        <time>2021-09-30T11:10:43Z</time>
      </trkpt>
      <trkpt lat="47.00813" lon="5.83982">
        <ele>253</ele>
        <time>2021-09-30T11:11:02Z</time>
      </trkpt>
      <trkpt lat="47.00804" lon="5.8398">
        <ele>253</ele>
        <time>2021-09-30T11:11:13Z</time>
      </trkpt>
      <trkpt lat="47.00797" lon="5.83976">
        <ele>253</ele>
        <time>2021-09-30T11:11:17Z</time>
      </trkpt>
      <trkpt lat="47.00781" lon="5.83973">
        <ele>253</ele>
        <time>2021-09-30T11:11:32Z</time>
      </trkpt>
      <trkpt lat="47.00776" lon="5.8397">
        <ele>253</ele>
        <time>2021-09-30T11:11:36Z</time>
      </trkpt>
      <trkpt lat="47.0076" lon="5.83954">
        <ele>252</ele>
        <time>2021-09-30T11:11:51Z</time>
      </trkpt>
      <trkpt lat="47.00753" lon="5.83951">
        <ele>252</ele>
        <time>2021-09-30T11:11:59Z</time>
      </trkpt>
      <trkpt lat="47.00744" lon="5.83949">
        <ele>252</ele>
        <time>2021-09-30T11:12:09Z</time>
      </trkpt>
      <trkpt lat="47.00737" lon="5.83944">
        <ele>252</ele>
        <time>2021-09-30T11:12:15Z</time>
      </trkpt>
      <trkpt lat="47.00721" lon="5.83939">
        <ele>252</ele>
        <time>2021-09-30T11:12:29Z</time>
      </trkpt>
      <trkpt lat="47.00709" lon="5.83928">
        <ele>252</ele>
        <time>2021-09-30T11:12:46Z</time>
      </trkpt>
      <trkpt lat="47.00673" lon="5.83905">
        <ele>252</ele>
        <time>2021-09-30T11:13:21Z</time>
      </trkpt>
      <trkpt lat="47.00665" lon="5.83901">
        <ele>252</ele>
        <time>2021-09-30T11:13:28Z</time>
      </trkpt>
      <trkpt lat="47.00658" lon="5.83896">
        <ele>252</ele>
        <time>2021-09-30T11:13:33Z</time>
      </trkpt>
      <trkpt lat="47.0062" lon="5.83885">
        <ele>251</ele>
        <time>2021-09-30T11:14:02Z</time>
      </trkpt>
      <trkpt lat="47.00612" lon="5.83885">
        <ele>251</ele>
        <time>2021-09-30T11:14:08Z</time>
      </trkpt>
      <trkpt lat="47.00603" lon="5.83878">
        <ele>251</ele>
        <time>2021-09-30T11:14:23Z</time>
      </trkpt>
      <trkpt lat="47.00592" lon="5.83875">
        <ele>251</ele>
        <time>2021-09-30T11:14:34Z</time>
      </trkpt>
      <trkpt lat="47.00581" lon="5.83873">
        <ele>251</ele>
        <time>2021-09-30T11:14:43Z</time>
      </trkpt>
      <trkpt lat="47.00558" lon="5.83857">
        <ele>251</ele>
        <time>2021-09-30T11:15:05Z</time>
      </trkpt>
      <trkpt lat="47.00553" lon="5.83852">
        <ele>251</ele>
        <time>2021-09-30T11:15:10Z</time>
      </trkpt>
      <trkpt lat="47.00547" lon="5.83846">
        <ele>252</ele>
        <time>2021-09-30T11:15:27Z</time>
      </trkpt>
      <trkpt lat="47.00541" lon="5.83845">
        <ele>252</ele>
        <time>2021-09-30T11:15:44Z</time>
      </trkpt>
      <trkpt lat="47.00526" lon="5.83832">
        <ele>252</ele>
        <time>2021-09-30T11:16:09Z</time>
      </trkpt>
      <trkpt lat="47.00521" lon="5.83828">
        <ele>252</ele>
        <time>2021-09-30T11:16:14Z</time>
      </trkpt>
      <trkpt lat="47.00514" lon="5.83826">
        <ele>253</ele>
        <time>2021-09-30T11:16:22Z</time>
      </trkpt>
      <trkpt lat="47.00502" lon="5.83822">
        <ele>252</ele>
        <time>2021-09-30T11:16:32Z</time>
      </trkpt>
      <trkpt lat="47.00497" lon="5.83819">
        <ele>253</ele>
        <time>2021-09-30T11:16:37Z</time>
      </trkpt>
      <trkpt lat="47.00485" lon="5.83816">
        <ele>252</ele>
        <time>2021-09-30T11:16:46Z</time>
      </trkpt>
      <trkpt lat="47.0048" lon="5.83814">
        <ele>252</ele>
        <time>2021-09-30T11:16:50Z</time>
      </trkpt>
      <trkpt lat="47.00473" lon="5.83809">
        <ele>252</ele>
        <time>2021-09-30T11:16:57Z</time>
      </trkpt>
      <trkpt lat="47.00452" lon="5.83805">
        <ele>251</ele>
        <time>2021-09-30T11:17:18Z</time>
      </trkpt>
      <trkpt lat="47.00446" lon="5.83802">
        <ele>252</ele>
        <time>2021-09-30T11:17:23Z</time>
      </trkpt>
      <trkpt lat="47.00441" lon="5.83799">
        <ele>251</ele>
        <time>2021-09-30T11:17:28Z</time>
      </trkpt>
      <trkpt lat="47.00438" lon="5.83789">
        <ele>252</ele>
        <time>2021-09-30T11:17:33Z</time>
      </trkpt>
      <trkpt lat="47.00434" lon="5.83781">
        <ele>252</ele>
        <time>2021-09-30T11:17:39Z</time>
      </trkpt>
      <trkpt lat="47.00432" lon="5.83773">
        <ele>252</ele>
        <time>2021-09-30T11:17:45Z</time>
      </trkpt>
      <trkpt lat="47.0042" lon="5.83767">
        <ele>252</ele>
        <time>2021-09-30T11:17:55Z</time>
      </trkpt>
      <trkpt lat="47.00405" lon="5.83751">
        <ele>252</ele>
        <time>2021-09-30T11:18:10Z</time>
      </trkpt>
      <trkpt lat="47.00382" lon="5.83742">
        <ele>252</ele>
        <time>2021-09-30T11:18:30Z</time>
      </trkpt>
      <trkpt lat="47.00376" lon="5.83739">
        <ele>252</ele>
        <time>2021-09-30T11:18:36Z</time>
      </trkpt>
      <trkpt lat="47.00365" lon="5.83728">
        <ele>252</ele>
        <time>2021-09-30T11:18:49Z</time>
      </trkpt>
      <trkpt lat="47.0036" lon="5.83725">
        <ele>252</ele>
        <time>2021-09-30T11:18:54Z</time>
      </trkpt>
      <trkpt lat="47.00353" lon="5.83729">
        <ele>252</ele>
        <time>2021-09-30T11:19:02Z</time>
      </trkpt>
      <trkpt lat="47.00349" lon="5.83732">
        <ele>252</ele>
        <time>2021-09-30T11:19:06Z</time>
      </trkpt>
      <trkpt lat="47.00346" lon="5.83735">
        <ele>252</ele>
        <time>2021-09-30T11:19:09Z</time>
      </trkpt>
      <trkpt lat="47.00337" lon="5.83739">
        <ele>251</ele>
        <time>2021-09-30T11:19:18Z</time>
      </trkpt>
      <trkpt lat="47.00334" lon="5.83742">
        <ele>251</ele>
        <time>2021-09-30T11:19:21Z</time>
      </trkpt>
      <trkpt lat="47.00314" lon="5.83747">
        <ele>250</ele>
        <time>2021-09-30T11:19:40Z</time>
      </trkpt>
      <trkpt lat="47.00279" lon="5.83733">
        <ele>250</ele>
        <time>2021-09-30T11:20:13Z</time>
      </trkpt>
      <trkpt lat="47.00275" lon="5.8373">
        <ele>250</ele>
        <time>2021-09-30T11:20:16Z</time>
      </trkpt>
      <trkpt lat="47.00271" lon="5.83729">
        <ele>250</ele>
        <time>2021-09-30T11:20:21Z</time>
      </trkpt>
      <trkpt lat="47.00267" lon="5.83728">
        <ele>250</ele>
        <time>2021-09-30T11:20:24Z</time>
      </trkpt>
      <trkpt lat="47.00262" lon="5.83725">
        <ele>250</ele>
        <time>2021-09-30T11:20:29Z</time>
      </trkpt>
      <trkpt lat="47.00245" lon="5.83721">
        <ele>249</ele>
        <time>2021-09-30T11:20:45Z</time>
      </trkpt>
      <trkpt lat="47.00238" lon="5.83715">
        <ele>249</ele>
        <time>2021-09-30T11:20:52Z</time>
      </trkpt>
      <trkpt lat="47.0023" lon="5.83714">
        <ele>249</ele>
        <time>2021-09-30T11:20:59Z</time>
      </trkpt>
      <trkpt lat="47.00226" lon="5.83713">
        <ele>249</ele>
        <time>2021-09-30T11:21:03Z</time>
      </trkpt>
      <trkpt lat="47.00219" lon="5.83708">
        <ele>249</ele>
        <time>2021-09-30T11:21:10Z</time>
      </trkpt>
      <trkpt lat="47.00213" lon="5.83706">
        <ele>249</ele>
        <time>2021-09-30T11:21:14Z</time>
      </trkpt>
      <trkpt lat="47.0021" lon="5.83706">
        <ele>249</ele>
        <time>2021-09-30T11:21:17Z</time>
      </trkpt>
      <trkpt lat="47.00205" lon="5.83704">
        <ele>249</ele>
        <time>2021-09-30T11:21:21Z</time>
      </trkpt>
      <trkpt lat="47.0019" lon="5.83695">
        <ele>248</ele>
        <time>2021-09-30T11:21:36Z</time>
      </trkpt>
      <trkpt lat="47.00178" lon="5.83688">
        <ele>248</ele>
        <time>2021-09-30T11:21:46Z</time>
      </trkpt>
      <trkpt lat="47.00165" lon="5.83681">
        <ele>248</ele>
        <time>2021-09-30T11:21:57Z</time>
      </trkpt>
      <trkpt lat="47.00159" lon="5.83681">
        <ele>248</ele>
        <time>2021-09-30T11:22:02Z</time>
      </trkpt>
      <trkpt lat="47.00154" lon="5.83678">
        <ele>248</ele>
        <time>2021-09-30T11:22:06Z</time>
      </trkpt>
      <trkpt lat="47.00152" lon="5.83674">
        <ele>248</ele>
        <time>2021-09-30T11:22:08Z</time>
      </trkpt>
      <trkpt lat="47.00148" lon="5.83671">
        <ele>248</ele>
        <time>2021-09-30T11:22:12Z</time>
      </trkpt>
      <trkpt lat="47.00144" lon="5.83667">
        <ele>248</ele>
        <time>2021-09-30T11:22:16Z</time>
      </trkpt>
      <trkpt lat="47.00132" lon="5.83661">
        <ele>248</ele>
        <time>2021-09-30T11:22:27Z</time>
      </trkpt>
      <trkpt lat="47.00128" lon="5.83657">
        <ele>248</ele>
        <time>2021-09-30T11:22:31Z</time>
      </trkpt>
      <trkpt lat="47.00122" lon="5.83655">
        <ele>248</ele>
        <time>2021-09-30T11:22:37Z</time>
      </trkpt>
      <trkpt lat="47.00104" lon="5.83642">
        <ele>248</ele>
        <time>2021-09-30T11:22:54Z</time>
      </trkpt>
      <trkpt lat="47.00098" lon="5.83635">
        <ele>248</ele>
        <time>2021-09-30T11:23:00Z</time>
      </trkpt>
      <trkpt lat="47.00092" lon="5.8363">
        <ele>248</ele>
        <time>2021-09-30T11:23:05Z</time>
      </trkpt>
      <trkpt lat="47.00088" lon="5.83629">
        <ele>248</ele>
        <time>2021-09-30T11:23:09Z</time>
      </trkpt>
      <trkpt lat="47.00071" lon="5.83613">
        <ele>248</ele>
        <time>2021-09-30T11:23:25Z</time>
      </trkpt>
      <trkpt lat="47.00057" lon="5.83602">
        <ele>248</ele>
        <time>2021-09-30T11:23:38Z</time>
      </trkpt>
      <trkpt lat="47.00054" lon="5.83598">
        <ele>248</ele>
        <time>2021-09-30T11:23:41Z</time>
      </trkpt>
      <trkpt lat="47.00042" lon="5.83591">
        <ele>248</ele>
        <time>2021-09-30T11:23:51Z</time>
      </trkpt>
      <trkpt lat="47.00037" lon="5.83586">
        <ele>248</ele>
        <time>2021-09-30T11:23:54Z</time>
      </trkpt>
      <trkpt lat="47.00031" lon="5.83584">
        <ele>248</ele>
        <time>2021-09-30T11:24:02Z</time>
      </trkpt>
      <trkpt lat="47.00027" lon="5.83581">
        <ele>248</ele>
        <time>2021-09-30T11:24:05Z</time>
      </trkpt>
      <trkpt lat="47.00023" lon="5.8358">
        <ele>248</ele>
        <time>2021-09-30T11:24:09Z</time>
      </trkpt>
      <trkpt lat="47.0001" lon="5.83568">
        <ele>248</ele>
        <time>2021-09-30T11:24:22Z</time>
      </trkpt>
      <trkpt lat="47.00005" lon="5.83568">
        <ele>248</ele>
        <time>2021-09-30T11:24:26Z</time>
      </trkpt>
      <trkpt lat="46.99997" lon="5.83564">
        <ele>248</ele>
        <time>2021-09-30T11:24:33Z</time>
      </trkpt>
      <trkpt lat="46.99994" lon="5.83561">
        <ele>248</ele>
        <time>2021-09-30T11:24:37Z</time>
      </trkpt>
      <trkpt lat="46.99987" lon="5.83552">
        <ele>248</ele>
        <time>2021-09-30T11:24:44Z</time>
      </trkpt>
      <trkpt lat="46.99975" lon="5.83544">
        <ele>248</ele>
        <time>2021-09-30T11:24:56Z</time>
      </trkpt>
      <trkpt lat="46.99963" lon="5.83532">
        <ele>248</ele>
        <time>2021-09-30T11:25:08Z</time>
      </trkpt>
      <trkpt lat="46.9996" lon="5.83531">
        <ele>248</ele>
        <time>2021-09-30T11:25:11Z</time>
      </trkpt>
      <trkpt lat="46.99948" lon="5.83522">
        <ele>248</ele>
        <time>2021-09-30T11:25:22Z</time>
      </trkpt>
      <trkpt lat="46.99926" lon="5.83501">
        <ele>248</ele>
        <time>2021-09-30T11:25:46Z</time>
      </trkpt>
      <trkpt lat="46.99904" lon="5.83487">
        <ele>248</ele>
        <time>2021-09-30T11:26:05Z</time>
      </trkpt>
      <trkpt lat="46.99899" lon="5.83488">
        <ele>248</ele>
        <time>2021-09-30T11:26:11Z</time>
      </trkpt>
      <trkpt lat="46.99888" lon="5.83482">
        <ele>248</ele>
        <time>2021-09-30T11:26:22Z</time>
      </trkpt>
      <trkpt lat="46.99882" lon="5.83474">
        <ele>248</ele>
        <time>2021-09-30T11:26:28Z</time>
      </trkpt>
      <trkpt lat="46.99877" lon="5.83471">
        <ele>248</ele>
        <time>2021-09-30T11:26:34Z</time>
      </trkpt>
      <trkpt lat="46.99858" lon="5.8346">
        <ele>248</ele>
        <time>2021-09-30T11:26:49Z</time>
      </trkpt>
      <trkpt lat="46.99855" lon="5.83456">
        <ele>248</ele>
        <time>2021-09-30T11:26:53Z</time>
      </trkpt>
      <trkpt lat="46.99851" lon="5.83456">
        <ele>248</ele>
        <time>2021-09-30T11:26:57Z</time>
      </trkpt>
      <trkpt lat="46.99847" lon="5.83454">
        <ele>248</ele>
        <time>2021-09-30T11:27:01Z</time>
      </trkpt>
      <trkpt lat="46.99843" lon="5.83452">
        <ele>248</ele>
        <time>2021-09-30T11:27:05Z</time>
      </trkpt>
      <trkpt lat="46.99839" lon="5.83451">
        <ele>247</ele>
        <time>2021-09-30T11:27:08Z</time>
      </trkpt>
      <trkpt lat="46.99823" lon="5.83441">
        <ele>248</ele>
        <time>2021-09-30T11:27:24Z</time>
      </trkpt>
      <trkpt lat="46.99819" lon="5.83437">
        <ele>247</ele>
        <time>2021-09-30T11:27:28Z</time>
      </trkpt>
      <trkpt lat="46.99818" lon="5.83432">
        <ele>248</ele>
        <time>2021-09-30T11:27:31Z</time>
      </trkpt>
      <trkpt lat="46.99811" lon="5.83423">
        <ele>248</ele>
        <time>2021-09-30T11:27:38Z</time>
      </trkpt>
      <trkpt lat="46.99807" lon="5.83407">
        <ele>248</ele>
        <time>2021-09-30T11:27:48Z</time>
      </trkpt>
      <trkpt lat="46.99805" lon="5.8339">
        <ele>249</ele>
        <time>2021-09-30T11:28:00Z</time>
      </trkpt>
      <trkpt lat="46.99806" lon="5.8338">
        <ele>249</ele>
        <time>2021-09-30T11:28:06Z</time>
      </trkpt>
      <trkpt lat="46.99807" lon="5.83371">
        <ele>249</ele>
        <time>2021-09-30T11:28:11Z</time>
      </trkpt>
      <trkpt lat="46.99808" lon="5.83351">
        <ele>250</ele>
        <time>2021-09-30T11:28:25Z</time>
      </trkpt>
      <trkpt lat="46.9981" lon="5.83325">
        <ele>250</ele>
        <time>2021-09-30T11:28:39Z</time>
      </trkpt>
      <trkpt lat="46.99818" lon="5.83307">
        <ele>249</ele>
        <time>2021-09-30T11:28:50Z</time>
      </trkpt>
      <trkpt lat="46.99819" lon="5.83299">
        <ele>249</ele>
        <time>2021-09-30T11:28:55Z</time>
      </trkpt>
      <trkpt lat="46.9982" lon="5.83293">
        <ele>249</ele>
        <time>2021-09-30T11:28:59Z</time>
      </trkpt>
      <trkpt lat="46.9984" lon="5.83249">
        <ele>248</ele>
        <time>2021-09-30T11:29:30Z</time>
      </trkpt>
      <trkpt lat="46.99846" lon="5.83244">
        <ele>248</ele>
        <time>2021-09-30T11:29:37Z</time>
      </trkpt>
      <trkpt lat="46.99857" lon="5.83227">
        <ele>247</ele>
        <time>2021-09-30T11:29:51Z</time>
      </trkpt>
      <trkpt lat="46.9986" lon="5.83224">
        <ele>247</ele>
        <time>2021-09-30T11:29:54Z</time>
      </trkpt>
      <trkpt lat="46.99882" lon="5.83203">
        <ele>247</ele>
        <time>2021-09-30T11:30:15Z</time>
      </trkpt>
      <trkpt lat="46.99885" lon="5.83198">
        <ele>247</ele>
        <time>2021-09-30T11:30:19Z</time>
      </trkpt>
      <trkpt lat="46.99893" lon="5.83189">
        <ele>247</ele>
        <time>2021-09-30T11:30:27Z</time>
      </trkpt>
      <trkpt lat="46.99897" lon="5.83186">
        <ele>247</ele>
        <time>2021-09-30T11:30:31Z</time>
      </trkpt>
      <trkpt lat="46.99902" lon="5.83177">
        <ele>247</ele>
        <time>2021-09-30T11:30:37Z</time>
      </trkpt>
      <trkpt lat="46.99925" lon="5.83153">
        <ele>247</ele>
        <time>2021-09-30T11:31:02Z</time>
      </trkpt>
      <trkpt lat="46.99931" lon="5.83141">
        <ele>247</ele>
        <time>2021-09-30T11:31:11Z</time>
      </trkpt>
      <trkpt lat="46.99941" lon="5.83133">
        <ele>246</ele>
        <time>2021-09-30T11:31:20Z</time>
      </trkpt>
      <trkpt lat="46.99966" lon="5.83107">
        <ele>246</ele>
        <time>2021-09-30T11:31:46Z</time>
      </trkpt>
      <trkpt lat="46.99969" lon="5.831">
        <ele>246</ele>
        <time>2021-09-30T11:31:52Z</time>
      </trkpt>
      <trkpt lat="46.99994" lon="5.83078">
        <ele>246</ele>
        <time>2021-09-30T11:32:12Z</time>
      </trkpt>
      <trkpt lat="47.00004" lon="5.83063">
        <ele>246</ele>
        <time>2021-09-30T11:32:24Z</time>
      </trkpt>
      <trkpt lat="47.00026" lon="5.83047">
        <ele>246</ele>
        <time>2021-09-30T11:32:45Z</time>
      </trkpt>
      <trkpt lat="47.00029" lon="5.83041">
        <ele>246</ele>
        <time>2021-09-30T11:32:49Z</time>
      </trkpt>
      <trkpt lat="47.00047" lon="5.83039">
        <ele>246</ele>
        <time>2021-09-30T11:33:03Z</time>
      </trkpt>
      <trkpt lat="47.00053" lon="5.8304">
        <ele>246</ele>
        <time>2021-09-30T11:33:08Z</time>
      </trkpt>
      <trkpt lat="47.00059" lon="5.83038">
        <ele>246</ele>
        <time>2021-09-30T11:33:13Z</time>
      </trkpt>
      <trkpt lat="47.00065" lon="5.83039">
        <ele>246</ele>
        <time>2021-09-30T11:33:17Z</time>
      </trkpt>
      <trkpt lat="47.0008" lon="5.8304">
        <ele>246</ele>
        <time>2021-09-30T11:33:30Z</time>
      </trkpt>
      <trkpt lat="47.00084" lon="5.83038">
        <ele>246</ele>
        <time>2021-09-30T11:33:33Z</time>
      </trkpt>
      <trkpt lat="47.00116" lon="5.83034">
        <ele>246</ele>
        <time>2021-09-30T11:33:59Z</time>
      </trkpt>
      <trkpt lat="47.00129" lon="5.83034">
        <ele>246</ele>
        <time>2021-09-30T11:34:09Z</time>
      </trkpt>
      <trkpt lat="47.00137" lon="5.83031">
        <ele>246</ele>
        <time>2021-09-30T11:34:16Z</time>
      </trkpt>
      <trkpt lat="47.00163" lon="5.83032">
        <ele>246</ele>
        <time>2021-09-30T11:34:37Z</time>
      </trkpt>
      <trkpt lat="47.00169" lon="5.8303">
        <ele>246</ele>
        <time>2021-09-30T11:34:42Z</time>
      </trkpt>
      <trkpt lat="47.00174" lon="5.83029">
        <ele>246</ele>
        <time>2021-09-30T11:34:47Z</time>
      </trkpt>
      <trkpt lat="47.00178" lon="5.8303">
        <ele>246</ele>
        <time>2021-09-30T11:34:50Z</time>
      </trkpt>
      <trkpt lat="47.00198" lon="5.8303">
        <ele>246</ele>
        <time>2021-09-30T11:35:07Z</time>
      </trkpt>
      <trkpt lat="47.00215" lon="5.83027">
        <ele>246</ele>
        <time>2021-09-30T11:35:21Z</time>
      </trkpt>
      <trkpt lat="47.00224" lon="5.83027">
        <ele>246</ele>
        <time>2021-09-30T11:35:27Z</time>
      </trkpt>
      <trkpt lat="47.00265" lon="5.83019">
        <ele>247</ele>
        <time>2021-09-30T11:36:03Z</time>
      </trkpt>
      <trkpt lat="47.00291" lon="5.82999">
        <ele>247</ele>
        <time>2021-09-30T11:36:27Z</time>
      </trkpt>
      <trkpt lat="47.00314" lon="5.82971">
        <ele>248</ele>
        <time>2021-09-30T11:36:52Z</time>
      </trkpt>
      <trkpt lat="47.00324" lon="5.82962">
        <ele>248</ele>
        <time>2021-09-30T11:37:02Z</time>
      </trkpt>
      <trkpt lat="47.00328" lon="5.82966">
        <ele>250</ele>
        <time>2021-09-30T11:37:58Z</time>
      </trkpt>
      <trkpt lat="47.00332" lon="5.82957">
        <ele>250</ele>
        <time>2021-09-30T11:38:20Z</time>
      </trkpt>
      <trkpt lat="47.00347" lon="5.82921">
        <ele>250</ele>
        <time>2021-09-30T11:38:44Z</time>
      </trkpt>
      <trkpt lat="47.00351" lon="5.82903">
        <ele>251</ele>
        <time>2021-09-30T11:38:55Z</time>
      </trkpt>
      <trkpt lat="47.00351" lon="5.82887">
        <ele>251</ele>
        <time>2021-09-30T11:39:04Z</time>
      </trkpt>
      <trkpt lat="47.00348" lon="5.82857">
        <ele>250</ele>
        <time>2021-09-30T11:39:22Z</time>
      </trkpt>
      <trkpt lat="47.00349" lon="5.82828">
        <ele>250</ele>
        <time>2021-09-30T11:39:37Z</time>
      </trkpt>
      <trkpt lat="47.00356" lon="5.82804">
        <ele>249</ele>
        <time>2021-09-30T11:39:53Z</time>
      </trkpt>
      <trkpt lat="47.00359" lon="5.82796">
        <ele>249</ele>
        <time>2021-09-30T11:39:59Z</time>
      </trkpt>
      <trkpt lat="47.00367" lon="5.82763">
        <ele>249</ele>
        <time>2021-09-30T11:40:19Z</time>
      </trkpt>
      <trkpt lat="47.00372" lon="5.82755">
        <ele>248</ele>
        <time>2021-09-30T11:40:25Z</time>
      </trkpt>
      <trkpt lat="47.00374" lon="5.82748">
        <ele>249</ele>
        <time>2021-09-30T11:40:29Z</time>
      </trkpt>
      <trkpt lat="47.00374" lon="5.8273">
        <ele>249</ele>
        <time>2021-09-30T11:40:40Z</time>
      </trkpt>
      <trkpt lat="47.00376" lon="5.82712">
        <ele>249</ele>
        <time>2021-09-30T11:40:50Z</time>
      </trkpt>
      <trkpt lat="47.00397" lon="5.82674">
        <ele>248</ele>
        <time>2021-09-30T11:41:17Z</time>
      </trkpt>
      <trkpt lat="47.0041" lon="5.82657">
        <ele>248</ele>
        <time>2021-09-30T11:41:32Z</time>
      </trkpt>
      <trkpt lat="47.00418" lon="5.82651">
        <ele>248</ele>
        <time>2021-09-30T11:41:38Z</time>
      </trkpt>
      <trkpt lat="47.00423" lon="5.82646">
        <ele>248</ele>
        <time>2021-09-30T11:41:42Z</time>
      </trkpt>
      <trkpt lat="47.00428" lon="5.82639">
        <ele>248</ele>
        <time>2021-09-30T11:41:47Z</time>
      </trkpt>
      <trkpt lat="47.00434" lon="5.82635">
        <ele>249</ele>
        <time>2021-09-30T11:41:51Z</time>
      </trkpt>
      <trkpt lat="47.00449" lon="5.82621">
        <ele>249</ele>
        <time>2021-09-30T11:42:06Z</time>
      </trkpt>
      <trkpt lat="47.0048" lon="5.826">
        <ele>250</ele>
        <time>2021-09-30T11:42:40Z</time>
      </trkpt>
      <trkpt lat="47.00486" lon="5.82597">
        <ele>250</ele>
        <time>2021-09-30T11:42:45Z</time>
      </trkpt>
      <trkpt lat="47.0049" lon="5.82597">
        <ele>250</ele>
        <time>2021-09-30T11:43:16Z</time>
      </trkpt>
      <trkpt lat="47.00499" lon="5.8259">
        <ele>249</ele>
        <time>2021-09-30T11:44:52Z</time>
      </trkpt>
      <trkpt lat="47.00521" lon="5.8256">
        <ele>249</ele>
        <time>2021-09-30T11:45:14Z</time>
      </trkpt>
      <trkpt lat="47.00521" lon="5.82552">
        <ele>249</ele>
        <time>2021-09-30T11:45:20Z</time>
      </trkpt>
      <trkpt lat="47.0052" lon="5.82515">
        <ele>251</ele>
        <time>2021-09-30T11:45:41Z</time>
      </trkpt>
      <trkpt lat="47.00517" lon="5.82495">
        <ele>251</ele>
        <time>2021-09-30T11:45:56Z</time>
      </trkpt>
      <trkpt lat="47.00514" lon="5.82486">
        <ele>250</ele>
        <time>2021-09-30T11:46:02Z</time>
      </trkpt>
      <trkpt lat="47.00512" lon="5.82476">
        <ele>250</ele>
        <time>2021-09-30T11:46:07Z</time>
      </trkpt>
      <trkpt lat="47.00509" lon="5.8246">
        <ele>250</ele>
        <time>2021-09-30T11:46:17Z</time>
      </trkpt>
      <trkpt lat="47.00506" lon="5.82443">
        <ele>249</ele>
        <time>2021-09-30T11:46:26Z</time>
      </trkpt>
      <trkpt lat="47.00498" lon="5.82409">
        <ele>250</ele>
        <time>2021-09-30T11:46:45Z</time>
      </trkpt>
      <trkpt lat="47.00498" lon="5.824">
        <ele>250</ele>
        <time>2021-09-30T11:46:50Z</time>
      </trkpt>
      <trkpt lat="47.00493" lon="5.82391">
        <ele>249</ele>
        <time>2021-09-30T11:46:55Z</time>
      </trkpt>
      <trkpt lat="47.0049" lon="5.82385">
        <ele>250</ele>
        <time>2021-09-30T11:46:58Z</time>
      </trkpt>
      <trkpt lat="47.00488" lon="5.82377">
        <ele>250</ele>
        <time>2021-09-30T11:47:03Z</time>
      </trkpt>
      <trkpt lat="47.00486" lon="5.82366">
        <ele>250</ele>
        <time>2021-09-30T11:47:11Z</time>
      </trkpt>
      <trkpt lat="47.00486" lon="5.82357">
        <ele>250</ele>
        <time>2021-09-30T11:47:19Z</time>
      </trkpt>
      <trkpt lat="47.00479" lon="5.82347">
        <ele>251</ele>
        <time>2021-09-30T11:47:30Z</time>
      </trkpt>
      <trkpt lat="47.00474" lon="5.82346">
        <ele>251</ele>
        <time>2021-09-30T11:47:34Z</time>
      </trkpt>
      <trkpt lat="47.00468" lon="5.82346">
        <ele>251</ele>
        <time>2021-09-30T11:47:43Z</time>
      </trkpt>
      <trkpt lat="47.00456" lon="5.82348">
        <ele>251</ele>
        <time>2021-09-30T11:47:53Z</time>
      </trkpt>
      <trkpt lat="47.00449" lon="5.8235">
        <ele>251</ele>
        <time>2021-09-30T11:48:00Z</time>
      </trkpt>
      <trkpt lat="47.00417" lon="5.82352">
        <ele>251</ele>
        <time>2021-09-30T11:48:27Z</time>
      </trkpt>
      <trkpt lat="47.00411" lon="5.82354">
        <ele>251</ele>
        <time>2021-09-30T11:48:32Z</time>
      </trkpt>
      <trkpt lat="47.00405" lon="5.82354">
        <ele>251</ele>
        <time>2021-09-30T11:48:38Z</time>
      </trkpt>
      <trkpt lat="47.00399" lon="5.82355">
        <ele>250</ele>
        <time>2021-09-30T11:48:45Z</time>
      </trkpt>
      <trkpt lat="47.00382" lon="5.82353">
        <ele>250</ele>
        <time>2021-09-30T11:49:00Z</time>
      </trkpt>
      <trkpt lat="47.00359" lon="5.8234">
        <ele>249</ele>
        <time>2021-09-30T11:50:14Z</time>
      </trkpt>
      <trkpt lat="47.00353" lon="5.82339">
        <ele>248</ele>
        <time>2021-09-30T11:50:20Z</time>
      </trkpt>
      <trkpt lat="47.00343" lon="5.82342">
        <ele>248</ele>
        <time>2021-09-30T11:50:32Z</time>
      </trkpt>
      <trkpt lat="47.00334" lon="5.82347">
        <ele>248</ele>
        <time>2021-09-30T11:50:43Z</time>
      </trkpt>
      <trkpt lat="47.00328" lon="5.82347">
        <ele>248</ele>
        <time>2021-09-30T11:50:49Z</time>
      </trkpt>
      <trkpt lat="47.00322" lon="5.82346">
        <ele>248</ele>
        <time>2021-09-30T11:50:54Z</time>
      </trkpt>
      <trkpt lat="47.00292" lon="5.82319">
        <ele>247</ele>
        <time>2021-09-30T11:51:28Z</time>
      </trkpt>
      <trkpt lat="47.00289" lon="5.82316">
        <ele>247</ele>
        <time>2021-09-30T11:51:31Z</time>
      </trkpt>
      <trkpt lat="47.00271" lon="5.82304">
        <ele>247</ele>
        <time>2021-09-30T11:51:48Z</time>
      </trkpt>
      <trkpt lat="47.00268" lon="5.82299">
        <ele>247</ele>
        <time>2021-09-30T11:51:52Z</time>
      </trkpt>
      <trkpt lat="47.00237" lon="5.82275">
        <ele>248</ele>
        <time>2021-09-30T11:52:24Z</time>
      </trkpt>
      <trkpt lat="47.00232" lon="5.82271">
        <ele>248</ele>
        <time>2021-09-30T11:52:30Z</time>
      </trkpt>
      <trkpt lat="47.00227" lon="5.82267">
        <ele>248</ele>
        <time>2021-09-30T11:52:35Z</time>
      </trkpt>
      <trkpt lat="47.00223" lon="5.82261">
        <ele>249</ele>
        <time>2021-09-30T11:52:49Z</time>
      </trkpt>
      <trkpt lat="47.0021" lon="5.82259">
        <ele>250</ele>
        <time>2021-09-30T11:53:21Z</time>
      </trkpt>
      <trkpt lat="47.0018" lon="5.8225">
        <ele>252</ele>
        <time>2021-09-30T11:53:44Z</time>
      </trkpt>
      <trkpt lat="47.00175" lon="5.82251">
        <ele>253</ele>
        <time>2021-09-30T11:53:48Z</time>
      </trkpt>
      <trkpt lat="47.00156" lon="5.82247">
        <ele>254</ele>
        <time>2021-09-30T11:54:04Z</time>
      </trkpt>
      <trkpt lat="47.00144" lon="5.82247">
        <ele>254</ele>
        <time>2021-09-30T11:54:14Z</time>
      </trkpt>
      <trkpt lat="47.00139" lon="5.82245">
        <ele>254</ele>
        <time>2021-09-30T11:54:19Z</time>
      </trkpt>
      <trkpt lat="47.00132" lon="5.82243">
        <ele>255</ele>
        <time>2021-09-30T11:54:24Z</time>
      </trkpt>
      <trkpt lat="47.00119" lon="5.82244">
        <ele>256</ele>
        <time>2021-09-30T11:54:37Z</time>
      </trkpt>
      <trkpt lat="47.00112" lon="5.82246">
        <ele>255</ele>
        <time>2021-09-30T11:54:42Z</time>
      </trkpt>
      <trkpt lat="47.00106" lon="5.82251">
        <ele>257</ele>
        <time>2021-09-30T11:54:50Z</time>
      </trkpt>
      <trkpt lat="47.00101" lon="5.82255">
        <ele>257</ele>
        <time>2021-09-30T11:54:56Z</time>
      </trkpt>
      <trkpt lat="47.00095" lon="5.82257">
        <ele>257</ele>
        <time>2021-09-30T11:55:01Z</time>
      </trkpt>
      <trkpt lat="47.00084" lon="5.82256">
        <ele>257</ele>
        <time>2021-09-30T11:55:12Z</time>
      </trkpt>
      <trkpt lat="47.00079" lon="5.82259">
        <ele>257</ele>
        <time>2021-09-30T11:55:17Z</time>
      </trkpt>
      <trkpt lat="47.00074" lon="5.82252">
        <ele>258</ele>
        <time>2021-09-30T11:55:30Z</time>
      </trkpt>
      <trkpt lat="47.0007" lon="5.82246">
        <ele>259</ele>
        <time>2021-09-30T11:55:37Z</time>
      </trkpt>
      <trkpt lat="47.00066" lon="5.8224">
        <ele>260</ele>
        <time>2021-09-30T11:55:47Z</time>
      </trkpt>
      <trkpt lat="47.00061" lon="5.82237">
        <ele>261</ele>
        <time>2021-09-30T11:56:46Z</time>
      </trkpt>
      <trkpt lat="47.00057" lon="5.82231">
        <ele>261</ele>
        <time>2021-09-30T11:57:46Z</time>
      </trkpt>
      <trkpt lat="47.00054" lon="5.82223">
        <ele>262</ele>
        <time>2021-09-30T11:57:58Z</time>
      </trkpt>
      <trkpt lat="47.00035" lon="5.82209">
        <ele>265</ele>
        <time>2021-09-30T11:58:24Z</time>
      </trkpt>
      <trkpt lat="47.00031" lon="5.82203">
        <ele>266</ele>
        <time>2021-09-30T11:58:30Z</time>
      </trkpt>
      <trkpt lat="47.00013" lon="5.82192">
        <ele>269</ele>
        <time>2021-09-30T11:58:52Z</time>
      </trkpt>
      <trkpt lat="46.99995" lon="5.82184">
        <ele>272</ele>
        <time>2021-09-30T11:59:13Z</time>
      </trkpt>
      <trkpt lat="46.99987" lon="5.82179">
        <ele>273</ele>
        <time>2021-09-30T11:59:26Z</time>
      </trkpt>
      <trkpt lat="46.99979" lon="5.82174">
        <ele>275</ele>
        <time>2021-09-30T11:59:38Z</time>
      </trkpt>
      <trkpt lat="46.99951" lon="5.82159">
        <ele>279</ele>
        <time>2021-09-30T12:00:07Z</time>
      </trkpt>
      <trkpt lat="46.99944" lon="5.82157">
        <ele>281</ele>
        <time>2021-09-30T12:00:19Z</time>
      </trkpt>
      <trkpt lat="46.9991" lon="5.82136">
        <ele>286</ele>
        <time>2021-09-30T12:01:02Z</time>
      </trkpt>
      <trkpt lat="46.99903" lon="5.8213">
        <ele>286</ele>
        <time>2021-09-30T12:01:11Z</time>
      </trkpt>
      <trkpt lat="46.99896" lon="5.82128">
        <ele>287</ele>
        <time>2021-09-30T12:01:17Z</time>
      </trkpt>
      <trkpt lat="46.99892" lon="5.82121">
        <ele>288</ele>
        <time>2021-09-30T12:01:24Z</time>
      </trkpt>
      <trkpt lat="46.99887" lon="5.82115">
        <ele>289</ele>
        <time>2021-09-30T12:01:40Z</time>
      </trkpt>
      <trkpt lat="46.99881" lon="5.82114">
        <ele>289</ele>
        <time>2021-09-30T12:02:16Z</time>
      </trkpt>
      <trkpt lat="46.99868" lon="5.82104">
        <ele>290</ele>
        <time>2021-09-30T12:02:33Z</time>
      </trkpt>
      <trkpt lat="46.99861" lon="5.82099">
        <ele>289</ele>
        <time>2021-09-30T12:02:42Z</time>
      </trkpt>
      <trkpt lat="46.99849" lon="5.82092">
        <ele>289</ele>
        <time>2021-09-30T12:02:54Z</time>
      </trkpt>
      <trkpt lat="46.99844" lon="5.82086">
        <ele>290</ele>
        <time>2021-09-30T12:02:59Z</time>
      </trkpt>
      <trkpt lat="46.99827" lon="5.82079">
        <ele>289</ele>
        <time>2021-09-30T12:03:15Z</time>
      </trkpt>
      <trkpt lat="46.99822" lon="5.82076">
        <ele>289</ele>
        <time>2021-09-30T12:03:20Z</time>
      </trkpt>
      <trkpt lat="46.99818" lon="5.82071">
        <ele>290</ele>
        <time>2021-09-30T12:03:25Z</time>
      </trkpt>
      <trkpt lat="46.99812" lon="5.82067">
        <ele>290</ele>
        <time>2021-09-30T12:03:32Z</time>
      </trkpt>
      <trkpt lat="46.99801" lon="5.82056">
        <ele>291</ele>
        <time>2021-09-30T12:03:45Z</time>
      </trkpt>
      <trkpt lat="46.99796" lon="5.82051">
        <ele>291</ele>
        <time>2021-09-30T12:03:50Z</time>
      </trkpt>
      <trkpt lat="46.99771" lon="5.8203">
        <ele>293</ele>
        <time>2021-09-30T12:04:18Z</time>
      </trkpt>
      <trkpt lat="46.99766" lon="5.82022">
        <ele>293</ele>
        <time>2021-09-30T12:04:26Z</time>
      </trkpt>
      <trkpt lat="46.99755" lon="5.82011">
        <ele>296</ele>
        <time>2021-09-30T12:04:40Z</time>
      </trkpt>
      <trkpt lat="46.99737" lon="5.81992">
        <ele>299</ele>
        <time>2021-09-30T12:05:07Z</time>
      </trkpt>
      <trkpt lat="46.99732" lon="5.81983">
        <ele>300</ele>
        <time>2021-09-30T12:05:20Z</time>
      </trkpt>
      <trkpt lat="46.9973" lon="5.81973">
        <ele>301</ele>
        <time>2021-09-30T12:05:38Z</time>
      </trkpt>
      <trkpt lat="46.99712" lon="5.8196">
        <ele>299</ele>
        <time>2021-09-30T12:06:01Z</time>
      </trkpt>
      <trkpt lat="46.99702" lon="5.81944">
        <ele>297</ele>
        <time>2021-09-30T12:06:18Z</time>
      </trkpt>
      <trkpt lat="46.99688" lon="5.81937">
        <ele>297</ele>
        <time>2021-09-30T12:06:32Z</time>
      </trkpt>
      <trkpt lat="46.9968" lon="5.81933">
        <ele>297</ele>
        <time>2021-09-30T12:06:38Z</time>
      </trkpt>
      <trkpt lat="46.99672" lon="5.8193">
        <ele>297</ele>
        <time>2021-09-30T12:06:45Z</time>
      </trkpt>
      <trkpt lat="46.99658" lon="5.81925">
        <ele>296</ele>
        <time>2021-09-30T12:06:58Z</time>
      </trkpt>
      <trkpt lat="46.9965" lon="5.81924">
        <ele>296</ele>
        <time>2021-09-30T12:07:05Z</time>
      </trkpt>
      <trkpt lat="46.99608" lon="5.81898">
        <ele>299</ele>
        <time>2021-09-30T12:07:43Z</time>
      </trkpt>
      <trkpt lat="46.99581" lon="5.81881">
        <ele>302</ele>
        <time>2021-09-30T12:08:09Z</time>
      </trkpt>
      <trkpt lat="46.99534" lon="5.81873">
        <ele>309</ele>
        <time>2021-09-30T12:09:01Z</time>
      </trkpt>
      <trkpt lat="46.99505" lon="5.81878">
        <ele>309</ele>
        <time>2021-09-30T12:09:25Z</time>
      </trkpt>
      <trkpt lat="46.99499" lon="5.81877">
        <ele>308</ele>
        <time>2021-09-30T12:09:33Z</time>
      </trkpt>
      <trkpt lat="46.99492" lon="5.81874">
        <ele>308</ele>
        <time>2021-09-30T12:09:41Z</time>
      </trkpt>
      <trkpt lat="46.99487" lon="5.81873">
        <ele>308</ele>
        <time>2021-09-30T12:09:47Z</time>
      </trkpt>
      <trkpt lat="46.99476" lon="5.81867">
        <ele>307</ele>
        <time>2021-09-30T12:10:00Z</time>
      </trkpt>
      <trkpt lat="46.9947" lon="5.81864">
        <ele>306</ele>
        <time>2021-09-30T12:10:06Z</time>
      </trkpt>
      <trkpt lat="46.99465" lon="5.81859">
        <ele>306</ele>
        <time>2021-09-30T12:10:11Z</time>
      </trkpt>
      <trkpt lat="46.99448" lon="5.81855">
        <ele>305</ele>
        <time>2021-09-30T12:10:27Z</time>
      </trkpt>
      <trkpt lat="46.99441" lon="5.81851">
        <ele>304</ele>
        <time>2021-09-30T12:10:39Z</time>
      </trkpt>
      <trkpt lat="46.99435" lon="5.81847">
        <ele>304</ele>
        <time>2021-09-30T12:10:46Z</time>
      </trkpt>
      <trkpt lat="46.99435" lon="5.81832">
        <ele>306</ele>
        <time>2021-09-30T12:10:59Z</time>
      </trkpt>
      <trkpt lat="46.99436" lon="5.81824">
        <ele>306</ele>
        <time>2021-09-30T12:11:04Z</time>
      </trkpt>
      <trkpt lat="46.99441" lon="5.81811">
        <ele>308</ele>
        <time>2021-09-30T12:11:15Z</time>
      </trkpt>
      <trkpt lat="46.99444" lon="5.81786">
        <ele>311</ele>
        <time>2021-09-30T12:11:33Z</time>
      </trkpt>
      <trkpt lat="46.99447" lon="5.8178">
        <ele>312</ele>
        <time>2021-09-30T12:11:39Z</time>
      </trkpt>
      <trkpt lat="46.99448" lon="5.81769">
        <ele>313</ele>
        <time>2021-09-30T12:11:45Z</time>
      </trkpt>
      <trkpt lat="46.99456" lon="5.81748">
        <ele>316</ele>
        <time>2021-09-30T12:12:06Z</time>
      </trkpt>
      <trkpt lat="46.99464" lon="5.81715">
        <ele>321</ele>
        <time>2021-09-30T12:12:40Z</time>
      </trkpt>
      <trkpt lat="46.99468" lon="5.81667">
        <ele>324</ele>
        <time>2021-09-30T12:13:11Z</time>
      </trkpt>
      <trkpt lat="46.99468" lon="5.81656">
        <ele>325</ele>
        <time>2021-09-30T12:13:18Z</time>
      </trkpt>
      <trkpt lat="46.99471" lon="5.81649">
        <ele>326</ele>
        <time>2021-09-30T12:13:25Z</time>
      </trkpt>
      <trkpt lat="46.99471" lon="5.8164">
        <ele>327</ele>
        <time>2021-09-30T12:13:35Z</time>
      </trkpt>
      <trkpt lat="46.9948" lon="5.8162">
        <ele>331</ele>
        <time>2021-09-30T12:13:51Z</time>
      </trkpt>
      <trkpt lat="46.99478" lon="5.81605">
        <ele>333</ele>
        <time>2021-09-30T12:14:04Z</time>
      </trkpt>
      <trkpt lat="46.99478" lon="5.81597">
        <ele>334</ele>
        <time>2021-09-30T12:14:16Z</time>
      </trkpt>
      <trkpt lat="46.99498" lon="5.81618">
        <ele>338</ele>
        <time>2021-09-30T12:15:45Z</time>
      </trkpt>
      <trkpt lat="46.99506" lon="5.81625">
        <ele>339</ele>
        <time>2021-09-30T12:15:58Z</time>
      </trkpt>
      <trkpt lat="46.99512" lon="5.81635">
        <ele>341</ele>
        <time>2021-09-30T12:16:09Z</time>
      </trkpt>
      <trkpt lat="46.99524" lon="5.81649">
        <ele>342</ele>
        <time>2021-09-30T12:16:24Z</time>
      </trkpt>
      <trkpt lat="46.99532" lon="5.8166">
        <ele>343</ele>
        <time>2021-09-30T12:16:41Z</time>
      </trkpt>
      <trkpt lat="46.99537" lon="5.81666">
        <ele>344</ele>
        <time>2021-09-30T12:16:46Z</time>
      </trkpt>
      <trkpt lat="46.99546" lon="5.81669">
        <ele>345</ele>
        <time>2021-09-30T12:16:56Z</time>
      </trkpt>
      <trkpt lat="46.9957" lon="5.81684">
        <ele>349</ele>
        <time>2021-09-30T12:17:33Z</time>
      </trkpt>
      <trkpt lat="46.99594" lon="5.81697">
        <ele>353</ele>
        <time>2021-09-30T12:18:04Z</time>
      </trkpt>
      <trkpt lat="46.99618" lon="5.81706">
        <ele>355</ele>
        <time>2021-09-30T12:18:31Z</time>
      </trkpt>
      <trkpt lat="46.99627" lon="5.81705">
        <ele>356</ele>
        <time>2021-09-30T12:18:41Z</time>
      </trkpt>
      <trkpt lat="46.99635" lon="5.81707">
        <ele>359</ele>
        <time>2021-09-30T12:18:54Z</time>
      </trkpt>
      <trkpt lat="46.99657" lon="5.81695">
        <ele>362</ele>
        <time>2021-09-30T12:19:22Z</time>
      </trkpt>
      <trkpt lat="46.9967" lon="5.81691">
        <ele>363</ele>
        <time>2021-09-30T12:19:33Z</time>
      </trkpt>
      <trkpt lat="46.99677" lon="5.81692">
        <ele>364</ele>
        <time>2021-09-30T12:19:42Z</time>
      </trkpt>
      <trkpt lat="46.99701" lon="5.81712">
        <ele>365</ele>
        <time>2021-09-30T12:20:13Z</time>
      </trkpt>
      <trkpt lat="46.99717" lon="5.81731">
        <ele>364</ele>
        <time>2021-09-30T12:20:40Z</time>
      </trkpt>
      <trkpt lat="46.99724" lon="5.81736">
        <ele>364</ele>
        <time>2021-09-30T12:20:48Z</time>
      </trkpt>
      <trkpt lat="46.99729" lon="5.81743">
        <ele>365</ele>
        <time>2021-09-30T12:20:56Z</time>
      </trkpt>
      <trkpt lat="46.99745" lon="5.81744">
        <ele>366</ele>
        <time>2021-09-30T12:21:09Z</time>
      </trkpt>
      <trkpt lat="46.99753" lon="5.81739">
        <ele>366</ele>
        <time>2021-09-30T12:21:14Z</time>
      </trkpt>
      <trkpt lat="46.99785" lon="5.81757">
        <ele>367</ele>
        <time>2021-09-30T12:21:49Z</time>
      </trkpt>
      <trkpt lat="46.99823" lon="5.81771">
        <ele>366</ele>
        <time>2021-09-30T12:22:22Z</time>
      </trkpt>
      <trkpt lat="46.99833" lon="5.81778">
        <ele>366</ele>
        <time>2021-09-30T12:22:37Z</time>
      </trkpt>
      <trkpt lat="46.99862" lon="5.81784">
        <ele>365</ele>
        <time>2021-09-30T12:23:03Z</time>
      </trkpt>
      <trkpt lat="46.99874" lon="5.81778">
        <ele>364</ele>
        <time>2021-09-30T12:23:20Z</time>
      </trkpt>
      <trkpt lat="46.99888" lon="5.81775">
        <ele>364</ele>
        <time>2021-09-30T12:23:33Z</time>
      </trkpt>
      <trkpt lat="46.99908" lon="5.81778">
        <ele>365</ele>
        <time>2021-09-30T12:23:55Z</time>
      </trkpt>
      <trkpt lat="46.99924" lon="5.81773">
        <ele>364</ele>
        <time>2021-09-30T12:24:06Z</time>
      </trkpt>
      <trkpt lat="46.99958" lon="5.8177">
        <ele>364</ele>
        <time>2021-09-30T12:24:40Z</time>
      </trkpt>
      <trkpt lat="46.99978" lon="5.81758">
        <ele>365</ele>
        <time>2021-09-30T12:24:55Z</time>
      </trkpt>
      <trkpt lat="46.99996" lon="5.81742">
        <ele>366</ele>
        <time>2021-09-30T12:25:14Z</time>
      </trkpt>
      <trkpt lat="47.00003" lon="5.81736">
        <ele>366</ele>
        <time>2021-09-30T12:25:20Z</time>
      </trkpt>
      <trkpt lat="47.00007" lon="5.8173">
        <ele>366</ele>
        <time>2021-09-30T12:25:24Z</time>
      </trkpt>
      <trkpt lat="47.00039" lon="5.81704">
        <ele>363</ele>
        <time>2021-09-30T12:26:01Z</time>
      </trkpt>
      <trkpt lat="47.00049" lon="5.81701">
        <ele>362</ele>
        <time>2021-09-30T12:26:11Z</time>
      </trkpt>
      <trkpt lat="47.00053" lon="5.81694">
        <ele>362</ele>
        <time>2021-09-30T12:26:16Z</time>
      </trkpt>
      <trkpt lat="47.0006" lon="5.81688">
        <ele>362</ele>
        <time>2021-09-30T12:26:22Z</time>
      </trkpt>
      <trkpt lat="47.00064" lon="5.81685">
        <ele>361</ele>
        <time>2021-09-30T12:26:26Z</time>
      </trkpt>
      <trkpt lat="47.00074" lon="5.81686">
        <ele>360</ele>
        <time>2021-09-30T12:26:38Z</time>
      </trkpt>
      <trkpt lat="47.00094" lon="5.81701">
        <ele>358</ele>
        <time>2021-09-30T12:26:58Z</time>
      </trkpt>
      <trkpt lat="47.00103" lon="5.81716">
        <ele>357</ele>
        <time>2021-09-30T12:27:10Z</time>
      </trkpt>
      <trkpt lat="47.0011" lon="5.81722">
        <ele>356</ele>
        <time>2021-09-30T12:27:20Z</time>
      </trkpt>
      <trkpt lat="47.00114" lon="5.81729">
        <ele>355</ele>
        <time>2021-09-30T12:27:26Z</time>
      </trkpt>
      <trkpt lat="47.00115" lon="5.81737">
        <ele>355</ele>
        <time>2021-09-30T12:27:32Z</time>
      </trkpt>
      <trkpt lat="47.00112" lon="5.8175">
        <ele>354</ele>
        <time>2021-09-30T12:27:46Z</time>
      </trkpt>
      <trkpt lat="47.00111" lon="5.81758">
        <ele>354</ele>
        <time>2021-09-30T12:27:58Z</time>
      </trkpt>
      <trkpt lat="47.00111" lon="5.81776">
        <ele>353</ele>
        <time>2021-09-30T12:28:09Z</time>
      </trkpt>
      <trkpt lat="47.00109" lon="5.81789">
        <ele>352</ele>
        <time>2021-09-30T12:28:19Z</time>
      </trkpt>
      <trkpt lat="47.00105" lon="5.81795">
        <ele>351</ele>
        <time>2021-09-30T12:28:29Z</time>
      </trkpt>
      <trkpt lat="47.00104" lon="5.81821">
        <ele>348</ele>
        <time>2021-09-30T12:28:50Z</time>
      </trkpt>
      <trkpt lat="47.00116" lon="5.81841">
        <ele>344</ele>
        <time>2021-09-30T12:29:14Z</time>
      </trkpt>
      <trkpt lat="47.00121" lon="5.81853">
        <ele>342</ele>
        <time>2021-09-30T12:29:31Z</time>
      </trkpt>
      <trkpt lat="47.00134" lon="5.8185">
        <ele>339</ele>
        <time>2021-09-30T12:29:54Z</time>
      </trkpt>
      <trkpt lat="47.00139" lon="5.8185">
        <ele>338</ele>
        <time>2021-09-30T12:30:06Z</time>
      </trkpt>
      <trkpt lat="47.00138" lon="5.81846">
        <ele>336</ele>
        <time>2021-09-30T12:35:08Z</time>
      </trkpt>
      <trkpt lat="47.00136" lon="5.8185">
        <ele>334</ele>
        <time>2021-09-30T12:38:59Z</time>
      </trkpt>
      <trkpt lat="47.00133" lon="5.81842">
        <ele>335</ele>
        <time>2021-09-30T12:40:29Z</time>
      </trkpt>
      <trkpt lat="47.00126" lon="5.81838">
        <ele>336</ele>
        <time>2021-09-30T12:40:47Z</time>
      </trkpt>
      <trkpt lat="47.00122" lon="5.81831">
        <ele>337</ele>
        <time>2021-09-30T12:40:53Z</time>
      </trkpt>
      <trkpt lat="47.00107" lon="5.81818">
        <ele>342</ele>
        <time>2021-09-30T12:41:16Z</time>
      </trkpt>
      <trkpt lat="47.00106" lon="5.81805">
        <ele>344</ele>
        <time>2021-09-30T12:41:29Z</time>
      </trkpt>
      <trkpt lat="47.00108" lon="5.81791">
        <ele>346</ele>
        <time>2021-09-30T12:41:42Z</time>
      </trkpt>
      <trkpt lat="47.00106" lon="5.8178">
        <ele>347</ele>
        <time>2021-09-30T12:41:48Z</time>
      </trkpt>
      <trkpt lat="47.00118" lon="5.81735">
        <ele>350</ele>
        <time>2021-09-30T12:42:28Z</time>
      </trkpt>
      <trkpt lat="47.00092" lon="5.81702">
        <ele>354</ele>
        <time>2021-09-30T12:43:12Z</time>
      </trkpt>
      <trkpt lat="47.00083" lon="5.81702">
        <ele>356</ele>
        <time>2021-09-30T12:43:24Z</time>
      </trkpt>
      <trkpt lat="47.00059" lon="5.81697">
        <ele>358</ele>
        <time>2021-09-30T12:43:47Z</time>
      </trkpt>
      <trkpt lat="47.00037" lon="5.81706">
        <ele>360</ele>
        <time>2021-09-30T12:44:10Z</time>
      </trkpt>
      <trkpt lat="47.00017" lon="5.81713">
        <ele>361</ele>
        <time>2021-09-30T12:44:30Z</time>
      </trkpt>
      <trkpt lat="47.00011" lon="5.8172">
        <ele>361</ele>
        <time>2021-09-30T12:44:37Z</time>
      </trkpt>
      <trkpt lat="47.00007" lon="5.81729">
        <ele>362</ele>
        <time>2021-09-30T12:44:43Z</time>
      </trkpt>
      <trkpt lat="46.99997" lon="5.81749">
        <ele>361</ele>
        <time>2021-09-30T12:44:59Z</time>
      </trkpt>
      <trkpt lat="46.99989" lon="5.81756">
        <ele>361</ele>
        <time>2021-09-30T12:45:09Z</time>
      </trkpt>
      <trkpt lat="46.99976" lon="5.81765">
        <ele>361</ele>
        <time>2021-09-30T12:45:21Z</time>
      </trkpt>
      <trkpt lat="46.99969" lon="5.81765">
        <ele>361</ele>
        <time>2021-09-30T12:45:26Z</time>
      </trkpt>
      <trkpt lat="46.99951" lon="5.81766">
        <ele>361</ele>
        <time>2021-09-30T12:45:43Z</time>
      </trkpt>
      <trkpt lat="46.99915" lon="5.81776">
        <ele>362</ele>
        <time>2021-09-30T12:46:19Z</time>
      </trkpt>
      <trkpt lat="46.99888" lon="5.81783">
        <ele>362</ele>
        <time>2021-09-30T12:46:42Z</time>
      </trkpt>
      <trkpt lat="46.99868" lon="5.81783">
        <ele>363</ele>
        <time>2021-09-30T12:47:01Z</time>
      </trkpt>
      <trkpt lat="46.99851" lon="5.81774">
        <ele>364</ele>
        <time>2021-09-30T12:47:18Z</time>
      </trkpt>
      <trkpt lat="46.99846" lon="5.81767">
        <ele>364</ele>
        <time>2021-09-30T12:47:24Z</time>
      </trkpt>
      <trkpt lat="46.99835" lon="5.81768">
        <ele>365</ele>
        <time>2021-09-30T12:47:33Z</time>
      </trkpt>
      <trkpt lat="46.99806" lon="5.81755">
        <ele>366</ele>
        <time>2021-09-30T12:48:02Z</time>
      </trkpt>
      <trkpt lat="46.99767" lon="5.81741">
        <ele>365</ele>
        <time>2021-09-30T12:48:35Z</time>
      </trkpt>
      <trkpt lat="46.99751" lon="5.81737">
        <ele>364</ele>
        <time>2021-09-30T12:48:47Z</time>
      </trkpt>
      <trkpt lat="46.99745" lon="5.81738">
        <ele>364</ele>
        <time>2021-09-30T12:48:52Z</time>
      </trkpt>
      <trkpt lat="46.99739" lon="5.81738">
        <ele>364</ele>
        <time>2021-09-30T12:48:58Z</time>
      </trkpt>
      <trkpt lat="46.99733" lon="5.81739">
        <ele>364</ele>
        <time>2021-09-30T12:49:03Z</time>
      </trkpt>
      <trkpt lat="46.99725" lon="5.81734">
        <ele>363</ele>
        <time>2021-09-30T12:49:14Z</time>
      </trkpt>
      <trkpt lat="46.9972" lon="5.81726">
        <ele>364</ele>
        <time>2021-09-30T12:49:23Z</time>
      </trkpt>
      <trkpt lat="46.99703" lon="5.81716">
        <ele>364</ele>
        <time>2021-09-30T12:49:43Z</time>
      </trkpt>
      <trkpt lat="46.99689" lon="5.81702">
        <ele>364</ele>
        <time>2021-09-30T12:49:59Z</time>
      </trkpt>
      <trkpt lat="46.99681" lon="5.817">
        <ele>364</ele>
        <time>2021-09-30T12:50:05Z</time>
      </trkpt>
      <trkpt lat="46.99675" lon="5.817">
        <ele>364</ele>
        <time>2021-09-30T12:50:10Z</time>
      </trkpt>
      <trkpt lat="46.99663" lon="5.81698">
        <ele>362</ele>
        <time>2021-09-30T12:50:19Z</time>
      </trkpt>
      <trkpt lat="46.9965" lon="5.81699">
        <ele>361</ele>
        <time>2021-09-30T12:50:32Z</time>
      </trkpt>
      <trkpt lat="46.9964" lon="5.81705">
        <ele>359</ele>
        <time>2021-09-30T12:50:45Z</time>
      </trkpt>
      <trkpt lat="46.99635" lon="5.81705">
        <ele>358</ele>
        <time>2021-09-30T12:50:50Z</time>
      </trkpt>
      <trkpt lat="46.99611" lon="5.81703">
        <ele>354</ele>
        <time>2021-09-30T12:51:21Z</time>
      </trkpt>
      <trkpt lat="46.99595" lon="5.81696">
        <ele>352</ele>
        <time>2021-09-30T12:51:41Z</time>
      </trkpt>
      <trkpt lat="46.9959" lon="5.81689">
        <ele>351</ele>
        <time>2021-09-30T12:51:47Z</time>
      </trkpt>
      <trkpt lat="46.99561" lon="5.81668">
        <ele>346</ele>
        <time>2021-09-30T12:52:22Z</time>
      </trkpt>
      <trkpt lat="46.99548" lon="5.81662">
        <ele>345</ele>
        <time>2021-09-30T12:52:35Z</time>
      </trkpt>
      <trkpt lat="46.99535" lon="5.81653">
        <ele>343</ele>
        <time>2021-09-30T12:52:50Z</time>
      </trkpt>
      <trkpt lat="46.99532" lon="5.81646">
        <ele>342</ele>
        <time>2021-09-30T12:52:57Z</time>
      </trkpt>
      <trkpt lat="46.99519" lon="5.81631">
        <ele>340</ele>
        <time>2021-09-30T12:53:14Z</time>
      </trkpt>
      <trkpt lat="46.99512" lon="5.81624">
        <ele>339</ele>
        <time>2021-09-30T12:53:25Z</time>
      </trkpt>
      <trkpt lat="46.99507" lon="5.81619">
        <ele>338</ele>
        <time>2021-09-30T12:53:31Z</time>
      </trkpt>
      <trkpt lat="46.99501" lon="5.81615">
        <ele>338</ele>
        <time>2021-09-30T12:53:36Z</time>
      </trkpt>
      <trkpt lat="46.99497" lon="5.8161">
        <ele>337</ele>
        <time>2021-09-30T12:53:41Z</time>
      </trkpt>
      <trkpt lat="46.99485" lon="5.81599">
        <ele>335</ele>
        <time>2021-09-30T12:53:53Z</time>
      </trkpt>
      <trkpt lat="46.9948" lon="5.81604">
        <ele>334</ele>
        <time>2021-09-30T12:54:07Z</time>
      </trkpt>
      <trkpt lat="46.99471" lon="5.81611">
        <ele>333</ele>
        <time>2021-09-30T12:54:20Z</time>
      </trkpt>
      <trkpt lat="46.99467" lon="5.81617">
        <ele>332</ele>
        <time>2021-09-30T12:54:25Z</time>
      </trkpt>
      <trkpt lat="46.99466" lon="5.81641">
        <ele>329</ele>
        <time>2021-09-30T12:54:46Z</time>
      </trkpt>
      <trkpt lat="46.99461" lon="5.81669">
        <ele>326</ele>
        <time>2021-09-30T12:55:06Z</time>
      </trkpt>
      <trkpt lat="46.99455" lon="5.8172">
        <ele>322</ele>
        <time>2021-09-30T12:55:42Z</time>
      </trkpt>
      <trkpt lat="46.99452" lon="5.81731">
        <ele>320</ele>
        <time>2021-09-30T12:55:56Z</time>
      </trkpt>
      <trkpt lat="46.99452" lon="5.81739">
        <ele>319</ele>
        <time>2021-09-30T12:56:02Z</time>
      </trkpt>
      <trkpt lat="46.99448" lon="5.81749">
        <ele>318</ele>
        <time>2021-09-30T12:56:11Z</time>
      </trkpt>
      <trkpt lat="46.99443" lon="5.8176">
        <ele>316</ele>
        <time>2021-09-30T12:56:20Z</time>
      </trkpt>
      <trkpt lat="46.99438" lon="5.81799">
        <ele>312</ele>
        <time>2021-09-30T12:56:45Z</time>
      </trkpt>
      <trkpt lat="46.99432" lon="5.81815">
        <ele>310</ele>
        <time>2021-09-30T12:57:01Z</time>
      </trkpt>
      <trkpt lat="46.99428" lon="5.81821">
        <ele>309</ele>
        <time>2021-09-30T12:57:07Z</time>
      </trkpt>
      <trkpt lat="46.99426" lon="5.81832">
        <ele>308</ele>
        <time>2021-09-30T12:57:17Z</time>
      </trkpt>
      <trkpt lat="46.9943" lon="5.81838">
        <ele>307</ele>
        <time>2021-09-30T12:57:29Z</time>
      </trkpt>
      <trkpt lat="46.99436" lon="5.81852">
        <ele>306</ele>
        <time>2021-09-30T12:57:43Z</time>
      </trkpt>
      <trkpt lat="46.99442" lon="5.81858">
        <ele>306</ele>
        <time>2021-09-30T12:57:49Z</time>
      </trkpt>
      <trkpt lat="46.99464" lon="5.81867">
        <ele>307</ele>
        <time>2021-09-30T12:58:09Z</time>
      </trkpt>
      <trkpt lat="46.99474" lon="5.81875">
        <ele>308</ele>
        <time>2021-09-30T12:58:18Z</time>
      </trkpt>
      <trkpt lat="46.99491" lon="5.81881">
        <ele>308</ele>
        <time>2021-09-30T12:58:33Z</time>
      </trkpt>
      <trkpt lat="46.99496" lon="5.81883">
        <ele>308</ele>
        <time>2021-09-30T12:58:38Z</time>
      </trkpt>
      <trkpt lat="46.99505" lon="5.81883">
        <ele>308</ele>
        <time>2021-09-30T12:58:45Z</time>
      </trkpt>
      <trkpt lat="46.99526" lon="5.81885">
        <ele>310</ele>
        <time>2021-09-30T12:59:06Z</time>
      </trkpt>
      <trkpt lat="46.99534" lon="5.81886">
        <ele>309</ele>
        <time>2021-09-30T12:59:13Z</time>
      </trkpt>
      <trkpt lat="46.9956" lon="5.81889">
        <ele>306</ele>
        <time>2021-09-30T12:59:42Z</time>
      </trkpt>
      <trkpt lat="46.9961" lon="5.81915">
        <ele>298</ele>
        <time>2021-09-30T13:00:36Z</time>
      </trkpt>
      <trkpt lat="46.99625" lon="5.81921">
        <ele>297</ele>
        <time>2021-09-30T13:00:50Z</time>
      </trkpt>
      <trkpt lat="46.99654" lon="5.81933">
        <ele>296</ele>
        <time>2021-09-30T13:01:12Z</time>
      </trkpt>
      <trkpt lat="46.99669" lon="5.81938">
        <ele>297</ele>
        <time>2021-09-30T13:01:24Z</time>
      </trkpt>
      <trkpt lat="46.99682" lon="5.81946">
        <ele>297</ele>
        <time>2021-09-30T13:01:36Z</time>
      </trkpt>
      <trkpt lat="46.99697" lon="5.81951">
        <ele>297</ele>
        <time>2021-09-30T13:01:48Z</time>
      </trkpt>
      <trkpt lat="46.99711" lon="5.81958">
        <ele>299</ele>
        <time>2021-09-30T13:02:03Z</time>
      </trkpt>
      <trkpt lat="46.99731" lon="5.81978">
        <ele>302</ele>
        <time>2021-09-30T13:02:32Z</time>
      </trkpt>
      <trkpt lat="46.99748" lon="5.82015">
        <ele>297</ele>
        <time>2021-09-30T13:03:05Z</time>
      </trkpt>
      <trkpt lat="46.99772" lon="5.82043">
        <ele>293</ele>
        <time>2021-09-30T13:03:36Z</time>
      </trkpt>
      <trkpt lat="46.99777" lon="5.82048">
        <ele>292</ele>
        <time>2021-09-30T13:03:41Z</time>
      </trkpt>
      <trkpt lat="46.99782" lon="5.82052">
        <ele>292</ele>
        <time>2021-09-30T13:03:47Z</time>
      </trkpt>
      <trkpt lat="46.99788" lon="5.82055">
        <ele>292</ele>
        <time>2021-09-30T13:03:52Z</time>
      </trkpt>
      <trkpt lat="46.99804" lon="5.82071">
        <ele>290</ele>
        <time>2021-09-30T13:04:10Z</time>
      </trkpt>
      <trkpt lat="46.99827" lon="5.82083">
        <ele>289</ele>
        <time>2021-09-30T13:04:31Z</time>
      </trkpt>
      <trkpt lat="46.9985" lon="5.82095">
        <ele>289</ele>
        <time>2021-09-30T13:04:52Z</time>
      </trkpt>
      <trkpt lat="46.9986" lon="5.82106">
        <ele>289</ele>
        <time>2021-09-30T13:05:01Z</time>
      </trkpt>
      <trkpt lat="46.99867" lon="5.8211">
        <ele>288</ele>
        <time>2021-09-30T13:05:08Z</time>
      </trkpt>
      <trkpt lat="46.99872" lon="5.82115">
        <ele>288</ele>
        <time>2021-09-30T13:05:13Z</time>
      </trkpt>
      <trkpt lat="46.9988" lon="5.82119">
        <ele>288</ele>
        <time>2021-09-30T13:05:21Z</time>
      </trkpt>
      <trkpt lat="46.99894" lon="5.82134">
        <ele>286</ele>
        <time>2021-09-30T13:05:35Z</time>
      </trkpt>
      <trkpt lat="46.999" lon="5.82137">
        <ele>285</ele>
        <time>2021-09-30T13:05:41Z</time>
      </trkpt>
      <trkpt lat="46.99907" lon="5.82147">
        <ele>284</ele>
        <time>2021-09-30T13:05:51Z</time>
      </trkpt>
      <trkpt lat="46.99924" lon="5.82159">
        <ele>281</ele>
        <time>2021-09-30T13:06:07Z</time>
      </trkpt>
      <trkpt lat="46.9994" lon="5.8217">
        <ele>278</ele>
        <time>2021-09-30T13:06:24Z</time>
      </trkpt>
      <trkpt lat="46.99955" lon="5.82175">
        <ele>275</ele>
        <time>2021-09-30T13:06:41Z</time>
      </trkpt>
      <trkpt lat="46.99979" lon="5.82191">
        <ele>271</ele>
        <time>2021-09-30T13:07:03Z</time>
      </trkpt>
      <trkpt lat="46.99999" lon="5.82197">
        <ele>268</ele>
        <time>2021-09-30T13:07:24Z</time>
      </trkpt>
      <trkpt lat="47.00023" lon="5.82215">
        <ele>264</ele>
        <time>2021-09-30T13:07:50Z</time>
      </trkpt>
      <trkpt lat="47.00046" lon="5.82228">
        <ele>260</ele>
        <time>2021-09-30T13:08:13Z</time>
      </trkpt>
      <trkpt lat="47.00055" lon="5.82233">
        <ele>259</ele>
        <time>2021-09-30T13:08:24Z</time>
      </trkpt>
      <trkpt lat="47.00061" lon="5.82243">
        <ele>257</ele>
        <time>2021-09-30T13:08:34Z</time>
      </trkpt>
      <trkpt lat="47.00071" lon="5.82244">
        <ele>256</ele>
        <time>2021-09-30T13:08:58Z</time>
      </trkpt>
      <trkpt lat="47.00074" lon="5.82251">
        <ele>254</ele>
        <time>2021-09-30T13:09:16Z</time>
      </trkpt>
      <trkpt lat="47.00071" lon="5.82259">
        <ele>253</ele>
        <time>2021-09-30T13:09:22Z</time>
      </trkpt>
      <trkpt lat="47.00079" lon="5.82265">
        <ele>253</ele>
        <time>2021-09-30T13:09:35Z</time>
      </trkpt>
      <trkpt lat="47.00086" lon="5.82267">
        <ele>253</ele>
        <time>2021-09-30T13:09:39Z</time>
      </trkpt>
      <trkpt lat="47.00107" lon="5.82254">
        <ele>253</ele>
        <time>2021-09-30T13:09:58Z</time>
      </trkpt>
      <trkpt lat="47.00115" lon="5.82253">
        <ele>252</ele>
        <time>2021-09-30T13:10:07Z</time>
      </trkpt>
      <trkpt lat="47.0012" lon="5.82261">
        <ele>252</ele>
        <time>2021-09-30T13:10:11Z</time>
      </trkpt>
      <trkpt lat="47.00121" lon="5.82253">
        <ele>253</ele>
        <time>2021-09-30T13:11:00Z</time>
      </trkpt>
      <trkpt lat="47.00124" lon="5.82243">
        <ele>253</ele>
        <time>2021-09-30T13:11:14Z</time>
      </trkpt>
      <trkpt lat="47.00152" lon="5.82252">
        <ele>251</ele>
        <time>2021-09-30T13:11:38Z</time>
      </trkpt>
      <trkpt lat="47.00157" lon="5.82251">
        <ele>251</ele>
        <time>2021-09-30T13:11:44Z</time>
      </trkpt>
      <trkpt lat="47.00166" lon="5.82253">
        <ele>251</ele>
        <time>2021-09-30T13:11:56Z</time>
      </trkpt>
      <trkpt lat="47.00177" lon="5.82258">
        <ele>250</ele>
        <time>2021-09-30T13:12:06Z</time>
      </trkpt>
      <trkpt lat="47.00218" lon="5.82271">
        <ele>247</ele>
        <time>2021-09-30T13:12:48Z</time>
      </trkpt>
      <trkpt lat="47.00252" lon="5.82296">
        <ele>246</ele>
        <time>2021-09-30T13:13:21Z</time>
      </trkpt>
      <trkpt lat="47.00285" lon="5.82321">
        <ele>246</ele>
        <time>2021-09-30T13:13:56Z</time>
      </trkpt>
      <trkpt lat="47.003" lon="5.82335">
        <ele>246</ele>
        <time>2021-09-30T13:14:10Z</time>
      </trkpt>
      <trkpt lat="47.00306" lon="5.82337">
        <ele>248</ele>
        <time>2021-09-30T13:14:15Z</time>
      </trkpt>
      <trkpt lat="47.00312" lon="5.82342">
        <ele>247</ele>
        <time>2021-09-30T13:14:22Z</time>
      </trkpt>
      <trkpt lat="47.00326" lon="5.82344">
        <ele>246</ele>
        <time>2021-09-30T13:14:44Z</time>
      </trkpt>
      <trkpt lat="47.00346" lon="5.82334">
        <ele>246</ele>
        <time>2021-09-30T13:14:58Z</time>
      </trkpt>
    </trkseg>
  </trk>
</gpx>